Time,TemperatureF,DewpointF,PressureIn,WindDirection,WindDirectionDegrees,WindSpeedMPH,WindSpeedGustMPH,Humidity,HourlyPrecipIn,Conditions,Clouds,dailyrainin,SoftwareType,DateUTC
2013-12-21 00:00:00,43.2,42.1,29.77,West,263,9.0,18.0,96,0.00,,---,0.19,VWS V14.01,2013-12-21 05:00:00,
2013-12-21 00:01:00,43.1,42.0,29.77,WSW,251,13.0,13.0,96,0.00,,---,0.00,VWS V14.01,2013-12-21 05:01:00,
2013-12-21 00:02:00,43.1,42.0,29.77,WSW,256,13.0,14.0,96,0.00,,---,0.00,VWS V14.01,2013-12-21 05:02:00,
2013-12-21 00:03:00,43.1,42.0,29.77,West,259,12.0,16.0,96,0.00,,---,0.00,VWS V14.01,2013-12-21 05:03:00,
2013-12-21 00:04:00,43.0,41.9,29.77,West,268,12.0,16.0,96,0.00,,---,0.00,VWS V14.01,2013-12-21 05:04:00,
2013-12-21 00:05:00,42.9,41.8,29.77,WSW,253,16.0,16.0,96,0.00,,---,0.00,VWS V14.01,2013-12-21 05:05:00,
2013-12-21 00:06:00,42.9,41.8,29.77,West,262,14.0,16.0,96,0.00,,---,0.00,VWS V14.01,2013-12-21 05:06:00,
2013-12-21 00:07:00,42.8,41.7,29.77,WSW,248,13.0,16.0,96,0.00,,---,0.00,VWS V14.01,2013-12-21 05:07:00,
2013-12-21 00:08:00,42.8,41.7,29.77,WSW,251,14.0,16.0,96,0.00,,---,0.00,VWS V14.01,2013-12-21 05:08:00,
2013-12-21 00:09:00,42.8,41.7,29.77,West,263,16.0,16.0,96,0.00,,---,0.00,VWS V14.01,2013-12-21 05:09:00,
2013-12-21 00:10:00,42.7,41.6,29.77,WSW,255,9.0,16.0,96,0.00,,---,0.00,VWS V14.01,2013-12-21 05:10:00,
2013-12-21 00:11:00,42.7,41.6,29.76,WSW,253,14.0,16.0,96,0.00,,---,0.00,VWS V14.01,2013-12-21 05:11:00,
2013-12-21 00:12:00,42.5,41.4,29.76,West,266,10.0,16.0,96,0.00,,---,0.00,VWS V14.01,2013-12-21 05:12:00,
2013-12-21 00:13:00,42.5,41.4,29.77,West,262,11.0,16.0,96,0.00,,---,0.00,VWS V14.01,2013-12-21 05:13:00,
2013-12-21 00:14:00,42.5,41.4,29.77,West,259,11.0,16.0,96,0.00,,---,0.00,VWS V14.01,2013-12-21 05:14:00,
2013-12-21 00:15:00,42.5,41.4,29.77,West,261,10.0,16.0,96,0.00,,---,0.00,VWS V14.01,2013-12-21 05:15:00,
2013-12-21 00:16:00,42.5,41.4,29.77,WSW,250,8.0,16.0,96,0.00,,---,0.00,VWS V14.01,2013-12-21 05:16:00,
2013-12-21 00:17:00,42.3,41.2,29.77,WSW,255,9.0,16.0,96,0.00,,---,0.00,VWS V14.01,2013-12-21 05:17:00,
2013-12-21 00:18:00,42.2,41.1,29.77,WSW,249,10.0,16.0,96,0.00,,---,0.00,VWS V14.01,2013-12-21 05:18:00,
2013-12-21 00:19:00,42.1,41.0,29.77,WSW,253,12.0,16.0,96,0.00,,---,0.00,VWS V14.01,2013-12-21 05:19:00,
2013-12-21 00:20:00,42.0,40.9,29.77,WSW,242,13.0,16.0,96,0.00,,---,0.00,VWS V14.01,2013-12-21 05:20:00,
2013-12-21 00:21:00,42.0,40.9,29.77,WSW,245,13.0,16.0,96,0.00,,---,0.00,VWS V14.01,2013-12-21 05:21:00,
2013-12-21 00:22:00,41.9,40.8,29.77,WSW,250,14.0,16.0,96,0.00,,---,0.00,VWS V14.01,2013-12-21 05:22:00,
2013-12-21 00:23:00,41.9,40.8,29.77,WSW,244,11.0,16.0,96,0.00,,---,0.00,VWS V14.01,2013-12-21 05:23:00,
2013-12-21 00:24:00,41.8,40.8,29.77,WSW,256,11.0,16.0,96,0.00,,---,0.00,VWS V14.01,2013-12-21 05:24:00,
2013-12-21 00:25:00,41.7,40.7,29.77,WSW,249,12.0,16.0,96,0.00,,---,0.00,VWS V14.01,2013-12-21 05:25:00,
2013-12-21 00:26:00,41.7,40.7,29.77,WSW,256,12.0,16.0,96,0.00,,---,0.00,VWS V14.01,2013-12-21 05:26:00,
2013-12-21 00:27:00,41.7,40.7,29.77,WSW,256,13.0,16.0,96,0.00,,---,0.00,VWS V14.01,2013-12-21 05:27:00,
2013-12-21 00:28:00,41.6,40.5,29.77,WSW,241,11.0,16.0,96,0.00,,---,0.00,VWS V14.01,2013-12-21 05:28:00,
2013-12-21 00:29:00,41.5,40.5,29.77,WSW,257,11.0,16.0,96,0.00,,---,0.00,VWS V14.01,2013-12-21 05:29:00,
2013-12-21 00:30:00,41.5,40.5,29.77,WSW,253,13.0,16.0,96,0.00,,---,0.00,VWS V14.01,2013-12-21 05:30:00,
2013-12-21 00:31:00,41.4,40.3,29.77,WSW,249,11.0,13.0,96,0.00,,---,0.00,VWS V14.01,2013-12-21 05:31:00,
2013-12-21 00:32:00,41.4,40.3,29.77,WSW,253,13.0,15.0,96,0.00,,---,0.00,VWS V14.01,2013-12-21 05:32:00,
2013-12-21 00:33:00,41.5,40.5,29.77,West,260,10.0,15.0,96,0.00,,---,0.00,VWS V14.01,2013-12-21 05:33:00,
2013-12-21 00:34:00,41.4,40.3,29.77,WSW,251,9.0,15.0,96,0.00,,---,0.00,VWS V14.01,2013-12-21 05:34:00,
2013-12-21 00:35:00,41.2,40.2,29.77,WSW,247,9.0,15.0,96,0.00,,---,0.00,VWS V14.01,2013-12-21 05:35:00,
2013-12-21 00:36:00,41.1,40.0,29.77,WSW,253,10.0,15.0,96,0.00,,---,0.00,VWS V14.01,2013-12-21 05:36:00,
2013-12-21 00:37:00,41.1,40.0,29.77,WSW,250,11.0,15.0,96,0.00,,---,0.00,VWS V14.01,2013-12-21 05:37:00,
2013-12-21 00:38:00,41.1,40.0,29.77,WSW,248,9.0,15.0,96,0.00,,---,0.00,VWS V14.01,2013-12-21 05:38:00,
2013-12-21 00:39:00,41.0,40.0,29.77,WSW,257,9.0,15.0,96,0.00,,---,0.00,VWS V14.01,2013-12-21 05:39:00,
2013-12-21 00:40:00,40.9,39.8,29.77,WSW,255,9.0,15.0,96,0.00,,---,0.00,VWS V14.01,2013-12-21 05:40:00,
2013-12-21 00:41:00,40.9,39.8,29.77,WSW,256,8.0,15.0,96,0.00,,---,0.00,VWS V14.01,2013-12-21 05:41:00,
2013-12-21 00:42:00,40.9,39.8,29.77,WSW,255,9.0,15.0,96,0.00,,---,0.00,VWS V14.01,2013-12-21 05:42:00,
2013-12-21 00:43:00,40.8,39.8,29.77,WSW,247,8.0,15.0,96,0.00,,---,0.00,VWS V14.01,2013-12-21 05:43:00,
2013-12-21 00:44:00,40.7,39.7,29.77,WSW,250,10.0,15.0,96,0.00,,---,0.00,VWS V14.01,2013-12-21 05:44:00,
2013-12-21 00:45:00,40.7,39.7,29.77,WSW,251,11.0,15.0,96,0.00,,---,0.00,VWS V14.01,2013-12-21 05:45:00,
2013-12-21 00:46:00,40.8,39.8,29.77,WSW,244,12.0,15.0,96,0.00,,---,0.00,VWS V14.01,2013-12-21 05:46:00,
2013-12-21 00:47:00,40.8,39.8,29.77,WSW,252,12.0,15.0,96,0.00,,---,0.00,VWS V14.01,2013-12-21 05:47:00,
2013-12-21 00:48:00,40.8,39.8,29.77,WSW,257,13.0,15.0,96,0.00,,---,0.00,VWS V14.01,2013-12-21 05:48:00,
2013-12-21 00:49:00,40.7,39.7,29.77,WSW,254,12.0,16.0,96,0.00,,---,0.00,VWS V14.01,2013-12-21 05:49:00,
2013-12-21 00:50:00,40.6,39.5,29.77,WSW,253,10.0,16.0,96,0.00,,---,0.00,VWS V14.01,2013-12-21 05:50:00,
2013-12-21 00:51:00,40.4,39.3,29.77,WSW,253,12.0,16.0,96,0.00,,---,0.00,VWS V14.01,2013-12-21 05:51:00,
2013-12-21 00:52:00,40.5,39.5,29.77,WSW,256,11.0,16.0,96,0.00,,---,0.00,VWS V14.01,2013-12-21 05:52:00,
2013-12-21 00:53:00,40.5,39.5,29.77,WSW,250,13.0,16.0,96,0.00,,---,0.00,VWS V14.01,2013-12-21 05:53:00,
2013-12-21 00:54:00,40.4,39.3,29.77,WSW,249,11.0,16.0,96,0.00,,---,0.00,VWS V14.01,2013-12-21 05:54:00,
2013-12-21 00:55:00,40.4,39.3,29.77,WSW,254,12.0,16.0,96,0.00,,---,0.00,VWS V14.01,2013-12-21 05:55:00,
2013-12-21 00:56:00,40.4,39.3,29.77,West,269,10.0,16.0,96,0.00,,---,0.00,VWS V14.01,2013-12-21 05:56:00,
2013-12-21 00:57:00,40.4,39.3,29.78,West,274,11.0,16.0,96,0.00,,---,0.00,VWS V14.01,2013-12-21 05:57:00,
2013-12-21 00:58:00,40.4,39.3,29.78,West,263,11.0,16.0,96,0.00,,---,0.00,VWS V14.01,2013-12-21 05:58:00,
2013-12-21 00:59:00,40.3,39.2,29.78,West,272,13.0,16.0,96,0.00,,---,0.00,VWS V14.01,2013-12-21 05:59:00,
2013-12-21 01:00:00,40.2,39.2,29.78,West,273,13.0,16.0,96,0.00,,---,0.00,VWS V14.01,2013-12-21 06:00:00,
2013-12-21 01:01:00,40.2,39.2,29.78,West,261,10.0,13.0,96,0.00,,---,0.00,VWS V14.01,2013-12-21 06:01:00,
2013-12-21 01:02:00,40.1,39.0,29.78,West,273,10.0,13.0,96,0.00,,---,0.00,VWS V14.01,2013-12-21 06:02:00,
2013-12-21 01:03:00,40.1,39.0,29.78,WSW,256,9.0,13.0,96,0.00,,---,0.00,VWS V14.01,2013-12-21 06:03:00,
2013-12-21 01:04:00,40.1,39.0,29.78,West,260,12.0,13.0,96,0.00,,---,0.00,VWS V14.01,2013-12-21 06:04:00,
2013-12-21 01:05:00,40.0,39.0,29.78,West,274,8.0,13.0,96,0.00,,---,0.00,VWS V14.01,2013-12-21 06:05:00,
2013-12-21 01:06:00,40.0,39.0,29.78,West,274,8.0,13.0,96,0.00,,---,0.00,VWS V14.01,2013-12-21 06:06:00,
2013-12-21 01:07:00,39.8,38.8,29.77,West,269,11.0,13.0,96,0.00,,---,0.00,VWS V14.01,2013-12-21 06:07:00,
2013-12-21 01:08:00,39.8,38.8,29.77,West,272,11.0,13.0,96,0.00,,---,0.00,VWS V14.01,2013-12-21 06:08:00,
2013-12-21 01:09:00,39.8,38.8,29.78,West,280,11.0,13.0,96,0.00,,---,0.00,VWS V14.01,2013-12-21 06:09:00,
2013-12-21 01:10:00,39.8,38.8,29.78,West,262,7.0,13.0,96,0.00,,---,0.00,VWS V14.01,2013-12-21 06:10:00,
2013-12-21 01:11:00,39.6,38.6,29.78,West,267,11.0,13.0,96,0.00,,---,0.00,VWS V14.01,2013-12-21 06:11:00,
2013-12-21 01:12:00,39.6,38.6,29.78,West,263,8.0,13.0,96,0.00,,---,0.00,VWS V14.01,2013-12-21 06:12:00,
2013-12-21 01:13:00,39.6,38.6,29.78,West,275,7.0,13.0,96,0.00,,---,0.00,VWS V14.01,2013-12-21 06:13:00,
2013-12-21 01:14:00,39.5,38.5,29.78,West,278,7.0,13.0,96,0.00,,---,0.00,VWS V14.01,2013-12-21 06:14:00,
2013-12-21 01:15:00,39.5,38.5,29.78,WNW,285,7.0,13.0,96,0.00,,---,0.00,VWS V14.01,2013-12-21 06:15:00,
2013-12-21 01:16:00,39.4,38.4,29.78,WNW,288,9.0,13.0,96,0.00,,---,0.00,VWS V14.01,2013-12-21 06:16:00,
2013-12-21 01:17:00,39.4,38.4,29.78,West,276,10.0,13.0,96,0.00,,---,0.00,VWS V14.01,2013-12-21 06:17:00,
2013-12-21 01:18:00,39.3,38.3,29.78,West,274,11.0,13.0,96,0.00,,---,0.00,VWS V14.01,2013-12-21 06:18:00,
2013-12-21 01:19:00,39.1,38.1,29.77,WNW,285,9.0,13.0,96,0.00,,---,0.00,VWS V14.01,2013-12-21 06:19:00,
2013-12-21 01:20:00,39.0,38.0,29.77,West,280,10.0,13.0,96,0.00,,---,0.00,VWS V14.01,2013-12-21 06:20:00,
2013-12-21 01:21:00,39.0,38.0,29.77,WNW,288,9.0,13.0,96,0.00,,---,0.00,VWS V14.01,2013-12-21 06:21:00,
2013-12-21 01:22:00,38.9,37.9,29.78,West,275,8.0,13.0,96,0.00,,---,0.00,VWS V14.01,2013-12-21 06:22:00,
2013-12-21 01:23:00,38.9,37.9,29.78,WNW,291,10.0,13.0,96,0.00,,---,0.00,VWS V14.01,2013-12-21 06:23:00,
2013-12-21 01:24:00,38.9,37.9,29.78,WNW,285,14.0,15.0,96,0.00,,---,0.00,VWS V14.01,2013-12-21 06:24:00,
2013-12-21 01:25:00,38.8,37.8,29.78,WNW,287,12.0,15.0,96,0.00,,---,0.00,VWS V14.01,2013-12-21 06:25:00,
2013-12-21 01:26:00,38.7,37.7,29.77,WNW,295,9.0,15.0,96,0.00,,---,0.00,VWS V14.01,2013-12-21 06:26:00,
2013-12-21 01:27:00,38.7,37.7,29.78,WNW,285,11.0,15.0,96,0.00,,---,0.00,VWS V14.01,2013-12-21 06:27:00,
2013-12-21 01:28:00,38.6,37.6,29.77,WNW,287,10.0,15.0,96,0.00,,---,0.00,VWS V14.01,2013-12-21 06:28:00,
2013-12-21 01:29:00,38.6,37.6,29.77,WNW,287,12.0,15.0,96,0.00,,---,0.00,VWS V14.01,2013-12-21 06:29:00,
2013-12-21 01:30:00,38.4,37.4,29.77,WNW,284,12.0,15.0,96,0.00,,---,0.00,VWS V14.01,2013-12-21 06:30:00,
2013-12-21 01:31:00,38.3,37.3,29.78,West,274,11.0,11.0,96,0.00,,---,0.00,VWS V14.01,2013-12-21 06:31:00,
2013-12-21 01:32:00,38.2,37.2,29.78,West,268,8.0,11.0,96,0.00,,---,0.00,VWS V14.01,2013-12-21 06:32:00,
2013-12-21 01:33:00,38.1,37.1,29.78,West,260,10.0,11.0,96,0.00,,---,0.00,VWS V14.01,2013-12-21 06:33:00,
2013-12-21 01:34:00,38.0,37.0,29.78,West,273,10.0,12.0,96,0.00,,---,0.00,VWS V14.01,2013-12-21 06:34:00,
2013-12-21 01:35:00,37.9,36.9,29.78,West,281,10.0,12.0,96,0.00,,---,0.00,VWS V14.01,2013-12-21 06:35:00,
2013-12-21 01:36:00,37.9,36.9,29.78,West,276,10.0,13.0,96,0.00,,---,0.00,VWS V14.01,2013-12-21 06:36:00,
2013-12-21 01:37:00,37.8,36.8,29.78,West,261,10.0,13.0,96,0.00,,---,0.00,VWS V14.01,2013-12-21 06:37:00,
2013-12-21 01:38:00,37.7,36.7,29.78,West,276,11.0,13.0,96,0.00,,---,0.00,VWS V14.01,2013-12-21 06:38:00,
2013-12-21 01:39:00,37.8,36.8,29.78,West,280,14.0,14.0,96,0.00,,---,0.00,VWS V14.01,2013-12-21 06:39:00,
2013-12-21 01:40:00,37.7,36.7,29.78,West,276,11.0,14.0,96,0.00,,---,0.00,VWS V14.01,2013-12-21 06:40:00,
2013-12-21 01:41:00,37.7,36.7,29.78,West,278,9.0,14.0,96,0.00,,---,0.00,VWS V14.01,2013-12-21 06:41:00,
2013-12-21 01:42:00,37.7,36.7,29.78,West,265,12.0,14.0,96,0.00,,---,0.00,VWS V14.01,2013-12-21 06:42:00,
2013-12-21 01:43:00,37.7,36.7,29.78,WNW,289,10.0,14.0,96,0.00,,---,0.00,VWS V14.01,2013-12-21 06:43:00,
2013-12-21 01:44:00,37.7,36.7,29.78,WNW,285,10.0,14.0,96,0.00,,---,0.00,VWS V14.01,2013-12-21 06:44:00,
2013-12-21 01:45:00,37.7,36.7,29.78,West,270,11.0,14.0,96,0.00,,---,0.00,VWS V14.01,2013-12-21 06:45:00,
2013-12-21 01:46:00,37.7,36.7,29.78,West,275,11.0,14.0,96,0.00,,---,0.00,VWS V14.01,2013-12-21 06:46:00,
2013-12-21 01:47:00,37.7,36.7,29.78,West,262,10.0,14.0,96,0.00,,---,0.00,VWS V14.01,2013-12-21 06:47:00,
2013-12-21 01:48:00,37.7,36.7,29.78,West,262,7.0,14.0,96,0.00,,---,0.00,VWS V14.01,2013-12-21 06:48:00,
2013-12-21 01:49:00,37.6,36.6,29.78,West,270,7.0,14.0,96,0.00,,---,0.00,VWS V14.01,2013-12-21 06:49:00,
2013-12-21 01:50:00,37.6,36.6,29.78,West,268,6.0,14.0,96,0.00,,---,0.00,VWS V14.01,2013-12-21 06:50:00,
2013-12-21 01:51:00,37.6,36.6,29.78,West,260,7.0,14.0,96,0.00,,---,0.00,VWS V14.01,2013-12-21 06:51:00,
2013-12-21 01:52:00,37.6,36.6,29.78,West,269,10.0,14.0,96,0.00,,---,0.00,VWS V14.01,2013-12-21 06:52:00,
2013-12-21 01:53:00,37.7,36.7,29.78,West,260,7.0,14.0,96,0.00,,---,0.00,VWS V14.01,2013-12-21 06:53:00,
2013-12-21 01:54:00,37.6,36.6,29.78,West,274,8.0,14.0,96,0.00,,---,0.00,VWS V14.01,2013-12-21 06:54:00,
2013-12-21 01:55:00,37.6,36.6,29.78,West,264,7.0,14.0,96,0.00,,---,0.00,VWS V14.01,2013-12-21 06:55:00,
2013-12-21 01:56:00,37.6,36.6,29.78,West,274,8.0,14.0,96,0.00,,---,0.00,VWS V14.01,2013-12-21 06:56:00,
2013-12-21 01:57:00,37.6,36.6,29.78,West,274,7.0,14.0,96,0.00,,---,0.00,VWS V14.01,2013-12-21 06:57:00,
2013-12-21 01:58:00,37.6,36.6,29.78,West,262,5.0,14.0,96,0.00,,---,0.00,VWS V14.01,2013-12-21 06:58:00,
2013-12-21 01:59:00,37.6,36.6,29.78,West,261,6.0,14.0,96,0.00,,---,0.00,VWS V14.01,2013-12-21 06:59:00,
2013-12-21 02:00:00,37.6,36.6,29.78,West,269,5.0,14.0,96,0.00,,---,0.00,VWS V14.01,2013-12-21 07:00:00,
2013-12-21 02:01:00,37.6,36.6,29.78,WSW,258,5.0,7.0,96,0.00,,---,0.00,VWS V14.01,2013-12-21 07:01:00,
2013-12-21 02:02:00,37.6,36.6,29.78,West,268,4.0,7.0,96,0.00,,---,0.00,VWS V14.01,2013-12-21 07:02:00,
2013-12-21 02:03:00,37.6,36.6,29.78,West,271,6.0,7.0,96,0.00,,---,0.00,VWS V14.01,2013-12-21 07:03:00,
2013-12-21 02:04:00,37.6,36.6,29.78,West,273,5.0,7.0,96,0.00,,---,0.00,VWS V14.01,2013-12-21 07:04:00,
2013-12-21 02:05:00,37.7,36.7,29.78,West,274,6.0,7.0,96,0.00,,---,0.00,VWS V14.01,2013-12-21 07:05:00,
2013-12-21 02:06:00,37.6,36.6,29.78,West,278,5.0,7.0,96,0.00,,---,0.00,VWS V14.01,2013-12-21 07:06:00,
2013-12-21 02:07:00,37.6,36.6,29.78,West,273,5.0,7.0,96,0.00,,---,0.00,VWS V14.01,2013-12-21 07:07:00,
2013-12-21 02:08:00,37.6,36.6,29.78,West,277,6.0,7.0,96,0.00,,---,0.00,VWS V14.01,2013-12-21 07:08:00,
2013-12-21 02:09:00,37.5,36.5,29.78,West,268,5.0,7.0,96,0.00,,---,0.00,VWS V14.01,2013-12-21 07:09:00,
2013-12-21 02:10:00,37.5,36.5,29.78,West,274,5.0,7.0,96,0.00,,---,0.00,VWS V14.01,2013-12-21 07:10:00,
2013-12-21 02:11:00,37.5,36.5,29.78,West,270,4.0,7.0,96,0.00,,---,0.00,VWS V14.01,2013-12-21 07:11:00,
2013-12-21 02:12:00,37.5,36.5,29.78,West,279,5.0,7.0,96,0.00,,---,0.00,VWS V14.01,2013-12-21 07:12:00,
2013-12-21 02:13:00,37.4,36.1,29.78,West,268,6.0,7.0,95,0.00,,---,0.00,VWS V14.01,2013-12-21 07:13:00,
2013-12-21 02:14:00,37.4,36.4,29.78,West,267,6.0,7.0,96,0.00,,---,0.00,VWS V14.01,2013-12-21 07:14:00,
2013-12-21 02:15:00,37.4,36.4,29.79,WSW,256,7.0,7.0,96,0.00,,---,0.00,VWS V14.01,2013-12-21 07:15:00,
2013-12-21 02:16:00,37.4,36.4,29.79,West,264,7.0,8.0,96,0.00,,---,0.00,VWS V14.01,2013-12-21 07:16:00,
2013-12-21 02:17:00,37.4,36.4,29.79,WSW,257,6.0,8.0,96,0.00,,---,0.00,VWS V14.01,2013-12-21 07:17:00,
2013-12-21 02:18:00,37.3,36.3,29.78,WSW,258,7.0,8.0,96,0.00,,---,0.00,VWS V14.01,2013-12-21 07:18:00,
2013-12-21 02:19:00,37.3,36.3,29.78,West,276,6.0,8.0,96,0.00,,---,0.00,VWS V14.01,2013-12-21 07:19:00,
2013-12-21 02:20:00,37.3,36.3,29.78,West,266,7.0,8.0,96,0.00,,---,0.00,VWS V14.01,2013-12-21 07:20:00,
2013-12-21 02:21:00,37.3,36.3,29.78,West,277,5.0,8.0,96,0.00,,---,0.00,VWS V14.01,2013-12-21 07:21:00,
2013-12-21 02:22:00,37.3,36.3,29.78,West,270,4.0,8.0,96,0.00,,---,0.00,VWS V14.01,2013-12-21 07:22:00,
2013-12-21 02:23:00,37.3,36.3,29.78,West,280,5.0,8.0,96,0.00,,---,0.00,VWS V14.01,2013-12-21 07:23:00,
2013-12-21 02:24:00,37.3,36.3,29.78,West,280,4.0,8.0,96,0.00,,---,0.00,VWS V14.01,2013-12-21 07:24:00,
2013-12-21 02:25:00,37.2,36.2,29.78,West,266,5.0,8.0,96,0.00,,---,0.00,VWS V14.01,2013-12-21 07:25:00,
2013-12-21 02:26:00,37.2,36.2,29.78,West,270,4.0,8.0,96,0.00,,---,0.00,VWS V14.01,2013-12-21 07:26:00,
2013-12-21 02:27:00,37.2,36.2,29.79,West,280,5.0,8.0,96,0.00,,---,0.00,VWS V14.01,2013-12-21 07:27:00,
2013-12-21 02:28:00,37.1,36.1,29.78,West,276,5.0,8.0,96,0.00,,---,0.00,VWS V14.01,2013-12-21 07:28:00,
2013-12-21 02:29:00,37.1,36.1,29.78,West,266,6.0,8.0,96,0.00,,---,0.00,VWS V14.01,2013-12-21 07:29:00,
2013-12-21 02:30:00,37.1,36.1,29.78,West,265,6.0,8.0,96,0.00,,---,0.00,VWS V14.01,2013-12-21 07:30:00,
2013-12-21 02:31:00,37.2,36.2,29.78,West,272,5.0,7.0,96,0.00,,---,0.00,VWS V14.01,2013-12-21 07:31:00,
2013-12-21 02:32:00,37.2,36.2,29.79,West,262,6.0,7.0,96,0.00,,---,0.00,VWS V14.01,2013-12-21 07:32:00,
2013-12-21 02:33:00,37.2,36.2,29.79,West,276,5.0,7.0,96,0.00,,---,0.00,VWS V14.01,2013-12-21 07:33:00,
2013-12-21 02:34:00,37.1,36.1,29.79,West,277,5.0,7.0,96,0.00,,---,0.00,VWS V14.01,2013-12-21 07:34:00,
2013-12-21 02:35:00,37.1,36.1,29.78,West,272,5.0,7.0,96,0.00,,---,0.00,VWS V14.01,2013-12-21 07:35:00,
2013-12-21 02:36:00,37.1,36.1,29.78,WSW,254,6.0,7.0,96,0.00,,---,0.00,VWS V14.01,2013-12-21 07:36:00,
2013-12-21 02:37:00,37.0,36.0,29.79,WSW,258,6.0,8.0,96,0.00,,---,0.00,VWS V14.01,2013-12-21 07:37:00,
2013-12-21 02:38:00,37.0,36.0,29.79,West,268,9.0,9.0,96,0.00,,---,0.00,VWS V14.01,2013-12-21 07:38:00,
2013-12-21 02:39:00,36.9,35.9,29.79,WSW,253,5.0,9.0,96,0.00,,---,0.00,VWS V14.01,2013-12-21 07:39:00,
2013-12-21 02:40:00,36.9,35.9,29.79,WSW,258,6.0,9.0,96,0.00,,---,0.00,VWS V14.01,2013-12-21 07:40:00,
2013-12-21 02:41:00,36.9,35.9,29.79,WSW,258,7.0,9.0,96,0.00,,---,0.00,VWS V14.01,2013-12-21 07:41:00,
2013-12-21 02:42:00,36.8,35.8,29.79,West,274,6.0,9.0,96,0.00,,---,0.00,VWS V14.01,2013-12-21 07:42:00,
2013-12-21 02:43:00,36.8,35.8,29.79,West,262,5.0,9.0,96,0.00,,---,0.00,VWS V14.01,2013-12-21 07:43:00,
2013-12-21 02:44:00,36.8,35.8,29.79,West,264,5.0,9.0,96,0.00,,---,0.00,VWS V14.01,2013-12-21 07:44:00,
2013-12-21 02:45:00,36.8,35.8,29.79,WSW,258,5.0,9.0,96,0.00,,---,0.00,VWS V14.01,2013-12-21 07:45:00,
2013-12-21 02:46:00,36.8,35.8,29.79,West,259,7.0,9.0,96,0.00,,---,0.00,VWS V14.01,2013-12-21 07:46:00,
2013-12-21 02:47:00,36.8,35.8,29.79,WSW,248,6.0,9.0,96,0.00,,---,0.00,VWS V14.01,2013-12-21 07:47:00,
2013-12-21 02:48:00,36.8,35.8,29.80,WSW,253,7.0,9.0,96,0.00,,---,0.00,VWS V14.01,2013-12-21 07:48:00,
2013-12-21 02:49:00,36.7,35.7,29.79,WSW,251,3.0,9.0,96,0.00,,---,0.00,VWS V14.01,2013-12-21 07:49:00,
2013-12-21 02:50:00,36.6,35.6,29.79,WSW,251,2.0,9.0,96,0.00,,---,0.00,VWS V14.01,2013-12-21 07:50:00,
2013-12-21 02:51:00,36.6,35.6,29.79,WSW,251,3.0,9.0,96,0.00,,---,0.00,VWS V14.01,2013-12-21 07:51:00,
2013-12-21 02:52:00,36.6,35.6,29.79,WSW,251,2.0,9.0,96,0.00,,---,0.00,VWS V14.01,2013-12-21 07:52:00,
2013-12-21 02:53:00,36.6,35.6,29.79,WSW,250,3.0,9.0,96,0.00,,---,0.00,VWS V14.01,2013-12-21 07:53:00,
2013-12-21 02:54:00,36.6,35.6,29.79,WSW,237,3.0,9.0,96,0.00,,---,0.00,VWS V14.01,2013-12-21 07:54:00,
2013-12-21 02:55:00,36.6,35.6,29.79,WSW,237,2.0,9.0,96,0.00,,---,0.00,VWS V14.01,2013-12-21 07:55:00,
2013-12-21 02:56:00,36.6,35.6,29.78,WSW,237,0.0,9.0,96,0.00,,---,0.00,VWS V14.01,2013-12-21 07:56:00,
2013-12-21 02:57:00,36.7,35.7,29.78,WSW,237,2.0,9.0,96,0.00,,---,0.00,VWS V14.01,2013-12-21 07:57:00,
2013-12-21 02:58:00,36.7,35.7,29.78,WSW,237,2.0,9.0,96,0.00,,---,0.00,VWS V14.01,2013-12-21 07:58:00,
2013-12-21 02:59:00,36.7,35.7,29.77,WSW,237,0.0,9.0,96,0.00,,---,0.00,VWS V14.01,2013-12-21 07:59:00,
2013-12-21 03:00:00,36.8,35.8,29.78,West,267,4.0,9.0,96,0.00,,---,0.00,VWS V14.01,2013-12-21 08:00:00,
2013-12-21 03:01:00,36.8,35.8,29.79,West,273,4.0,5.0,96,0.00,,---,0.00,VWS V14.01,2013-12-21 08:01:00,
2013-12-21 03:02:00,36.8,35.8,29.79,West,271,2.0,5.0,96,0.00,,---,0.00,VWS V14.01,2013-12-21 08:02:00,
2013-12-21 03:03:00,36.7,35.7,29.78,West,271,1.0,5.0,96,0.00,,---,0.00,VWS V14.01,2013-12-21 08:03:00,
2013-12-21 03:04:00,36.7,35.7,29.78,West,271,2.0,5.0,96,0.00,,---,0.00,VWS V14.01,2013-12-21 08:04:00,
2013-12-21 03:05:00,36.7,35.7,29.78,West,274,3.0,5.0,96,0.00,,---,0.00,VWS V14.01,2013-12-21 08:05:00,
2013-12-21 03:06:00,36.7,35.7,29.79,West,276,4.0,5.0,96,0.00,,---,0.00,VWS V14.01,2013-12-21 08:06:00,
2013-12-21 03:07:00,36.7,35.7,29.79,West,276,2.0,5.0,96,0.00,,---,0.00,VWS V14.01,2013-12-21 08:07:00,
2013-12-21 03:08:00,36.6,35.6,29.79,West,272,4.0,5.0,96,0.00,,---,0.00,VWS V14.01,2013-12-21 08:08:00,
2013-12-21 03:09:00,36.6,35.6,29.79,West,276,4.0,5.0,96,0.00,,---,0.00,VWS V14.01,2013-12-21 08:09:00,
2013-12-21 03:10:00,36.6,35.6,29.78,West,276,2.0,5.0,96,0.00,,---,0.00,VWS V14.01,2013-12-21 08:10:00,
2013-12-21 03:11:00,36.6,35.6,29.78,West,276,2.0,5.0,96,0.00,,---,0.00,VWS V14.01,2013-12-21 08:11:00,
2013-12-21 03:12:00,36.6,35.6,29.78,West,276,2.0,5.0,96,0.00,,---,0.00,VWS V14.01,2013-12-21 08:12:00,
2013-12-21 03:13:00,36.6,35.6,29.79,West,276,2.0,5.0,96,0.00,,---,0.00,VWS V14.01,2013-12-21 08:13:00,
2013-12-21 03:14:00,36.6,35.6,29.79,West,276,1.0,5.0,96,0.00,,---,0.00,VWS V14.01,2013-12-21 08:14:00,
2013-12-21 03:15:00,36.5,35.5,29.79,West,276,2.0,5.0,96,0.00,,---,0.00,VWS V14.01,2013-12-21 08:15:00,
2013-12-21 03:16:00,36.5,35.5,29.79,West,276,1.0,5.0,96,0.00,,---,0.00,VWS V14.01,2013-12-21 08:16:00,
2013-12-21 03:17:00,36.5,35.5,29.78,West,276,0.0,5.0,96,0.00,,---,0.00,VWS V14.01,2013-12-21 08:17:00,
2013-12-21 03:18:00,36.5,35.5,29.78,West,276,0.0,5.0,96,0.00,,---,0.00,VWS V14.01,2013-12-21 08:18:00,
2013-12-21 03:19:00,36.5,35.5,29.78,West,276,0.0,5.0,96,0.00,,---,0.00,VWS V14.01,2013-12-21 08:19:00,
2013-12-21 03:20:00,36.4,35.4,29.78,West,276,0.0,5.0,96,0.00,,---,0.00,VWS V14.01,2013-12-21 08:20:00,
2013-12-21 03:21:00,36.4,35.4,29.78,West,276,1.0,5.0,96,0.00,,---,0.00,VWS V14.01,2013-12-21 08:21:00,
2013-12-21 03:22:00,36.4,35.4,29.79,West,276,1.0,5.0,96,0.00,,---,0.00,VWS V14.01,2013-12-21 08:22:00,
2013-12-21 03:23:00,36.3,35.3,29.79,West,276,0.0,5.0,96,0.00,,---,0.00,VWS V14.01,2013-12-21 08:23:00,
2013-12-21 03:24:00,36.2,35.2,29.79,West,276,3.0,5.0,96,0.00,,---,0.00,VWS V14.01,2013-12-21 08:24:00,
2013-12-21 03:25:00,36.3,35.3,29.79,WNW,282,4.0,5.0,96,0.00,,---,0.00,VWS V14.01,2013-12-21 08:25:00,
2013-12-21 03:26:00,36.3,35.3,29.79,WNW,286,3.0,5.0,96,0.00,,---,0.00,VWS V14.01,2013-12-21 08:26:00,
2013-12-21 03:27:00,36.3,35.3,29.79,WNW,287,4.0,5.0,96,0.00,,---,0.00,VWS V14.01,2013-12-21 08:27:00,
2013-12-21 03:28:00,36.3,35.3,29.79,WNW,287,4.0,5.0,96,0.00,,---,0.00,VWS V14.01,2013-12-21 08:28:00,
2013-12-21 03:29:00,36.3,35.3,29.80,WNW,288,5.0,6.0,96,0.00,,---,0.00,VWS V14.01,2013-12-21 08:29:00,
2013-12-21 03:30:00,36.3,35.3,29.80,WNW,292,6.0,6.0,96,0.00,,---,0.00,VWS V14.01,2013-12-21 08:30:00,
2013-12-21 03:31:00,36.3,35.3,29.80,WNW,288,5.0,6.0,96,0.00,,---,0.00,VWS V14.01,2013-12-21 08:31:00,
2013-12-21 03:32:00,36.3,35.3,29.80,WNW,291,7.0,7.0,96,0.00,,---,0.00,VWS V14.01,2013-12-21 08:32:00,
2013-12-21 03:33:00,36.3,35.3,29.80,WNW,296,6.0,8.0,96,0.00,,---,0.00,VWS V14.01,2013-12-21 08:33:00,
2013-12-21 03:34:00,36.2,35.2,29.80,WNW,289,6.0,8.0,96,0.00,,---,0.00,VWS V14.01,2013-12-21 08:34:00,
2013-12-21 03:35:00,36.2,35.2,29.80,WNW,294,4.0,8.0,96,0.00,,---,0.00,VWS V14.01,2013-12-21 08:35:00,
2013-12-21 03:36:00,36.2,35.2,29.80,WNW,288,5.0,8.0,96,0.00,,---,0.00,VWS V14.01,2013-12-21 08:36:00,
2013-12-21 03:37:00,36.2,35.2,29.80,WNW,282,5.0,8.0,96,0.00,,---,0.00,VWS V14.01,2013-12-21 08:37:00,
2013-12-21 03:38:00,36.2,35.2,29.80,WNW,289,6.0,8.0,96,0.00,,---,0.00,VWS V14.01,2013-12-21 08:38:00,
2013-12-21 03:39:00,36.1,35.1,29.80,WNW,287,5.0,8.0,96,0.00,,---,0.00,VWS V14.01,2013-12-21 08:39:00,
2013-12-21 03:40:00,36.1,35.1,29.80,WNW,283,5.0,8.0,96,0.00,,---,0.00,VWS V14.01,2013-12-21 08:40:00,
2013-12-21 03:41:00,36.1,35.1,29.79,WNW,283,3.0,8.0,96,0.00,,---,0.00,VWS V14.01,2013-12-21 08:41:00,
2013-12-21 03:42:00,36.1,35.1,29.79,WNW,283,1.0,8.0,96,0.00,,---,0.00,VWS V14.01,2013-12-21 08:42:00,
2013-12-21 03:43:00,36.1,35.1,29.79,WNW,283,3.0,8.0,96,0.00,,---,0.00,VWS V14.01,2013-12-21 08:43:00,
2013-12-21 03:44:00,36.1,35.1,29.79,West,281,2.0,8.0,96,0.00,,---,0.00,VWS V14.01,2013-12-21 08:44:00,
2013-12-21 03:45:00,36.0,35.0,29.79,West,281,3.0,8.0,96,0.00,,---,0.00,VWS V14.01,2013-12-21 08:45:00,
2013-12-21 03:46:00,36.0,35.0,29.80,West,267,5.0,8.0,96,0.00,,---,0.00,VWS V14.01,2013-12-21 08:46:00,
2013-12-21 03:47:00,36.0,35.0,29.80,West,266,5.0,8.0,96,0.00,,---,0.00,VWS V14.01,2013-12-21 08:47:00,
2013-12-21 03:48:00,36.0,35.0,29.80,West,266,5.0,8.0,96,0.00,,---,0.00,VWS V14.01,2013-12-21 08:48:00,
2013-12-21 03:49:00,36.0,35.0,29.80,West,259,5.0,8.0,96,0.00,,---,0.00,VWS V14.01,2013-12-21 08:49:00,
2013-12-21 03:50:00,36.0,35.0,29.80,WSW,253,5.0,8.0,96,0.00,,---,0.00,VWS V14.01,2013-12-21 08:50:00,
2013-12-21 03:51:00,35.9,34.9,29.80,WSW,253,4.0,8.0,96,0.00,,---,0.00,VWS V14.01,2013-12-21 08:51:00,
2013-12-21 03:52:00,35.9,34.9,29.80,WSW,253,4.0,8.0,96,0.00,,---,0.00,VWS V14.01,2013-12-21 08:52:00,
2013-12-21 03:53:00,35.8,34.8,29.80,WSW,247,5.0,8.0,96,0.00,,---,0.00,VWS V14.01,2013-12-21 08:53:00,
2013-12-21 03:54:00,35.9,34.9,29.80,WSW,243,6.0,8.0,96,0.00,,---,0.00,VWS V14.01,2013-12-21 08:54:00,
2013-12-21 03:55:00,35.9,34.9,29.80,WSW,246,6.0,8.0,96,0.00,,---,0.00,VWS V14.01,2013-12-21 08:55:00,
2013-12-21 03:56:00,35.9,34.9,29.81,WSW,249,8.0,8.0,96,0.00,,---,0.00,VWS V14.01,2013-12-21 08:56:00,
2013-12-21 03:57:00,35.9,34.9,29.81,WSW,258,8.0,9.0,96,0.00,,---,0.00,VWS V14.01,2013-12-21 08:57:00,
2013-12-21 03:58:00,36.0,35.0,29.81,West,259,7.0,9.0,96,0.00,,---,0.00,VWS V14.01,2013-12-21 08:58:00,
2013-12-21 03:59:00,35.9,34.9,29.81,West,264,12.0,12.0,96,0.00,,---,0.00,VWS V14.01,2013-12-21 08:59:00,
2013-12-21 04:00:00,36.0,35.0,29.82,West,261,9.0,12.0,96,0.00,,---,0.00,VWS V14.01,2013-12-21 09:00:00,
2013-12-21 04:01:00,36.0,35.0,29.82,West,264,8.0,9.0,96,0.00,,---,0.00,VWS V14.01,2013-12-21 09:01:00,
2013-12-21 04:02:00,36.0,35.0,29.82,West,264,8.0,9.0,96,0.00,,---,0.00,VWS V14.01,2013-12-21 09:02:00,
2013-12-21 04:03:00,36.0,35.0,29.82,West,259,8.0,10.0,96,0.00,,---,0.00,VWS V14.01,2013-12-21 09:03:00,
2013-12-21 04:04:00,36.0,35.0,29.82,West,274,10.0,11.0,96,0.00,,---,0.00,VWS V14.01,2013-12-21 09:04:00,
2013-12-21 04:05:00,36.0,35.0,29.82,West,263,8.0,11.0,96,0.00,,---,0.00,VWS V14.01,2013-12-21 09:05:00,
2013-12-21 04:06:00,36.0,35.0,29.82,West,273,7.0,11.0,96,0.00,,---,0.00,VWS V14.01,2013-12-21 09:06:00,
2013-12-21 04:07:00,36.0,35.0,29.83,WSW,257,8.0,11.0,96,0.00,,---,0.00,VWS V14.01,2013-12-21 09:07:00,
2013-12-21 04:08:00,35.9,34.9,29.82,West,264,9.0,11.0,96,0.00,,---,0.00,VWS V14.01,2013-12-21 09:08:00,
2013-12-21 04:09:00,36.0,35.0,29.82,West,266,9.0,11.0,96,0.00,,---,0.00,VWS V14.01,2013-12-21 09:09:00,
2013-12-21 04:10:00,35.9,34.9,29.83,West,264,7.0,11.0,96,0.00,,---,0.00,VWS V14.01,2013-12-21 09:10:00,
2013-12-21 04:11:00,35.9,34.9,29.83,West,275,6.0,11.0,96,0.00,,---,0.00,VWS V14.01,2013-12-21 09:11:00,
2013-12-21 04:12:00,35.9,34.9,29.82,West,272,7.0,11.0,96,0.00,,---,0.00,VWS V14.01,2013-12-21 09:12:00,
2013-12-21 04:13:00,35.9,34.9,29.83,WNW,287,7.0,11.0,96,0.00,,---,0.00,VWS V14.01,2013-12-21 09:13:00,
2013-12-21 04:14:00,35.8,34.8,29.83,WNW,285,7.0,11.0,96,0.00,,---,0.00,VWS V14.01,2013-12-21 09:14:00,
2013-12-21 04:15:00,35.8,34.8,29.83,West,278,7.0,11.0,96,0.00,,---,0.00,VWS V14.01,2013-12-21 09:15:00,
2013-12-21 04:16:00,35.8,34.8,29.83,WNW,284,7.0,11.0,96,0.00,,---,0.00,VWS V14.01,2013-12-21 09:16:00,
2013-12-21 04:17:00,35.7,34.7,29.83,West,275,9.0,11.0,96,0.00,,---,0.00,VWS V14.01,2013-12-21 09:17:00,
2013-12-21 04:18:00,35.8,34.8,29.83,WNW,288,8.0,11.0,96,0.00,,---,0.00,VWS V14.01,2013-12-21 09:18:00,
2013-12-21 04:19:00,35.7,34.7,29.82,West,280,5.0,11.0,96,0.00,,---,0.00,VWS V14.01,2013-12-21 09:19:00,
2013-12-21 04:20:00,35.8,34.8,29.82,WNW,295,6.0,11.0,96,0.00,,---,0.00,VWS V14.01,2013-12-21 09:20:00,
2013-12-21 04:21:00,35.7,34.7,29.82,West,280,6.0,11.0,96,0.00,,---,0.00,VWS V14.01,2013-12-21 09:21:00,
2013-12-21 04:22:00,35.7,34.7,29.82,West,281,8.0,11.0,96,0.00,,---,0.00,VWS V14.01,2013-12-21 09:22:00,
2013-12-21 04:23:00,35.7,34.7,29.82,West,275,8.0,11.0,96,0.00,,---,0.00,VWS V14.01,2013-12-21 09:23:00,
2013-12-21 04:24:00,35.7,34.7,29.82,WNW,299,8.0,11.0,96,0.00,,---,0.00,VWS V14.01,2013-12-21 09:24:00,
2013-12-21 04:25:00,35.7,34.7,29.82,West,276,6.0,11.0,96,0.00,,---,0.00,VWS V14.01,2013-12-21 09:25:00,
2013-12-21 04:26:00,35.6,34.6,29.82,West,271,4.0,11.0,96,0.00,,---,0.00,VWS V14.01,2013-12-21 09:26:00,
2013-12-21 04:27:00,35.6,34.6,29.81,West,268,8.0,11.0,96,0.00,,---,0.00,VWS V14.01,2013-12-21 09:27:00,
2013-12-21 04:28:00,35.6,34.6,29.82,West,278,5.0,11.0,96,0.00,,---,0.00,VWS V14.01,2013-12-21 09:28:00,
2013-12-21 04:29:00,35.6,34.6,29.81,West,270,7.0,11.0,96,0.00,,---,0.00,VWS V14.01,2013-12-21 09:29:00,
2013-12-21 04:30:00,35.6,34.6,29.81,West,260,9.0,11.0,96,0.00,,---,0.00,VWS V14.01,2013-12-21 09:30:00,
2013-12-21 04:31:00,35.6,34.6,29.82,West,278,8.0,9.0,96,0.00,,---,0.00,VWS V14.01,2013-12-21 09:31:00,
2013-12-21 04:32:00,35.6,34.6,29.82,West,276,5.0,9.0,96,0.00,,---,0.00,VWS V14.01,2013-12-21 09:32:00,
2013-12-21 04:33:00,35.5,34.5,29.82,WSW,256,6.0,9.0,96,0.00,,---,0.00,VWS V14.01,2013-12-21 09:33:00,
2013-12-21 04:34:00,35.5,34.5,29.81,WNW,285,6.0,9.0,96,0.00,,---,0.00,VWS V14.01,2013-12-21 09:34:00,
2013-12-21 04:35:00,35.5,34.5,29.81,West,265,5.0,9.0,96,0.00,,---,0.00,VWS V14.01,2013-12-21 09:35:00,
2013-12-21 04:36:00,35.5,34.5,29.82,WNW,282,9.0,10.0,96,0.00,,---,0.00,VWS V14.01,2013-12-21 09:36:00,
2013-12-21 04:37:00,35.5,34.5,29.82,WNW,301,10.0,11.0,96,0.00,,---,0.00,VWS V14.01,2013-12-21 09:37:00,
2013-12-21 04:38:00,35.5,34.5,29.83,WNW,291,12.0,14.0,96,0.00,,---,0.00,VWS V14.01,2013-12-21 09:38:00,
2013-12-21 04:39:00,35.5,34.5,29.83,WNW,289,8.0,14.0,96,0.00,,---,0.00,VWS V14.01,2013-12-21 09:39:00,
2013-12-21 04:40:00,35.5,34.5,29.83,WNW,284,7.0,14.0,96,0.00,,---,0.00,VWS V14.01,2013-12-21 09:40:00,
2013-12-21 04:41:00,35.5,34.5,29.82,WNW,283,10.0,14.0,96,0.00,,---,0.00,VWS V14.01,2013-12-21 09:41:00,
2013-12-21 04:42:00,35.5,34.7,29.83,WNW,283,7.0,14.0,97,0.00,,---,0.00,VWS V14.01,2013-12-21 09:42:00,
2013-12-21 04:43:00,35.5,34.7,29.83,WNW,291,6.0,14.0,97,0.00,,---,0.00,VWS V14.01,2013-12-21 09:43:00,
2013-12-21 04:44:00,35.5,34.7,29.82,WNW,303,10.0,14.0,97,0.00,,---,0.00,VWS V14.01,2013-12-21 09:44:00,
2013-12-21 04:45:00,35.4,34.6,29.83,WNW,285,7.0,14.0,97,0.00,,---,0.00,VWS V14.01,2013-12-21 09:45:00,
2013-12-21 04:46:00,35.4,34.6,29.82,WNW,299,9.0,14.0,97,0.00,,---,0.00,VWS V14.01,2013-12-21 09:46:00,
2013-12-21 04:47:00,35.5,34.7,29.82,WNW,299,9.0,14.0,97,0.00,,---,0.00,VWS V14.01,2013-12-21 09:47:00,
2013-12-21 04:48:00,35.4,34.6,29.82,WNW,299,8.0,14.0,97,0.00,,---,0.00,VWS V14.01,2013-12-21 09:48:00,
2013-12-21 04:49:00,35.4,34.6,29.82,WNW,295,8.0,14.0,97,0.00,,---,0.00,VWS V14.01,2013-12-21 09:49:00,
2013-12-21 04:50:00,35.4,34.6,29.82,WNW,286,9.0,14.0,97,0.00,,---,0.00,VWS V14.01,2013-12-21 09:50:00,
2013-12-21 04:51:00,35.4,34.6,29.83,WNW,299,7.0,14.0,97,0.00,,---,0.00,VWS V14.01,2013-12-21 09:51:00,
2013-12-21 04:52:00,35.3,34.5,29.82,WNW,297,4.0,14.0,97,0.00,,---,0.00,VWS V14.01,2013-12-21 09:52:00,
2013-12-21 04:53:00,35.3,34.5,29.82,WNW,301,7.0,14.0,97,0.00,,---,0.00,VWS V14.01,2013-12-21 09:53:00,
2013-12-21 04:54:00,35.3,34.5,29.82,NW,305,8.0,14.0,97,0.00,,---,0.00,VWS V14.01,2013-12-21 09:54:00,
2013-12-21 04:55:00,35.3,34.5,29.82,WNW,301,8.0,14.0,97,0.00,,---,0.00,VWS V14.01,2013-12-21 09:55:00,
2013-12-21 04:56:00,35.2,34.4,29.82,WNW,283,4.0,14.0,97,0.00,,---,0.00,VWS V14.01,2013-12-21 09:56:00,
2013-12-21 04:57:00,35.2,34.4,29.81,WNW,291,2.0,14.0,97,0.00,,---,0.00,VWS V14.01,2013-12-21 09:57:00,
2013-12-21 04:58:00,35.2,34.2,29.81,NW,306,5.0,14.0,96,0.00,,---,0.00,VWS V14.01,2013-12-21 09:58:00,
2013-12-21 04:59:00,35.3,34.5,29.81,WNW,296,4.0,14.0,97,0.00,,---,0.00,VWS V14.01,2013-12-21 09:59:00,
2013-12-21 05:00:00,35.3,34.5,29.81,WNW,296,4.0,14.0,97,0.00,,---,0.00,VWS V14.01,2013-12-21 10:00:00,
2013-12-21 05:01:00,35.3,34.5,29.81,WNW,296,1.0,4.0,97,0.00,,---,0.00,VWS V14.01,2013-12-21 10:01:00,
2013-12-21 05:02:00,35.2,34.4,29.80,WNW,300,3.0,4.0,97,0.00,,---,0.00,VWS V14.01,2013-12-21 10:02:00,
2013-12-21 05:03:00,35.2,34.2,29.81,WNW,297,3.0,5.0,96,0.00,,---,0.00,VWS V14.01,2013-12-21 10:03:00,
2013-12-21 05:04:00,35.2,34.2,29.80,WNW,285,1.0,5.0,96,0.00,,---,0.00,VWS V14.01,2013-12-21 10:04:00,
2013-12-21 05:05:00,35.2,34.2,29.79,WNW,285,1.0,5.0,96,0.00,,---,0.00,VWS V14.01,2013-12-21 10:05:00,
2013-12-21 05:06:00,35.2,34.2,29.80,WNW,291,3.0,5.0,96,0.00,,---,0.00,VWS V14.01,2013-12-21 10:06:00,
2013-12-21 05:07:00,35.2,34.2,29.80,WNW,291,0.0,5.0,96,0.00,,---,0.00,VWS V14.01,2013-12-21 10:07:00,
2013-12-21 05:08:00,35.1,34.1,29.78,SW,235,1.0,5.0,96,0.00,,---,0.00,VWS V14.01,2013-12-21 10:08:00,
2013-12-21 05:09:00,35.2,34.2,29.78,WNW,290,4.0,5.0,96,0.00,,---,0.00,VWS V14.01,2013-12-21 10:09:00,
2013-12-21 05:10:00,35.2,34.2,29.79,NW,305,4.0,5.0,96,0.00,,---,0.00,VWS V14.01,2013-12-21 10:10:00,
2013-12-21 05:11:00,35.2,34.2,29.79,NW,305,2.0,5.0,96,0.00,,---,0.00,VWS V14.01,2013-12-21 10:11:00,
2013-12-21 05:12:00,35.1,34.1,29.78,NW,305,2.0,5.0,96,0.00,,---,0.00,VWS V14.01,2013-12-21 10:12:00,
2013-12-21 05:13:00,35.1,34.1,29.78,NW,306,2.0,5.0,96,0.00,,---,0.00,VWS V14.01,2013-12-21 10:13:00,
2013-12-21 05:14:00,35.2,34.2,29.78,NW,310,0.0,5.0,96,0.00,,---,0.00,VWS V14.01,2013-12-21 10:14:00,
2013-12-21 05:15:00,35.1,34.1,29.78,NW,310,3.0,5.0,96,0.00,,---,0.00,VWS V14.01,2013-12-21 10:15:00,
2013-12-21 05:16:00,35.1,34.1,29.79,NW,311,4.0,6.0,96,0.00,,---,0.00,VWS V14.01,2013-12-21 10:16:00,
2013-12-21 05:17:00,35.1,34.1,29.79,NW,310,3.0,6.0,96,0.00,,---,0.00,VWS V14.01,2013-12-21 10:17:00,
2013-12-21 05:18:00,35.0,34.0,29.78,NW,310,0.0,6.0,96,0.00,,---,0.00,VWS V14.01,2013-12-21 10:18:00,
2013-12-21 05:19:00,35.0,34.0,29.78,NNW,331,3.0,6.0,96,0.00,,---,0.00,VWS V14.01,2013-12-21 10:19:00,
2013-12-21 05:20:00,34.9,33.9,29.77,NW,311,2.0,6.0,96,0.00,,---,0.00,VWS V14.01,2013-12-21 10:20:00,
2013-12-21 05:21:00,35.0,34.0,29.77,NW,311,1.0,6.0,96,0.00,,---,0.00,VWS V14.01,2013-12-21 10:21:00,
2013-12-21 05:22:00,34.9,33.9,29.78,NW,311,2.0,6.0,96,0.00,,---,0.00,VWS V14.01,2013-12-21 10:22:00,
2013-12-21 05:23:00,34.9,33.9,29.77,NW,311,1.0,6.0,96,0.00,,---,0.00,VWS V14.01,2013-12-21 10:23:00,
2013-12-21 05:24:00,34.9,33.9,29.78,NW,311,2.0,6.0,96,0.00,,---,0.00,VWS V14.01,2013-12-21 10:24:00,
2013-12-21 05:25:00,34.9,33.9,29.78,NW,311,1.0,6.0,96,0.00,,---,0.00,VWS V14.01,2013-12-21 10:25:00,
2013-12-21 05:26:00,34.9,33.9,29.78,NW,311,1.0,6.0,96,0.00,,---,0.00,VWS V14.01,2013-12-21 10:26:00,
2013-12-21 05:27:00,34.9,34.1,29.78,NW,311,0.0,6.0,97,0.00,,---,0.00,VWS V14.01,2013-12-21 10:27:00,
2013-12-21 05:28:00,34.9,34.1,29.78,NW,311,0.0,6.0,97,0.00,,---,0.00,VWS V14.01,2013-12-21 10:28:00,
2013-12-21 05:29:00,34.9,34.1,29.78,NW,311,1.0,6.0,97,0.00,,---,0.00,VWS V14.01,2013-12-21 10:29:00,
2013-12-21 05:30:00,34.9,34.1,29.78,NW,311,2.0,6.0,97,0.00,,---,0.00,VWS V14.01,2013-12-21 10:30:00,
2013-12-21 05:31:00,34.9,34.1,29.78,WNW,291,3.0,3.0,97,0.00,,---,0.00,VWS V14.01,2013-12-21 10:31:00,
2013-12-21 05:32:00,34.9,34.1,29.79,WNW,286,3.0,4.0,97,0.00,,---,0.00,VWS V14.01,2013-12-21 10:32:00,
2013-12-21 05:33:00,34.9,34.1,29.79,WNW,288,3.0,4.0,97,0.00,,---,0.00,VWS V14.01,2013-12-21 10:33:00,
2013-12-21 05:34:00,34.9,34.1,29.79,WNW,292,3.0,5.0,97,0.00,,---,0.00,VWS V14.01,2013-12-21 10:34:00,
2013-12-21 05:35:00,34.9,34.1,29.79,WNW,292,2.0,5.0,97,0.00,,---,0.00,VWS V14.01,2013-12-21 10:35:00,
2013-12-21 05:36:00,34.9,34.1,29.79,WNW,292,3.0,5.0,97,0.00,,---,0.00,VWS V14.01,2013-12-21 10:36:00,
2013-12-21 05:37:00,34.9,34.1,29.79,WNW,293,2.0,5.0,97,0.00,,---,0.00,VWS V14.01,2013-12-21 10:37:00,
2013-12-21 05:38:00,34.9,34.1,29.79,WNW,295,3.0,5.0,97,0.00,,---,0.00,VWS V14.01,2013-12-21 10:38:00,
2013-12-21 05:39:00,34.8,34.0,29.79,WNW,302,4.0,5.0,97,0.00,,---,0.00,VWS V14.01,2013-12-21 10:39:00,
2013-12-21 05:40:00,34.8,34.0,29.79,WNW,303,0.0,5.0,97,0.00,,---,0.00,VWS V14.01,2013-12-21 10:40:00,
2013-12-21 05:41:00,34.7,33.9,29.78,WNW,303,0.0,5.0,97,0.00,,---,0.00,VWS V14.01,2013-12-21 10:41:00,
2013-12-21 05:42:00,34.7,33.9,29.78,WNW,303,0.0,5.0,97,0.00,,---,0.00,VWS V14.01,2013-12-21 10:42:00,
2013-12-21 05:43:00,34.6,33.8,29.78,NW,310,3.0,5.0,97,0.00,,---,0.00,VWS V14.01,2013-12-21 10:43:00,
2013-12-21 05:44:00,34.6,33.8,29.78,WNW,298,4.0,5.0,97,0.00,,---,0.00,VWS V14.01,2013-12-21 10:44:00,
2013-12-21 05:45:00,34.6,33.8,29.78,NW,305,6.0,6.0,97,0.00,,---,0.00,VWS V14.01,2013-12-21 10:45:00,
2013-12-21 05:46:00,34.6,33.8,29.79,NW,304,7.0,7.0,97,0.00,,---,0.00,VWS V14.01,2013-12-21 10:46:00,
2013-12-21 05:47:00,34.6,33.8,29.79,WNW,303,6.0,8.0,97,0.00,,---,0.00,VWS V14.01,2013-12-21 10:47:00,
2013-12-21 05:48:00,34.7,33.9,29.79,WNW,303,7.0,8.0,97,0.00,,---,0.00,VWS V14.01,2013-12-21 10:48:00,
2013-12-21 05:49:00,34.6,33.8,29.80,WNW,297,7.0,8.0,97,0.00,,---,0.00,VWS V14.01,2013-12-21 10:49:00,
2013-12-21 05:50:00,34.6,33.8,29.80,WNW,296,7.0,8.0,97,0.00,,---,0.00,VWS V14.01,2013-12-21 10:50:00,
2013-12-21 05:51:00,34.6,33.8,29.80,WNW,292,7.0,9.0,97,0.00,,---,0.00,VWS V14.01,2013-12-21 10:51:00,
2013-12-21 05:52:00,34.6,33.6,29.80,WNW,289,4.0,9.0,96,0.00,,---,0.00,VWS V14.01,2013-12-21 10:52:00,
2013-12-21 05:53:00,34.6,33.6,29.80,WNW,283,5.0,9.0,96,0.00,,---,0.00,VWS V14.01,2013-12-21 10:53:00,
2013-12-21 05:54:00,34.6,33.6,29.80,West,276,5.0,9.0,96,0.00,,---,0.00,VWS V14.01,2013-12-21 10:54:00,
2013-12-21 05:55:00,34.6,33.6,29.81,West,274,4.0,9.0,96,0.00,,---,0.00,VWS V14.01,2013-12-21 10:55:00,
2013-12-21 05:56:00,34.6,33.8,29.81,West,270,3.0,9.0,97,0.00,,---,0.00,VWS V14.01,2013-12-21 10:56:00,
2013-12-21 05:57:00,34.7,33.9,29.81,West,268,3.0,9.0,97,0.00,,---,0.00,VWS V14.01,2013-12-21 10:57:00,
2013-12-21 05:58:00,34.6,33.8,29.81,West,269,6.0,9.0,97,0.00,,---,0.00,VWS V14.01,2013-12-21 10:58:00,
2013-12-21 05:59:00,34.6,33.8,29.81,West,280,7.0,9.0,97,0.00,,---,0.00,VWS V14.01,2013-12-21 10:59:00,
2013-12-21 06:00:00,34.7,33.9,29.81,West,273,4.0,4.0,97,0.00,,---,0.00,VWS V14.01,2013-12-21 11:00:00,
2013-12-21 06:01:00,34.7,33.9,29.82,West,267,3.0,5.0,97,0.00,,---,0.00,VWS V14.01,2013-12-21 11:01:00,
2013-12-21 06:02:00,34.7,33.9,29.82,West,266,4.0,5.0,97,0.00,,---,0.00,VWS V14.01,2013-12-21 11:02:00,
2013-12-21 06:03:00,34.7,33.9,29.82,West,266,4.0,5.0,97,0.00,,---,0.00,VWS V14.01,2013-12-21 11:03:00,
2013-12-21 06:04:00,34.7,33.7,29.82,WNW,299,7.0,8.0,96,0.00,,---,0.00,VWS V14.01,2013-12-21 11:04:00,
2013-12-21 06:05:00,34.7,33.7,29.82,West,276,5.0,8.0,96,0.00,,---,0.00,VWS V14.01,2013-12-21 11:05:00,
2013-12-21 06:06:00,34.7,33.7,29.82,West,270,5.0,8.0,96,0.00,,---,0.00,VWS V14.01,2013-12-21 11:06:00,
2013-12-21 06:07:00,34.7,33.7,29.82,WNW,283,4.0,8.0,96,0.00,,---,0.00,VWS V14.01,2013-12-21 11:07:00,
2013-12-21 06:08:00,34.8,33.8,29.82,WNW,283,4.0,8.0,96,0.00,,---,0.00,VWS V14.01,2013-12-21 11:08:00,
2013-12-21 06:09:00,34.7,33.7,29.82,NW,310,5.0,8.0,96,0.00,,---,0.00,VWS V14.01,2013-12-21 11:09:00,
2013-12-21 06:10:00,34.7,33.7,29.82,WNW,297,4.0,8.0,96,0.00,,---,0.00,VWS V14.01,2013-12-21 11:10:00,
2013-12-21 06:11:00,34.7,33.7,29.81,WNW,299,4.0,8.0,96,0.00,,---,0.00,VWS V14.01,2013-12-21 11:11:00,
2013-12-21 06:12:00,34.7,33.7,29.81,WNW,286,7.0,8.0,96,0.00,,---,0.00,VWS V14.01,2013-12-21 11:12:00,
2013-12-21 06:13:00,34.7,33.7,29.82,WNW,293,8.0,9.0,96,0.00,,---,0.00,VWS V14.01,2013-12-21 11:13:00,
2013-12-21 06:14:00,34.7,33.7,29.82,WNW,286,5.0,9.0,96,0.00,,---,0.00,VWS V14.01,2013-12-21 11:14:00,
2013-12-21 06:15:00,34.7,33.7,29.82,WNW,286,5.0,9.0,96,0.00,,---,0.00,VWS V14.01,2013-12-21 11:15:00,
2013-12-21 06:16:00,34.7,33.7,29.83,WNW,284,5.0,9.0,96,0.00,,---,0.00,VWS V14.01,2013-12-21 11:16:00,
2013-12-21 06:17:00,34.7,33.7,29.83,WNW,290,4.0,9.0,96,0.00,,---,0.00,VWS V14.01,2013-12-21 11:17:00,
2013-12-21 06:18:00,34.7,33.7,29.83,West,270,5.0,9.0,96,0.00,,---,0.00,VWS V14.01,2013-12-21 11:18:00,
2013-12-21 06:19:00,34.7,33.7,29.83,West,268,4.0,9.0,96,0.00,,---,0.00,VWS V14.01,2013-12-21 11:19:00,
2013-12-21 06:20:00,34.7,33.7,29.83,West,264,4.0,9.0,96,0.00,,---,0.00,VWS V14.01,2013-12-21 11:20:00,
2013-12-21 06:21:00,34.7,33.7,29.83,West,264,7.0,9.0,96,0.00,,---,0.00,VWS V14.01,2013-12-21 11:21:00,
2013-12-21 06:22:00,34.7,33.7,29.83,West,273,4.0,9.0,96,0.00,,---,0.00,VWS V14.01,2013-12-21 11:22:00,
2013-12-21 06:23:00,34.7,33.7,29.83,West,268,6.0,9.0,96,0.00,,---,0.00,VWS V14.01,2013-12-21 11:23:00,
2013-12-21 06:24:00,34.7,33.7,29.83,West,262,5.0,9.0,96,0.00,,---,0.00,VWS V14.01,2013-12-21 11:24:00,
2013-12-21 06:25:00,34.7,33.7,29.83,West,267,6.0,9.0,96,0.00,,---,0.00,VWS V14.01,2013-12-21 11:25:00,
2013-12-21 06:26:00,34.7,33.7,29.83,WSW,250,6.0,9.0,96,0.00,,---,0.00,VWS V14.01,2013-12-21 11:26:00,
2013-12-21 06:27:00,34.7,33.7,29.83,WSW,250,5.0,9.0,96,0.00,,---,0.00,VWS V14.01,2013-12-21 11:27:00,
2013-12-21 06:28:00,34.7,33.7,29.83,WSW,250,5.0,9.0,96,0.00,,---,0.00,VWS V14.01,2013-12-21 11:28:00,
2013-12-21 06:29:00,34.7,33.7,29.83,WSW,256,4.0,9.0,96,0.00,,---,0.00,VWS V14.01,2013-12-21 11:29:00,
2013-12-21 06:30:00,34.7,33.7,29.83,West,260,4.0,9.0,96,0.00,,---,0.00,VWS V14.01,2013-12-21 11:30:00,
2013-12-21 06:31:00,34.7,33.7,29.82,WSW,249,4.0,4.0,96,0.00,,---,0.00,VWS V14.01,2013-12-21 11:31:00,
2013-12-21 06:32:00,34.7,33.7,29.82,WSW,249,2.0,4.0,96,0.00,,---,0.00,VWS V14.01,2013-12-21 11:32:00,
2013-12-21 06:33:00,34.7,33.7,29.82,WSW,249,0.0,4.0,96,0.00,,---,0.00,VWS V14.01,2013-12-21 11:33:00,
2013-12-21 06:34:00,34.6,33.6,29.82,WSW,249,0.0,4.0,96,0.00,,---,0.00,VWS V14.01,2013-12-21 11:34:00,
2013-12-21 06:35:00,34.6,33.6,29.81,WSW,249,1.0,4.0,96,0.00,,---,0.00,VWS V14.01,2013-12-21 11:35:00,
2013-12-21 06:36:00,34.6,33.6,29.81,WSW,249,0.0,4.0,96,0.00,,---,0.00,VWS V14.01,2013-12-21 11:36:00,
2013-12-21 06:37:00,34.7,33.7,29.81,WSW,249,0.0,4.0,96,0.00,,---,0.00,VWS V14.01,2013-12-21 11:37:00,
2013-12-21 06:38:00,34.7,33.7,29.81,WSW,249,2.0,4.0,96,0.00,,---,0.00,VWS V14.01,2013-12-21 11:38:00,
2013-12-21 06:39:00,34.6,33.6,29.81,West,269,2.0,4.0,96,0.00,,---,0.00,VWS V14.01,2013-12-21 11:39:00,
2013-12-21 06:40:00,34.7,33.7,29.81,West,280,3.0,4.0,96,0.00,,---,0.00,VWS V14.01,2013-12-21 11:40:00,
2013-12-21 06:41:00,34.6,33.6,29.82,West,277,3.0,4.0,96,0.00,,---,0.00,VWS V14.01,2013-12-21 11:41:00,
2013-12-21 06:42:00,34.6,33.6,29.82,West,270,4.0,4.0,96,0.00,,---,0.00,VWS V14.01,2013-12-21 11:42:00,
2013-12-21 06:43:00,34.7,33.7,29.81,West,265,3.0,4.0,96,0.00,,---,0.00,VWS V14.01,2013-12-21 11:43:00,
2013-12-21 06:44:00,34.7,33.7,29.82,West,265,2.0,4.0,96,0.00,,---,0.00,VWS V14.01,2013-12-21 11:44:00,
2013-12-21 06:45:00,34.7,33.7,29.82,West,265,3.0,4.0,96,0.00,,---,0.00,VWS V14.01,2013-12-21 11:45:00,
2013-12-21 06:46:00,34.6,33.6,29.82,West,265,3.0,4.0,96,0.00,,---,0.00,VWS V14.01,2013-12-21 11:46:00,
2013-12-21 06:47:00,34.7,33.7,29.82,West,265,2.0,4.0,96,0.00,,---,0.00,VWS V14.01,2013-12-21 11:47:00,
2013-12-21 06:48:00,34.6,33.6,29.82,West,262,4.0,5.0,96,0.00,,---,0.00,VWS V14.01,2013-12-21 11:48:00,
2013-12-21 06:49:00,34.6,33.6,29.82,West,261,4.0,5.0,96,0.00,,---,0.00,VWS V14.01,2013-12-21 11:49:00,
2013-12-21 06:50:00,34.6,33.6,29.82,West,261,2.0,5.0,96,0.01,,---,0.01,VWS V14.01,2013-12-21 11:50:00,
2013-12-21 06:51:00,34.6,33.8,29.82,West,261,3.0,5.0,97,0.01,,---,0.01,VWS V14.01,2013-12-21 11:51:00,
2013-12-21 06:52:00,34.5,33.5,29.82,West,261,3.0,5.0,96,0.01,,---,0.01,VWS V14.01,2013-12-21 11:52:00,
2013-12-21 06:53:00,34.5,33.5,29.82,West,263,4.0,5.0,96,0.01,,---,0.01,VWS V14.01,2013-12-21 11:53:00,
2013-12-21 06:54:00,34.5,33.7,29.82,West,270,4.0,5.0,97,0.01,,---,0.01,VWS V14.01,2013-12-21 11:54:00,
2013-12-21 06:55:00,34.6,33.6,29.82,West,274,3.0,5.0,96,0.01,,---,0.01,VWS V14.01,2013-12-21 11:55:00,
2013-12-21 06:56:00,34.6,33.8,29.82,WNW,282,3.0,5.0,97,0.01,,---,0.01,VWS V14.01,2013-12-21 11:56:00,
2013-12-21 06:57:00,34.6,33.8,29.82,WNW,283,3.0,5.0,97,0.01,,---,0.01,VWS V14.01,2013-12-21 11:57:00,
2013-12-21 06:58:00,34.6,33.8,29.82,WNW,292,4.0,5.0,97,0.01,,---,0.01,VWS V14.01,2013-12-21 11:58:00,
2013-12-21 06:59:00,34.6,33.8,29.81,WNW,295,2.0,5.0,97,0.01,,---,0.01,VWS V14.01,2013-12-21 11:59:00,
2013-12-21 07:00:00,34.6,33.8,29.81,WNW,295,2.0,5.0,97,0.01,,---,0.01,VWS V14.01,2013-12-21 12:00:00,
2013-12-21 07:01:00,34.6,33.8,29.81,WNW,295,0.0,2.0,97,0.01,,---,0.01,VWS V14.01,2013-12-21 12:01:00,
2013-12-21 07:02:00,34.6,33.8,29.81,WNW,295,1.0,2.0,97,0.01,,---,0.01,VWS V14.01,2013-12-21 12:02:00,
2013-12-21 07:03:00,34.6,33.8,29.80,WNW,295,1.0,2.0,97,0.01,,---,0.01,VWS V14.01,2013-12-21 12:03:00,
2013-12-21 07:04:00,34.5,33.7,29.80,WNW,295,0.0,2.0,97,0.01,,---,0.01,VWS V14.01,2013-12-21 12:04:00,
2013-12-21 07:05:00,34.5,33.5,29.80,WNW,295,1.0,2.0,96,0.01,,---,0.01,VWS V14.01,2013-12-21 12:05:00,
2013-12-21 07:06:00,34.5,33.5,29.80,WNW,295,0.0,2.0,96,0.01,,---,0.01,VWS V14.01,2013-12-21 12:06:00,
2013-12-21 07:07:00,34.5,33.7,29.79,WNW,295,0.0,2.0,97,0.02,,---,0.02,VWS V14.01,2013-12-21 12:07:00,
2013-12-21 07:08:00,34.4,33.6,29.79,WNW,295,0.0,2.0,97,0.02,,---,0.02,VWS V14.01,2013-12-21 12:08:00,
2013-12-21 07:09:00,34.4,33.6,29.79,WNW,295,0.0,2.0,97,0.02,,---,0.02,VWS V14.01,2013-12-21 12:09:00,
2013-12-21 07:10:00,34.4,33.6,29.79,WNW,295,0.0,2.0,97,0.02,,---,0.02,VWS V14.01,2013-12-21 12:10:00,
2013-12-21 07:11:00,34.4,33.6,29.79,WNW,295,0.0,2.0,97,0.02,,---,0.02,VWS V14.01,2013-12-21 12:11:00,
2013-12-21 07:12:00,34.4,33.6,29.79,WNW,295,0.0,2.0,97,0.02,,---,0.02,VWS V14.01,2013-12-21 12:12:00,
2013-12-21 07:13:00,34.4,33.6,29.79,WNW,295,0.0,2.0,97,0.02,,---,0.02,VWS V14.01,2013-12-21 12:13:00,
2013-12-21 07:14:00,34.4,33.6,29.79,WNW,295,0.0,2.0,97,0.02,,---,0.02,VWS V14.01,2013-12-21 12:14:00,
2013-12-21 07:15:00,34.4,33.6,29.79,WNW,295,0.0,2.0,97,0.02,,---,0.02,VWS V14.01,2013-12-21 12:15:00,
2013-12-21 07:16:00,34.3,33.5,29.79,WNW,295,1.0,2.0,97,0.02,,---,0.02,VWS V14.01,2013-12-21 12:16:00,
2013-12-21 07:17:00,34.4,33.6,29.79,WNW,295,0.0,2.0,97,0.02,,---,0.02,VWS V14.01,2013-12-21 12:17:00,
2013-12-21 07:18:00,34.4,33.6,29.79,WNW,295,0.0,2.0,97,0.02,,---,0.02,VWS V14.01,2013-12-21 12:18:00,
2013-12-21 07:19:00,34.4,33.6,29.79,WNW,295,1.0,2.0,97,0.02,,---,0.02,VWS V14.01,2013-12-21 12:19:00,
2013-12-21 07:20:00,34.4,33.6,29.79,WNW,295,1.0,2.0,97,0.02,,---,0.02,VWS V14.01,2013-12-21 12:20:00,
2013-12-21 07:21:00,34.4,33.6,29.79,WNW,297,1.0,2.0,97,0.03,,---,0.03,VWS V14.01,2013-12-21 12:21:00,
2013-12-21 07:22:00,34.4,33.6,29.79,WNW,297,1.0,3.0,97,0.03,,---,0.03,VWS V14.01,2013-12-21 12:22:00,
2013-12-21 07:23:00,34.4,33.6,29.80,WNW,297,0.0,3.0,97,0.03,,---,0.03,VWS V14.01,2013-12-21 12:23:00,
2013-12-21 07:24:00,34.4,33.6,29.80,WNW,297,1.0,3.0,97,0.03,,---,0.03,VWS V14.01,2013-12-21 12:24:00,
2013-12-21 07:25:00,34.4,33.6,29.80,WNW,297,2.0,3.0,97,0.03,,---,0.03,VWS V14.01,2013-12-21 12:25:00,
2013-12-21 07:26:00,34.4,33.6,29.80,WNW,297,3.0,3.0,97,0.03,,---,0.03,VWS V14.01,2013-12-21 12:26:00,
2013-12-21 07:27:00,34.4,33.6,29.80,WNW,297,4.0,4.0,97,0.04,,---,0.04,VWS V14.01,2013-12-21 12:27:00,
2013-12-21 07:28:00,34.4,33.6,29.81,WNW,298,3.0,4.0,97,0.04,,---,0.04,VWS V14.01,2013-12-21 12:28:00,
2013-12-21 07:29:00,34.4,33.6,29.80,WNW,299,3.0,4.0,97,0.04,,---,0.04,VWS V14.01,2013-12-21 12:29:00,
2013-12-21 07:30:00,34.4,33.6,29.80,WNW,299,1.0,4.0,97,0.04,,---,0.04,VWS V14.01,2013-12-21 12:30:00,
2013-12-21 07:31:00,34.4,33.6,29.80,WNW,299,2.0,2.0,97,0.04,,---,0.04,VWS V14.01,2013-12-21 12:31:00,
2013-12-21 07:32:00,34.4,33.6,29.80,WNW,299,3.0,3.0,97,0.04,,---,0.04,VWS V14.01,2013-12-21 12:32:00,
2013-12-21 07:33:00,34.4,33.6,29.81,WNW,299,2.0,3.0,97,0.04,,---,0.04,VWS V14.01,2013-12-21 12:33:00,
2013-12-21 07:34:00,34.3,33.5,29.80,WNW,299,1.0,3.0,97,0.04,,---,0.04,VWS V14.01,2013-12-21 12:34:00,
2013-12-21 07:35:00,34.3,33.5,29.80,WNW,299,0.0,3.0,97,0.04,,---,0.04,VWS V14.01,2013-12-21 12:35:00,
2013-12-21 07:36:00,34.3,33.5,29.81,WNW,299,3.0,3.0,97,0.04,,---,0.04,VWS V14.01,2013-12-21 12:36:00,
2013-12-21 07:37:00,34.3,33.5,29.80,WNW,302,1.0,3.0,97,0.04,,---,0.04,VWS V14.01,2013-12-21 12:37:00,
2013-12-21 07:38:00,34.3,33.5,29.80,WNW,302,0.0,3.0,97,0.04,,---,0.04,VWS V14.01,2013-12-21 12:38:00,
2013-12-21 07:39:00,34.2,33.4,29.81,NW,312,2.0,3.0,97,0.05,,---,0.05,VWS V14.01,2013-12-21 12:39:00,
2013-12-21 07:40:00,34.2,33.4,29.81,NW,312,1.0,3.0,97,0.05,,---,0.05,VWS V14.01,2013-12-21 12:40:00,
2013-12-21 07:41:00,34.2,33.4,29.81,NW,312,1.0,3.0,97,0.05,,---,0.05,VWS V14.01,2013-12-21 12:41:00,
2013-12-21 07:42:00,34.2,33.4,29.81,NW,312,1.0,3.0,97,0.05,,---,0.05,VWS V14.01,2013-12-21 12:42:00,
2013-12-21 07:43:00,34.2,33.4,29.81,NW,312,1.0,3.0,97,0.05,,---,0.05,VWS V14.01,2013-12-21 12:43:00,
2013-12-21 07:44:00,34.2,33.4,29.81,NW,312,2.0,3.0,97,0.05,,---,0.05,VWS V14.01,2013-12-21 12:44:00,
2013-12-21 07:45:00,34.2,33.4,29.81,NW,312,3.0,4.0,97,0.05,,---,0.05,VWS V14.01,2013-12-21 12:45:00,
2013-12-21 07:46:00,34.2,33.4,29.82,NW,312,3.0,4.0,97,0.06,,---,0.06,VWS V14.01,2013-12-21 12:46:00,
2013-12-21 07:47:00,34.2,33.4,29.82,NW,312,0.0,4.0,97,0.06,,---,0.06,VWS V14.01,2013-12-21 12:47:00,
2013-12-21 07:48:00,34.2,33.4,29.82,NW,312,2.0,4.0,97,0.06,,---,0.06,VWS V14.01,2013-12-21 12:48:00,
2013-12-21 07:49:00,34.2,33.4,29.82,NW,312,2.0,4.0,97,0.06,,---,0.06,VWS V14.01,2013-12-21 12:49:00,
2013-12-21 07:50:00,34.2,33.4,29.82,NW,312,1.0,4.0,97,0.06,,---,0.06,VWS V14.01,2013-12-21 12:50:00,
2013-12-21 07:51:00,34.2,33.4,29.82,NW,312,2.0,4.0,97,0.06,,---,0.06,VWS V14.01,2013-12-21 12:51:00,
2013-12-21 07:52:00,34.2,33.4,29.82,NNW,345,3.0,4.0,97,0.07,,---,0.07,VWS V14.01,2013-12-21 12:52:00,
2013-12-21 07:53:00,34.2,33.4,29.82,NNW,343,1.0,4.0,97,0.07,,---,0.07,VWS V14.01,2013-12-21 12:53:00,
2013-12-21 07:54:00,34.2,33.4,29.82,NW,318,1.0,4.0,97,0.07,,---,0.07,VWS V14.01,2013-12-21 12:54:00,
2013-12-21 07:55:00,34.2,33.4,29.82,NW,320,3.0,4.0,97,0.07,,---,0.07,VWS V14.01,2013-12-21 12:55:00,
2013-12-21 07:56:00,34.2,33.4,29.82,NNW,332,3.0,5.0,97,0.08,,---,0.08,VWS V14.01,2013-12-21 12:56:00,
2013-12-21 07:57:00,34.2,33.4,29.82,NW,319,1.0,5.0,97,0.08,,---,0.08,VWS V14.01,2013-12-21 12:57:00,
2013-12-21 07:58:00,34.3,33.5,29.82,NNW,336,3.0,5.0,97,0.08,,---,0.08,VWS V14.01,2013-12-21 12:58:00,
2013-12-21 07:59:00,34.3,33.5,29.82,NNW,341,1.0,5.0,97,0.08,,---,0.08,VWS V14.01,2013-12-21 12:59:00,
2013-12-21 08:00:00,34.2,33.4,29.82,NNW,340,3.0,5.0,97,0.08,,---,0.08,VWS V14.01,2013-12-21 13:00:00,
2013-12-21 08:01:00,34.3,33.5,29.82,NNW,333,0.0,4.0,97,0.07,,---,0.08,VWS V14.01,2013-12-21 13:01:00,
2013-12-21 08:02:00,34.3,33.5,29.82,NNW,348,4.0,6.0,97,0.07,,---,0.08,VWS V14.01,2013-12-21 13:02:00,
2013-12-21 08:03:00,34.3,33.5,29.82,North,4,2.0,6.0,97,0.07,,---,0.08,VWS V14.01,2013-12-21 13:03:00,
2013-12-21 08:04:00,34.3,33.5,29.82,NNW,343,3.0,6.0,97,0.08,,---,0.09,VWS V14.01,2013-12-21 13:04:00,
2013-12-21 08:05:00,34.3,33.5,29.82,NNW,343,0.0,6.0,97,0.08,,---,0.09,VWS V14.01,2013-12-21 13:05:00,
2013-12-21 08:06:00,34.3,33.5,29.82,NNW,343,1.0,6.0,97,0.08,,---,0.09,VWS V14.01,2013-12-21 13:06:00,
2013-12-21 08:07:00,34.3,33.5,29.82,NNW,343,4.0,6.0,97,0.08,,---,0.09,VWS V14.01,2013-12-21 13:07:00,
2013-12-21 08:08:00,34.3,33.5,29.82,North,4,2.0,6.0,97,0.08,,---,0.09,VWS V14.01,2013-12-21 13:08:00,
2013-12-21 08:09:00,34.3,33.5,29.82,North,4,3.0,6.0,97,0.08,,---,0.09,VWS V14.01,2013-12-21 13:09:00,
2013-12-21 08:10:00,34.3,33.5,29.82,NNW,334,2.0,6.0,97,0.09,,---,0.10,VWS V14.01,2013-12-21 13:10:00,
2013-12-21 08:11:00,34.3,33.5,29.82,North,8,2.0,6.0,97,0.09,,---,0.10,VWS V14.01,2013-12-21 13:11:00,
2013-12-21 08:12:00,34.3,33.5,29.82,North,354,3.0,6.0,97,0.09,,---,0.10,VWS V14.01,2013-12-21 13:12:00,
2013-12-21 08:13:00,34.3,33.5,29.82,NNW,348,1.0,6.0,97,0.09,,---,0.10,VWS V14.01,2013-12-21 13:13:00,
2013-12-21 08:14:00,34.3,33.5,29.82,NNW,334,4.0,6.0,97,0.09,,---,0.10,VWS V14.01,2013-12-21 13:14:00,
2013-12-21 08:15:00,34.3,33.5,29.82,North,349,2.0,6.0,97,0.09,,---,0.10,VWS V14.01,2013-12-21 13:15:00,
2013-12-21 08:16:00,34.3,33.5,29.82,North,354,5.0,6.0,97,0.09,,---,0.10,VWS V14.01,2013-12-21 13:16:00,
2013-12-21 08:17:00,34.3,33.5,29.82,NNW,333,2.0,6.0,97,0.09,,---,0.10,VWS V14.01,2013-12-21 13:17:00,
2013-12-21 08:18:00,34.3,33.5,29.82,North,354,5.0,7.0,97,0.10,,---,0.11,VWS V14.01,2013-12-21 13:18:00,
2013-12-21 08:19:00,34.3,33.5,29.82,North,359,3.0,7.0,97,0.10,,---,0.11,VWS V14.01,2013-12-21 13:19:00,
2013-12-21 08:20:00,34.3,33.5,29.82,NNW,337,3.0,7.0,97,0.10,,---,0.11,VWS V14.01,2013-12-21 13:20:00,
2013-12-21 08:21:00,34.3,33.5,29.82,NNW,344,5.0,7.0,97,0.10,,---,0.11,VWS V14.01,2013-12-21 13:21:00,
2013-12-21 08:22:00,34.3,33.5,29.82,NNW,346,2.0,7.0,97,0.11,,---,0.12,VWS V14.01,2013-12-21 13:22:00,
2013-12-21 08:23:00,34.3,33.5,29.82,NNW,335,5.0,7.0,97,0.11,,---,0.12,VWS V14.01,2013-12-21 13:23:00,
2013-12-21 08:24:00,34.3,33.5,29.82,North,349,4.0,7.0,97,0.11,,---,0.12,VWS V14.01,2013-12-21 13:24:00,
2013-12-21 08:25:00,34.3,33.5,29.83,NNW,333,6.0,7.0,97,0.11,,---,0.12,VWS V14.01,2013-12-21 13:25:00,
2013-12-21 08:26:00,34.3,33.5,29.82,NW,325,4.0,7.0,97,0.11,,---,0.12,VWS V14.01,2013-12-21 13:26:00,
2013-12-21 08:27:00,34.3,33.5,29.82,NNW,337,2.0,7.0,97,0.11,,---,0.12,VWS V14.01,2013-12-21 13:27:00,
2013-12-21 08:28:00,34.2,33.4,29.83,NNE,12,4.0,7.0,97,0.11,,---,0.12,VWS V14.01,2013-12-21 13:28:00,
2013-12-21 08:29:00,34.2,33.4,29.83,North,354,3.0,7.0,97,0.12,,---,0.13,VWS V14.01,2013-12-21 13:29:00,
2013-12-21 08:30:00,34.2,33.4,29.82,NNE,17,0.0,7.0,97,0.12,,---,0.13,VWS V14.01,2013-12-21 13:30:00,
2013-12-21 08:31:00,34.2,33.4,29.82,NNW,347,3.0,3.0,97,0.09,,---,0.13,VWS V14.01,2013-12-21 13:31:00,
2013-12-21 08:32:00,34.2,33.4,29.83,NNW,339,2.0,4.0,97,0.09,,---,0.13,VWS V14.01,2013-12-21 13:32:00,
2013-12-21 08:33:00,34.2,33.4,29.83,NNW,339,0.0,4.0,97,0.09,,---,0.13,VWS V14.01,2013-12-21 13:33:00,
2013-12-21 08:34:00,34.2,33.4,29.83,NNW,335,2.0,4.0,97,0.09,,---,0.13,VWS V14.01,2013-12-21 13:34:00,
2013-12-21 08:35:00,34.2,33.4,29.83,NNW,335,0.0,4.0,97,0.10,,---,0.14,VWS V14.01,2013-12-21 13:35:00,
2013-12-21 08:36:00,34.2,33.4,29.83,NNW,335,2.0,4.0,97,0.10,,---,0.14,VWS V14.01,2013-12-21 13:36:00,
2013-12-21 08:37:00,34.2,33.4,29.83,NNW,335,2.0,4.0,97,0.10,,---,0.14,VWS V14.01,2013-12-21 13:37:00,
2013-12-21 08:38:00,34.2,33.4,29.83,NNW,335,0.0,4.0,97,0.10,,---,0.14,VWS V14.01,2013-12-21 13:38:00,
2013-12-21 08:39:00,34.2,33.4,29.83,NNW,335,0.0,4.0,97,0.10,,---,0.14,VWS V14.01,2013-12-21 13:39:00,
2013-12-21 08:40:00,34.2,33.4,29.83,NNW,335,0.0,4.0,97,0.10,,---,0.14,VWS V14.01,2013-12-21 13:40:00,
2013-12-21 08:41:00,34.2,33.4,29.83,NNW,335,0.0,4.0,97,0.10,,---,0.14,VWS V14.01,2013-12-21 13:41:00,
2013-12-21 08:42:00,34.2,33.4,29.83,NNW,335,0.0,4.0,97,0.11,,---,0.15,VWS V14.01,2013-12-21 13:42:00,
2013-12-21 08:43:00,34.2,33.4,29.83,NNW,335,0.0,4.0,97,0.11,,---,0.15,VWS V14.01,2013-12-21 13:43:00,
2013-12-21 08:44:00,34.2,33.4,29.84,NNW,335,1.0,4.0,97,0.11,,---,0.15,VWS V14.01,2013-12-21 13:44:00,
2013-12-21 08:45:00,34.2,33.4,29.84,NNW,335,0.0,4.0,97,0.11,,---,0.15,VWS V14.01,2013-12-21 13:45:00,
2013-12-21 08:46:00,34.2,33.4,29.83,NNW,335,0.0,4.0,97,0.11,,---,0.15,VWS V14.01,2013-12-21 13:46:00,
2013-12-21 08:47:00,34.2,33.4,29.83,NNW,335,0.0,4.0,97,0.12,,---,0.16,VWS V14.01,2013-12-21 13:47:00,
2013-12-21 08:48:00,34.2,33.4,29.83,NNW,335,0.0,4.0,97,0.12,,---,0.16,VWS V14.01,2013-12-21 13:48:00,
2013-12-21 08:49:00,34.1,33.3,29.83,NNW,335,0.0,4.0,97,0.12,,---,0.16,VWS V14.01,2013-12-21 13:49:00,
2013-12-21 08:50:00,34.2,33.4,29.83,NNW,335,0.0,4.0,97,0.12,,---,0.16,VWS V14.01,2013-12-21 13:50:00,
2013-12-21 08:51:00,34.2,33.4,29.83,NNW,335,0.0,4.0,97,0.12,,---,0.16,VWS V14.01,2013-12-21 13:51:00,
2013-12-21 08:52:00,34.2,33.4,29.83,NNW,335,0.0,4.0,97,0.12,,---,0.16,VWS V14.01,2013-12-21 13:52:00,
2013-12-21 08:53:00,34.2,33.4,29.83,NNW,335,0.0,4.0,97,0.12,,---,0.16,VWS V14.01,2013-12-21 13:53:00,
2013-12-21 08:54:00,34.2,33.4,29.83,NNW,335,0.0,4.0,97,0.13,,---,0.17,VWS V14.01,2013-12-21 13:54:00,
2013-12-21 08:55:00,34.2,33.4,29.83,NNW,335,0.0,4.0,97,0.13,,---,0.17,VWS V14.01,2013-12-21 13:55:00,
2013-12-21 08:56:00,34.2,33.4,29.83,NNW,335,0.0,4.0,97,0.13,,---,0.17,VWS V14.01,2013-12-21 13:56:00,
2013-12-21 08:57:00,34.2,33.4,29.83,NNW,335,0.0,4.0,97,0.13,,---,0.17,VWS V14.01,2013-12-21 13:57:00,
2013-12-21 08:58:00,34.2,33.4,29.83,NNW,335,0.0,4.0,97,0.13,,---,0.17,VWS V14.01,2013-12-21 13:58:00,
2013-12-21 08:59:00,34.2,33.4,29.83,NNW,335,0.0,4.0,97,0.13,,---,0.17,VWS V14.01,2013-12-21 13:59:00,
2013-12-21 09:00:00,34.2,33.4,29.83,NNW,335,0.0,4.0,97,0.14,,---,0.18,VWS V14.01,2013-12-21 14:00:00,
2013-12-21 09:01:00,34.2,33.4,29.83,NNW,335,0.0,0.0,97,0.10,,---,0.18,VWS V14.01,2013-12-21 14:01:00,
2013-12-21 09:02:00,34.2,33.4,29.83,NNW,335,0.0,1.0,97,0.10,,---,0.18,VWS V14.01,2013-12-21 14:02:00,
2013-12-21 09:03:00,34.3,33.5,29.83,NNW,335,0.0,1.0,97,0.10,,---,0.18,VWS V14.01,2013-12-21 14:03:00,
2013-12-21 09:04:00,34.3,33.5,29.83,NNW,335,0.0,1.0,97,0.10,,---,0.18,VWS V14.01,2013-12-21 14:04:00,
2013-12-21 09:05:00,34.3,33.5,29.83,NNW,335,0.0,1.0,97,0.10,,---,0.18,VWS V14.01,2013-12-21 14:05:00,
2013-12-21 09:06:00,34.3,33.5,29.83,NNW,335,0.0,1.0,97,0.10,,---,0.18,VWS V14.01,2013-12-21 14:06:00,
2013-12-21 09:07:00,34.3,33.5,29.83,NNW,335,0.0,1.0,97,0.10,,---,0.18,VWS V14.01,2013-12-21 14:07:00,
2013-12-21 09:08:00,34.3,33.5,29.83,NNW,335,0.0,1.0,97,0.10,,---,0.18,VWS V14.01,2013-12-21 14:08:00,
2013-12-21 09:09:00,34.4,33.6,29.83,NNW,335,0.0,1.0,97,0.10,,---,0.18,VWS V14.01,2013-12-21 14:09:00,
2013-12-21 09:10:00,34.4,33.6,29.83,NNW,335,0.0,2.0,97,0.10,,---,0.18,VWS V14.01,2013-12-21 14:10:00,
2013-12-21 09:11:00,34.4,33.6,29.83,NNW,335,0.0,2.0,97,0.10,,---,0.18,VWS V14.01,2013-12-21 14:11:00,
2013-12-21 09:12:00,34.4,33.6,29.83,NNW,335,0.0,2.0,97,0.10,,---,0.18,VWS V14.01,2013-12-21 14:12:00,
2013-12-21 09:13:00,34.4,33.6,29.83,NNW,335,1.0,2.0,97,0.10,,---,0.18,VWS V14.01,2013-12-21 14:13:00,
2013-12-21 09:14:00,34.4,33.6,29.83,NNW,335,1.0,2.0,97,0.10,,---,0.18,VWS V14.01,2013-12-21 14:14:00,
2013-12-21 09:15:00,34.5,33.7,29.83,WSW,241,2.0,2.0,97,0.10,,---,0.18,VWS V14.01,2013-12-21 14:15:00,
2013-12-21 09:16:00,34.5,33.7,29.83,SSW,194,1.0,2.0,97,0.10,,---,0.18,VWS V14.01,2013-12-21 14:16:00,
2013-12-21 09:17:00,34.5,33.7,29.83,South,185,0.0,2.0,97,0.10,,---,0.18,VWS V14.01,2013-12-21 14:17:00,
2013-12-21 09:18:00,34.5,33.7,29.83,South,170,1.0,2.0,97,0.10,,---,0.18,VWS V14.01,2013-12-21 14:18:00,
2013-12-21 09:19:00,34.5,33.7,29.83,SSE,167,2.0,2.0,97,0.10,,---,0.18,VWS V14.01,2013-12-21 14:19:00,
2013-12-21 09:20:00,34.5,33.7,29.83,SSE,158,1.0,3.0,97,0.10,,---,0.18,VWS V14.01,2013-12-21 14:20:00,
2013-12-21 09:21:00,34.6,33.8,29.83,SSE,158,0.0,3.0,97,0.11,,---,0.19,VWS V14.01,2013-12-21 14:21:00,
2013-12-21 09:22:00,34.6,33.8,29.83,SSE,158,2.0,3.0,97,0.11,,---,0.19,VWS V14.01,2013-12-21 14:22:00,
2013-12-21 09:23:00,34.6,33.8,29.83,SSE,157,1.0,3.0,97,0.11,,---,0.19,VWS V14.01,2013-12-21 14:23:00,
2013-12-21 09:24:00,34.6,33.8,29.82,SSE,157,2.0,3.0,97,0.11,,---,0.19,VWS V14.01,2013-12-21 14:24:00,
2013-12-21 09:25:00,34.6,33.8,29.82,SSE,157,2.0,3.0,97,0.11,,---,0.19,VWS V14.01,2013-12-21 14:25:00,
2013-12-21 09:26:00,34.6,33.8,29.82,SSE,147,1.0,3.0,97,0.11,,---,0.19,VWS V14.01,2013-12-21 14:26:00,
2013-12-21 09:27:00,34.6,33.8,29.82,SE,143,3.0,4.0,97,0.11,,---,0.19,VWS V14.01,2013-12-21 14:27:00,
2013-12-21 09:28:00,34.6,33.8,29.82,SE,145,1.0,4.0,97,0.11,,---,0.19,VWS V14.01,2013-12-21 14:28:00,
2013-12-21 09:29:00,34.6,33.8,29.82,SSE,159,3.0,4.0,97,0.11,,---,0.19,VWS V14.01,2013-12-21 14:29:00,
2013-12-21 09:30:00,34.6,33.8,29.82,SSE,152,2.0,4.0,97,0.11,,---,0.19,VWS V14.01,2013-12-21 14:30:00,
2013-12-21 09:31:00,34.7,33.9,29.82,SSE,157,2.0,3.0,97,0.06,,---,0.19,VWS V14.01,2013-12-21 14:31:00,
2013-12-21 09:32:00,34.7,33.9,29.82,SSE,156,1.0,3.0,97,0.06,,---,0.19,VWS V14.01,2013-12-21 14:32:00,
2013-12-21 09:33:00,34.7,33.9,29.82,SE,145,3.0,3.0,97,0.06,,---,0.19,VWS V14.01,2013-12-21 14:33:00,
2013-12-21 09:34:00,34.7,33.9,29.82,SSE,154,3.0,4.0,97,0.06,,---,0.19,VWS V14.01,2013-12-21 14:34:00,
2013-12-21 09:35:00,34.7,33.9,29.82,SSE,155,2.0,5.0,97,0.06,,---,0.19,VWS V14.01,2013-12-21 14:35:00,
2013-12-21 09:36:00,34.7,33.9,29.82,SSE,153,2.0,5.0,97,0.07,,---,0.20,VWS V14.01,2013-12-21 14:36:00,
2013-12-21 09:37:00,34.7,33.9,29.82,SSE,153,1.0,5.0,97,0.07,,---,0.20,VWS V14.01,2013-12-21 14:37:00,
2013-12-21 09:38:00,34.7,33.9,29.82,SSE,154,3.0,5.0,97,0.07,,---,0.20,VWS V14.01,2013-12-21 14:38:00,
2013-12-21 09:39:00,34.7,33.9,29.82,SSE,154,1.0,5.0,97,0.07,,---,0.20,VWS V14.01,2013-12-21 14:39:00,
2013-12-21 09:40:00,34.7,33.9,29.82,SSE,154,1.0,5.0,97,0.07,,---,0.20,VWS V14.01,2013-12-21 14:40:00,
2013-12-21 09:41:00,34.7,33.9,29.82,SSE,154,3.0,5.0,97,0.07,,---,0.20,VWS V14.01,2013-12-21 14:41:00,
2013-12-21 09:42:00,34.7,33.9,29.82,SSE,157,1.0,5.0,97,0.07,,---,0.20,VWS V14.01,2013-12-21 14:42:00,
2013-12-21 09:43:00,34.8,34.0,29.82,SSE,157,1.0,5.0,97,0.07,,---,0.20,VWS V14.01,2013-12-21 14:43:00,
2013-12-21 09:44:00,34.8,34.0,29.82,SSE,157,1.0,5.0,97,0.07,,---,0.20,VWS V14.01,2013-12-21 14:44:00,
2013-12-21 09:45:00,34.8,34.0,29.82,SSE,151,0.0,5.0,97,0.07,,---,0.20,VWS V14.01,2013-12-21 14:45:00,
2013-12-21 09:46:00,34.8,34.0,29.82,SSE,151,0.0,5.0,97,0.07,,---,0.20,VWS V14.01,2013-12-21 14:46:00,
2013-12-21 09:47:00,34.8,34.0,29.82,SSE,147,3.0,5.0,97,0.07,,---,0.20,VWS V14.01,2013-12-21 14:47:00,
2013-12-21 09:48:00,34.8,34.0,29.82,SSE,148,2.0,5.0,97,0.07,,---,0.20,VWS V14.01,2013-12-21 14:48:00,
2013-12-21 09:49:00,34.8,34.0,29.82,SSE,148,1.0,5.0,97,0.07,,---,0.20,VWS V14.01,2013-12-21 14:49:00,
2013-12-21 09:50:00,34.8,34.0,29.82,SSE,149,2.0,5.0,97,0.07,,---,0.20,VWS V14.01,2013-12-21 14:50:00,
2013-12-21 09:51:00,34.8,34.0,29.82,SSE,152,2.0,5.0,97,0.07,,---,0.20,VWS V14.01,2013-12-21 14:51:00,
2013-12-21 09:52:00,34.8,34.0,29.82,SSE,148,2.0,5.0,97,0.07,,---,0.20,VWS V14.01,2013-12-21 14:52:00,
2013-12-21 09:53:00,34.9,34.1,29.82,SSE,160,2.0,5.0,97,0.07,,---,0.20,VWS V14.01,2013-12-21 14:53:00,
2013-12-21 09:54:00,34.9,34.1,29.82,SSE,154,1.0,5.0,97,0.07,,---,0.20,VWS V14.01,2013-12-21 14:54:00,
2013-12-21 09:55:00,34.9,34.1,29.82,South,187,2.0,5.0,97,0.07,,---,0.20,VWS V14.01,2013-12-21 14:55:00,
2013-12-21 09:56:00,34.9,34.1,29.82,SSE,161,2.0,5.0,97,0.07,,---,0.20,VWS V14.01,2013-12-21 14:56:00,
2013-12-21 09:57:00,34.9,34.1,29.82,SSE,158,2.0,5.0,97,0.07,,---,0.20,VWS V14.01,2013-12-21 14:57:00,
2013-12-21 09:58:00,35.0,34.2,29.82,SE,139,2.0,5.0,97,0.07,,---,0.20,VWS V14.01,2013-12-21 14:58:00,
2013-12-21 09:59:00,35.0,34.2,29.82,SE,139,2.0,5.0,97,0.07,,---,0.20,VWS V14.01,2013-12-21 14:59:00,
2013-12-21 10:00:00,35.0,34.2,29.82,SSE,158,2.0,5.0,97,0.07,,---,0.20,VWS V14.01,2013-12-21 15:00:00,
2013-12-21 10:01:00,35.0,34.2,29.82,SSE,154,3.0,3.0,97,0.02,,---,0.20,VWS V14.01,2013-12-21 15:01:00,
2013-12-21 10:02:00,35.0,34.2,29.82,SE,143,2.0,3.0,97,0.03,,---,0.21,VWS V14.01,2013-12-21 15:02:00,
2013-12-21 10:03:00,35.0,34.2,29.82,SE,143,2.0,4.0,97,0.03,,---,0.21,VWS V14.01,2013-12-21 15:03:00,
2013-12-21 10:04:00,35.0,34.2,29.82,SSE,149,1.0,4.0,97,0.03,,---,0.21,VWS V14.01,2013-12-21 15:04:00,
2013-12-21 10:05:00,35.0,34.2,29.82,SSE,149,1.0,4.0,97,0.03,,---,0.21,VWS V14.01,2013-12-21 15:05:00,
2013-12-21 10:06:00,35.0,34.2,29.82,SSE,149,2.0,4.0,97,0.03,,---,0.21,VWS V14.01,2013-12-21 15:06:00,
2013-12-21 10:07:00,35.0,34.2,29.82,SSE,163,4.0,4.0,97,0.03,,---,0.21,VWS V14.01,2013-12-21 15:07:00,
2013-12-21 10:08:00,35.1,34.3,29.83,SSE,158,1.0,4.0,97,0.03,,---,0.21,VWS V14.01,2013-12-21 15:08:00,
2013-12-21 10:09:00,35.1,34.3,29.82,SE,139,3.0,4.0,97,0.03,,---,0.21,VWS V14.01,2013-12-21 15:09:00,
2013-12-21 10:10:00,35.1,34.3,29.82,SE,133,4.0,4.0,97,0.03,,---,0.21,VWS V14.01,2013-12-21 15:10:00,
2013-12-21 10:11:00,35.1,34.3,29.82,SE,131,2.0,4.0,97,0.03,,---,0.21,VWS V14.01,2013-12-21 15:11:00,
2013-12-21 10:12:00,35.1,34.3,29.82,SE,131,0.0,4.0,97,0.03,,---,0.21,VWS V14.01,2013-12-21 15:12:00,
2013-12-21 10:13:00,35.1,34.3,29.81,SE,131,1.0,4.0,97,0.04,,---,0.22,VWS V14.01,2013-12-21 15:13:00,
2013-12-21 10:14:00,35.1,34.3,29.81,SE,133,2.0,4.0,97,0.04,,---,0.22,VWS V14.01,2013-12-21 15:14:00,
2013-12-21 10:15:00,35.1,34.3,29.81,ESE,120,3.0,4.0,97,0.04,,---,0.22,VWS V14.01,2013-12-21 15:15:00,
2013-12-21 10:16:00,35.1,34.3,29.81,East,95,3.0,5.0,97,0.04,,---,0.22,VWS V14.01,2013-12-21 15:16:00,
2013-12-21 10:17:00,35.0,34.2,29.80,East,96,3.0,5.0,97,0.04,,---,0.22,VWS V14.01,2013-12-21 15:17:00,
2013-12-21 10:18:00,35.1,34.3,29.80,East,94,3.0,5.0,97,0.04,,---,0.22,VWS V14.01,2013-12-21 15:18:00,
2013-12-21 10:19:00,35.0,34.2,29.80,East,93,3.0,5.0,97,0.04,,---,0.22,VWS V14.01,2013-12-21 15:19:00,
2013-12-21 10:20:00,35.0,34.2,29.81,East,89,2.0,5.0,97,0.04,,---,0.22,VWS V14.01,2013-12-21 15:20:00,
2013-12-21 10:21:00,35.0,34.2,29.81,ENE,71,3.0,5.0,97,0.04,,---,0.22,VWS V14.01,2013-12-21 15:21:00,
2013-12-21 10:22:00,35.0,34.2,29.81,NE,53,4.0,5.0,97,0.04,,---,0.22,VWS V14.01,2013-12-21 15:22:00,
2013-12-21 10:23:00,35.0,34.2,29.81,ENE,64,3.0,5.0,97,0.04,,---,0.22,VWS V14.01,2013-12-21 15:23:00,
2013-12-21 10:24:00,35.0,34.2,29.81,NE,56,3.0,5.0,97,0.04,,---,0.22,VWS V14.01,2013-12-21 15:24:00,
2013-12-21 10:25:00,35.0,34.2,29.81,ENE,66,2.0,5.0,97,0.04,,---,0.22,VWS V14.01,2013-12-21 15:25:00,
2013-12-21 10:26:00,35.0,34.2,29.81,ENE,59,3.0,5.0,97,0.04,,---,0.22,VWS V14.01,2013-12-21 15:26:00,
2013-12-21 10:27:00,35.0,34.2,29.81,NE,45,4.0,5.0,97,0.04,,---,0.22,VWS V14.01,2013-12-21 15:27:00,
2013-12-21 10:28:00,35.0,34.2,29.81,NE,53,4.0,5.0,97,0.04,,---,0.22,VWS V14.01,2013-12-21 15:28:00,
2013-12-21 10:29:00,35.0,34.2,29.80,NE,52,5.0,5.0,97,0.04,,---,0.22,VWS V14.01,2013-12-21 15:29:00,
2013-12-21 10:30:00,35.0,34.2,29.80,NE,55,7.0,7.0,97,0.04,,---,0.22,VWS V14.01,2013-12-21 15:30:00,
2013-12-21 10:31:00,35.0,34.2,29.80,NE,45,5.0,7.0,97,0.03,,---,0.22,VWS V14.01,2013-12-21 15:31:00,
2013-12-21 10:32:00,35.0,34.2,29.80,NE,45,3.0,7.0,97,0.03,,---,0.22,VWS V14.01,2013-12-21 15:32:00,
2013-12-21 10:33:00,35.0,34.2,29.81,NE,41,2.0,7.0,97,0.03,,---,0.22,VWS V14.01,2013-12-21 15:33:00,
2013-12-21 10:34:00,35.0,34.2,29.81,NE,39,3.0,7.0,97,0.03,,---,0.22,VWS V14.01,2013-12-21 15:34:00,
2013-12-21 10:35:00,35.0,34.2,29.81,NE,39,1.0,7.0,97,0.03,,---,0.22,VWS V14.01,2013-12-21 15:35:00,
2013-12-21 10:36:00,35.1,34.3,29.81,NE,39,3.0,7.0,97,0.03,,---,0.22,VWS V14.01,2013-12-21 15:36:00,
2013-12-21 10:37:00,35.1,34.3,29.81,NE,40,2.0,7.0,97,0.03,,---,0.22,VWS V14.01,2013-12-21 15:37:00,
2013-12-21 10:38:00,35.1,34.3,29.81,NE,40,1.0,7.0,97,0.03,,---,0.22,VWS V14.01,2013-12-21 15:38:00,
2013-12-21 10:39:00,35.1,34.3,29.81,NE,40,0.0,7.0,97,0.03,,---,0.22,VWS V14.01,2013-12-21 15:39:00,
2013-12-21 10:40:00,35.1,34.3,29.81,NE,40,0.0,7.0,97,0.03,,---,0.22,VWS V14.01,2013-12-21 15:40:00,
2013-12-21 10:41:00,35.2,34.4,29.81,NE,40,0.0,7.0,97,0.03,,---,0.22,VWS V14.01,2013-12-21 15:41:00,
2013-12-21 10:42:00,35.2,34.4,29.81,NE,40,0.0,7.0,97,0.03,,---,0.22,VWS V14.01,2013-12-21 15:42:00,
2013-12-21 10:43:00,35.2,34.4,29.81,NE,40,1.0,7.0,97,0.03,,---,0.22,VWS V14.01,2013-12-21 15:43:00,
2013-12-21 10:44:00,35.2,34.4,29.81,NE,40,2.0,7.0,97,0.03,,---,0.22,VWS V14.01,2013-12-21 15:44:00,
2013-12-21 10:45:00,35.2,34.4,29.81,NE,42,1.0,7.0,97,0.03,,---,0.22,VWS V14.01,2013-12-21 15:45:00,
2013-12-21 10:46:00,35.2,34.4,29.81,NE,42,1.0,7.0,97,0.03,,---,0.22,VWS V14.01,2013-12-21 15:46:00,
2013-12-21 10:47:00,35.2,34.4,29.81,NE,42,2.0,7.0,97,0.03,,---,0.22,VWS V14.01,2013-12-21 15:47:00,
2013-12-21 10:48:00,35.2,34.4,29.81,NE,43,3.0,7.0,97,0.03,,---,0.22,VWS V14.01,2013-12-21 15:48:00,
2013-12-21 10:49:00,35.2,34.4,29.81,NE,42,2.0,7.0,97,0.03,,---,0.22,VWS V14.01,2013-12-21 15:49:00,
2013-12-21 10:50:00,35.2,34.4,29.81,NE,39,3.0,7.0,97,0.03,,---,0.22,VWS V14.01,2013-12-21 15:50:00,
2013-12-21 10:51:00,35.2,34.4,29.82,NE,35,3.0,7.0,97,0.03,,---,0.22,VWS V14.01,2013-12-21 15:51:00,
2013-12-21 10:52:00,35.2,34.4,29.81,NNE,32,2.0,7.0,97,0.03,,---,0.22,VWS V14.01,2013-12-21 15:52:00,
2013-12-21 10:53:00,35.3,34.5,29.82,NNE,31,3.0,7.0,97,0.03,,---,0.22,VWS V14.01,2013-12-21 15:53:00,
2013-12-21 10:54:00,35.3,34.5,29.81,NNE,31,2.0,7.0,97,0.03,,---,0.22,VWS V14.01,2013-12-21 15:54:00,
2013-12-21 10:55:00,35.3,34.5,29.81,NNE,29,1.0,7.0,97,0.03,,---,0.22,VWS V14.01,2013-12-21 15:55:00,
2013-12-21 10:56:00,35.4,34.6,29.82,NNE,21,3.0,7.0,97,0.03,,---,0.22,VWS V14.01,2013-12-21 15:56:00,
2013-12-21 10:57:00,35.4,34.6,29.82,NNE,29,4.0,7.0,97,0.03,,---,0.22,VWS V14.01,2013-12-21 15:57:00,
2013-12-21 10:58:00,35.5,34.7,29.82,NE,39,3.0,7.0,97,0.03,,---,0.22,VWS V14.01,2013-12-21 15:58:00,
2013-12-21 10:59:00,35.5,34.7,29.82,NE,37,0.0,7.0,97,0.03,,---,0.22,VWS V14.01,2013-12-21 15:59:00,
2013-12-21 11:00:00,35.5,34.7,29.81,NNE,29,4.0,7.0,97,0.03,,---,0.22,VWS V14.01,2013-12-21 16:00:00,
2013-12-21 11:01:00,35.5,34.7,29.81,NNE,31,5.0,5.0,97,0.02,,---,0.22,VWS V14.01,2013-12-21 16:01:00,
2013-12-21 11:02:00,35.6,34.8,29.81,NE,39,5.0,5.0,97,0.02,,---,0.22,VWS V14.01,2013-12-21 16:02:00,
2013-12-21 11:03:00,35.6,34.8,29.81,NE,37,3.0,5.0,97,0.02,,---,0.22,VWS V14.01,2013-12-21 16:03:00,
2013-12-21 11:04:00,35.6,34.8,29.81,NNE,33,4.0,5.0,97,0.02,,---,0.22,VWS V14.01,2013-12-21 16:04:00,
2013-12-21 11:05:00,35.6,34.8,29.80,NE,37,4.0,5.0,97,0.02,,---,0.22,VWS V14.01,2013-12-21 16:05:00,
2013-12-21 11:06:00,35.6,34.8,29.80,NNE,33,3.0,5.0,97,0.02,,---,0.22,VWS V14.01,2013-12-21 16:06:00,
2013-12-21 11:07:00,35.6,34.8,29.80,NNE,28,3.0,5.0,97,0.02,,---,0.22,VWS V14.01,2013-12-21 16:07:00,
2013-12-21 11:08:00,35.6,34.8,29.81,NNE,20,1.0,5.0,97,0.02,,---,0.22,VWS V14.01,2013-12-21 16:08:00,
2013-12-21 11:09:00,35.6,34.8,29.81,NNE,22,2.0,5.0,97,0.02,,---,0.22,VWS V14.01,2013-12-21 16:09:00,
2013-12-21 11:10:00,35.6,34.8,29.81,NNE,18,3.0,5.0,97,0.02,,---,0.22,VWS V14.01,2013-12-21 16:10:00,
2013-12-21 11:11:00,35.6,34.8,29.81,North,4,2.0,5.0,97,0.02,,---,0.22,VWS V14.01,2013-12-21 16:11:00,
2013-12-21 11:12:00,35.6,34.8,29.81,NNE,16,3.0,5.0,97,0.02,,---,0.22,VWS V14.01,2013-12-21 16:12:00,
2013-12-21 11:13:00,35.7,34.9,29.81,NNE,23,5.0,5.0,97,0.02,,---,0.22,VWS V14.01,2013-12-21 16:13:00,
2013-12-21 11:14:00,35.7,34.9,29.81,NNE,23,1.0,5.0,97,0.02,,---,0.22,VWS V14.01,2013-12-21 16:14:00,
2013-12-21 11:15:00,35.7,34.9,29.81,NNE,21,5.0,5.0,97,0.02,,---,0.22,VWS V14.01,2013-12-21 16:15:00,
2013-12-21 11:16:00,35.7,34.9,29.81,North,10,1.0,5.0,97,0.02,,---,0.22,VWS V14.01,2013-12-21 16:16:00,
2013-12-21 11:17:00,35.7,34.9,29.81,NNE,24,3.0,5.0,97,0.02,,---,0.22,VWS V14.01,2013-12-21 16:17:00,
2013-12-21 11:18:00,35.7,34.9,29.81,NNE,24,3.0,5.0,97,0.02,,---,0.22,VWS V14.01,2013-12-21 16:18:00,
2013-12-21 11:19:00,35.7,34.9,29.82,NNE,18,1.0,5.0,97,0.02,,---,0.22,VWS V14.01,2013-12-21 16:19:00,
2013-12-21 11:20:00,35.7,34.9,29.82,NNE,18,2.0,5.0,97,0.02,,---,0.22,VWS V14.01,2013-12-21 16:20:00,
2013-12-21 11:21:00,35.7,34.9,29.82,NNE,18,2.0,5.0,97,0.02,,---,0.22,VWS V14.01,2013-12-21 16:21:00,
2013-12-21 11:22:00,35.7,34.9,29.82,NNE,21,1.0,5.0,97,0.02,,---,0.22,VWS V14.01,2013-12-21 16:22:00,
2013-12-21 11:23:00,35.7,34.9,29.82,NNE,22,3.0,5.0,97,0.02,,---,0.22,VWS V14.01,2013-12-21 16:23:00,
2013-12-21 11:24:00,35.7,34.9,29.82,NNE,22,2.0,5.0,97,0.02,,---,0.22,VWS V14.01,2013-12-21 16:24:00,
2013-12-21 11:25:00,35.7,34.9,29.82,NNE,22,3.0,5.0,97,0.02,,---,0.22,VWS V14.01,2013-12-21 16:25:00,
2013-12-21 11:26:00,35.7,34.9,29.82,NNE,22,3.0,5.0,97,0.02,,---,0.22,VWS V14.01,2013-12-21 16:26:00,
2013-12-21 11:27:00,35.7,34.9,29.82,NNE,22,2.0,5.0,97,0.02,,---,0.22,VWS V14.01,2013-12-21 16:27:00,
2013-12-21 11:28:00,35.7,34.9,29.81,NNE,23,3.0,5.0,97,0.02,,---,0.22,VWS V14.01,2013-12-21 16:28:00,
2013-12-21 11:29:00,35.7,34.9,29.81,NNE,24,2.0,5.0,97,0.02,,---,0.22,VWS V14.01,2013-12-21 16:29:00,
2013-12-21 11:30:00,35.7,34.9,29.81,NNE,26,4.0,5.0,97,0.02,,---,0.22,VWS V14.01,2013-12-21 16:30:00,
2013-12-21 11:31:00,35.8,35.0,29.81,NE,35,4.0,4.0,97,0.00,,---,0.22,VWS V14.01,2013-12-21 16:31:00,
2013-12-21 11:32:00,35.8,35.0,29.80,NE,50,4.0,5.0,97,0.00,,---,0.22,VWS V14.01,2013-12-21 16:32:00,
2013-12-21 11:33:00,35.8,35.0,29.81,NE,52,5.0,5.0,97,0.00,,---,0.22,VWS V14.01,2013-12-21 16:33:00,
2013-12-21 11:34:00,35.8,35.0,29.80,NE,41,4.0,5.0,97,0.00,,---,0.22,VWS V14.01,2013-12-21 16:34:00,
2013-12-21 11:35:00,35.8,35.0,29.80,NE,48,3.0,5.0,97,0.00,,---,0.22,VWS V14.01,2013-12-21 16:35:00,
2013-12-21 11:36:00,35.8,35.0,29.80,ENE,60,5.0,5.0,97,0.00,,---,0.22,VWS V14.01,2013-12-21 16:36:00,
2013-12-21 11:37:00,35.8,35.0,29.80,ENE,60,5.0,5.0,97,0.00,,---,0.22,VWS V14.01,2013-12-21 16:37:00,
2013-12-21 11:38:00,35.8,35.0,29.80,ENE,66,3.0,7.0,97,0.00,,---,0.22,VWS V14.01,2013-12-21 16:38:00,
2013-12-21 11:39:00,35.7,34.9,29.80,NE,46,5.0,7.0,97,0.00,,---,0.22,VWS V14.01,2013-12-21 16:39:00,
2013-12-21 11:40:00,35.7,34.9,29.79,NE,55,6.0,7.0,97,0.00,,---,0.22,VWS V14.01,2013-12-21 16:40:00,
2013-12-21 11:41:00,35.7,34.9,29.79,ENE,68,4.0,7.0,97,0.00,,---,0.22,VWS V14.01,2013-12-21 16:41:00,
2013-12-21 11:42:00,35.7,34.9,29.79,ENE,72,3.0,7.0,97,0.00,,---,0.22,VWS V14.01,2013-12-21 16:42:00,
2013-12-21 11:43:00,35.7,34.9,29.79,ENE,72,2.0,7.0,97,0.00,,---,0.22,VWS V14.01,2013-12-21 16:43:00,
2013-12-21 11:44:00,35.8,35.0,29.79,ENE,72,2.0,7.0,97,0.00,,---,0.22,VWS V14.01,2013-12-21 16:44:00,
2013-12-21 11:45:00,35.8,35.0,29.79,ENE,72,3.0,7.0,97,0.00,,---,0.22,VWS V14.01,2013-12-21 16:45:00,
2013-12-21 11:46:00,35.8,35.0,29.79,ENE,72,3.0,7.0,97,0.00,,---,0.22,VWS V14.01,2013-12-21 16:46:00,
2013-12-21 11:47:00,35.8,35.0,29.78,ENE,72,3.0,7.0,97,0.00,,---,0.22,VWS V14.01,2013-12-21 16:47:00,
2013-12-21 11:48:00,35.8,35.0,29.78,ENE,72,3.0,7.0,97,0.00,,---,0.22,VWS V14.01,2013-12-21 16:48:00,
2013-12-21 11:49:00,35.9,35.1,29.78,ENE,69,4.0,7.0,97,0.00,,---,0.22,VWS V14.01,2013-12-21 16:49:00,
2013-12-21 11:50:00,35.9,35.1,29.78,ENE,73,8.0,9.0,97,0.00,,---,0.22,VWS V14.01,2013-12-21 16:50:00,
2013-12-21 11:51:00,35.9,35.1,29.78,East,84,6.0,9.0,97,0.00,,---,0.22,VWS V14.01,2013-12-21 16:51:00,
2013-12-21 11:52:00,35.9,35.1,29.78,East,83,7.0,9.0,97,0.00,,---,0.22,VWS V14.01,2013-12-21 16:52:00,
2013-12-21 11:53:00,35.9,35.1,29.78,East,85,6.0,10.0,97,0.00,,---,0.22,VWS V14.01,2013-12-21 16:53:00,
2013-12-21 11:54:00,36.0,35.2,29.79,East,85,5.0,10.0,97,0.00,,---,0.22,VWS V14.01,2013-12-21 16:54:00,
2013-12-21 11:55:00,36.0,35.2,29.79,East,88,2.0,10.0,97,0.00,,---,0.22,VWS V14.01,2013-12-21 16:55:00,
2013-12-21 11:56:00,36.0,35.2,29.79,ENE,76,3.0,10.0,97,0.00,,---,0.22,VWS V14.01,2013-12-21 16:56:00,
2013-12-21 11:57:00,36.1,35.3,29.79,ENE,74,3.0,10.0,97,0.00,,---,0.22,VWS V14.01,2013-12-21 16:57:00,
2013-12-21 11:58:00,36.1,35.3,29.79,ENE,65,4.0,10.0,97,0.00,,---,0.22,VWS V14.01,2013-12-21 16:58:00,
2013-12-21 11:59:00,36.1,35.3,29.79,ENE,63,3.0,10.0,97,0.00,,---,0.22,VWS V14.01,2013-12-21 16:59:00,
2013-12-21 12:00:00,36.1,35.3,29.79,ENE,78,6.0,10.0,97,0.00,,---,0.22,VWS V14.01,2013-12-21 17:00:00,
2013-12-21 12:01:00,36.1,35.3,29.79,NE,56,8.0,9.0,97,0.00,,---,0.22,VWS V14.01,2013-12-21 17:01:00,
2013-12-21 12:02:00,36.0,35.2,29.79,NE,56,4.0,9.0,97,0.00,,---,0.22,VWS V14.01,2013-12-21 17:02:00,
2013-12-21 12:03:00,36.0,35.2,29.79,NE,45,6.0,9.0,97,0.00,,---,0.22,VWS V14.01,2013-12-21 17:03:00,
2013-12-21 12:04:00,36.1,35.3,29.79,NE,56,5.0,9.0,97,0.00,,---,0.22,VWS V14.01,2013-12-21 17:04:00,
2013-12-21 12:05:00,36.1,35.1,29.79,NE,50,6.0,9.0,96,0.00,,---,0.22,VWS V14.01,2013-12-21 17:05:00,
2013-12-21 12:06:00,36.0,35.0,29.79,NE,50,4.0,9.0,96,0.00,,---,0.22,VWS V14.01,2013-12-21 17:06:00,
2013-12-21 12:07:00,36.1,35.1,29.79,NE,50,4.0,9.0,96,0.00,,---,0.22,VWS V14.01,2013-12-21 17:07:00,
2013-12-21 12:08:00,36.1,35.1,29.79,NE,50,5.0,9.0,96,0.00,,---,0.22,VWS V14.01,2013-12-21 17:08:00,
2013-12-21 12:09:00,36.1,35.1,29.79,NE,49,5.0,9.0,96,0.00,,---,0.22,VWS V14.01,2013-12-21 17:09:00,
2013-12-21 12:10:00,36.1,35.1,29.79,NE,43,3.0,9.0,96,0.00,,---,0.22,VWS V14.01,2013-12-21 17:10:00,
2013-12-21 12:11:00,36.1,35.1,29.79,NE,42,3.0,9.0,96,0.00,,---,0.22,VWS V14.01,2013-12-21 17:11:00,
2013-12-21 12:12:00,36.1,35.1,29.79,NNE,31,4.0,9.0,96,0.00,,---,0.22,VWS V14.01,2013-12-21 17:12:00,
2013-12-21 12:13:00,36.1,35.1,29.79,NNE,23,2.0,9.0,96,0.00,,---,0.22,VWS V14.01,2013-12-21 17:13:00,
2013-12-21 12:14:00,36.2,35.2,29.79,NNE,25,3.0,9.0,96,0.00,,---,0.22,VWS V14.01,2013-12-21 17:14:00,
2013-12-21 12:15:00,36.2,35.2,29.79,NNE,18,4.0,9.0,96,0.00,,---,0.22,VWS V14.01,2013-12-21 17:15:00,
2013-12-21 12:16:00,36.2,35.2,29.79,NNE,18,2.0,9.0,96,0.00,,---,0.22,VWS V14.01,2013-12-21 17:16:00,
2013-12-21 12:17:00,36.3,35.3,29.80,NNE,18,0.0,9.0,96,0.00,,---,0.22,VWS V14.01,2013-12-21 17:17:00,
2013-12-21 12:18:00,36.3,35.3,29.80,NNE,25,5.0,9.0,96,0.00,,---,0.22,VWS V14.01,2013-12-21 17:18:00,
2013-12-21 12:19:00,36.4,35.4,29.80,NE,37,6.0,9.0,96,0.00,,---,0.22,VWS V14.01,2013-12-21 17:19:00,
2013-12-21 12:20:00,36.4,35.4,29.80,NNE,22,4.0,9.0,96,0.00,,---,0.22,VWS V14.01,2013-12-21 17:20:00,
2013-12-21 12:21:00,36.4,35.4,29.80,NNE,33,3.0,9.0,96,0.00,,---,0.22,VWS V14.01,2013-12-21 17:21:00,
2013-12-21 12:22:00,36.3,35.3,29.80,NNE,30,2.0,9.0,96,0.00,,---,0.22,VWS V14.01,2013-12-21 17:22:00,
2013-12-21 12:23:00,36.4,35.4,29.80,NNE,14,0.0,9.0,96,0.00,,---,0.22,VWS V14.01,2013-12-21 17:23:00,
2013-12-21 12:24:00,36.4,35.4,29.80,NNE,14,0.0,9.0,96,0.00,,---,0.22,VWS V14.01,2013-12-21 17:24:00,
2013-12-21 12:25:00,36.4,35.4,29.80,NNE,14,0.0,9.0,96,0.00,,---,0.22,VWS V14.01,2013-12-21 17:25:00,
2013-12-21 12:26:00,36.4,35.4,29.80,NNE,14,1.0,9.0,96,0.00,,---,0.22,VWS V14.01,2013-12-21 17:26:00,
2013-12-21 12:27:00,36.4,35.4,29.80,NNE,14,0.0,9.0,96,0.00,,---,0.22,VWS V14.01,2013-12-21 17:27:00,
2013-12-21 12:28:00,36.5,35.5,29.80,NNE,14,2.0,9.0,96,0.00,,---,0.22,VWS V14.01,2013-12-21 17:28:00,
2013-12-21 12:29:00,36.5,35.5,29.80,NNE,14,1.0,9.0,96,0.00,,---,0.22,VWS V14.01,2013-12-21 17:29:00,
2013-12-21 12:30:00,36.5,35.5,29.80,NNE,14,2.0,9.0,96,0.00,,---,0.22,VWS V14.01,2013-12-21 17:30:00,
2013-12-21 12:31:00,36.5,35.5,29.81,NNE,14,0.0,2.0,96,0.00,,---,0.22,VWS V14.01,2013-12-21 17:31:00,
2013-12-21 12:32:00,36.5,35.5,29.81,NNE,14,1.0,2.0,96,0.00,,---,0.22,VWS V14.01,2013-12-21 17:32:00,
2013-12-21 12:33:00,36.5,35.5,29.81,NNE,14,2.0,2.0,96,0.00,,---,0.22,VWS V14.01,2013-12-21 17:33:00,
2013-12-21 12:34:00,36.4,35.4,29.81,North,8,3.0,4.0,96,0.00,,---,0.22,VWS V14.01,2013-12-21 17:34:00,
2013-12-21 12:35:00,36.4,35.4,29.81,North,8,1.0,4.0,96,0.00,,---,0.22,VWS V14.01,2013-12-21 17:35:00,
2013-12-21 12:36:00,36.4,35.4,29.81,North,10,3.0,4.0,96,0.00,,---,0.22,VWS V14.01,2013-12-21 17:36:00,
2013-12-21 12:37:00,36.4,35.4,29.81,North,10,2.0,4.0,96,0.00,,---,0.22,VWS V14.01,2013-12-21 17:37:00,
2013-12-21 12:38:00,36.4,35.4,29.80,North,11,3.0,5.0,96,0.00,,---,0.22,VWS V14.01,2013-12-21 17:38:00,
2013-12-21 12:39:00,36.4,35.4,29.80,North,10,4.0,5.0,96,0.00,,---,0.22,VWS V14.01,2013-12-21 17:39:00,
2013-12-21 12:40:00,36.4,35.4,29.80,NNE,20,1.0,5.0,96,0.00,,---,0.22,VWS V14.01,2013-12-21 17:40:00,
2013-12-21 12:41:00,36.4,35.4,29.81,NNE,20,2.0,5.0,96,0.01,,---,0.23,VWS V14.01,2013-12-21 17:41:00,
2013-12-21 12:42:00,36.4,35.4,29.80,NNE,20,2.0,5.0,96,0.01,,---,0.23,VWS V14.01,2013-12-21 17:42:00,
2013-12-21 12:43:00,36.4,35.4,29.81,NNE,20,2.0,5.0,96,0.01,,---,0.23,VWS V14.01,2013-12-21 17:43:00,
2013-12-21 12:44:00,36.4,35.4,29.80,NNE,20,2.0,5.0,96,0.01,,---,0.23,VWS V14.01,2013-12-21 17:44:00,
2013-12-21 12:45:00,36.4,35.1,29.80,NNE,20,3.0,5.0,95,0.01,,---,0.23,VWS V14.01,2013-12-21 17:45:00,
2013-12-21 12:46:00,36.4,35.1,29.80,NNE,24,2.0,5.0,95,0.01,,---,0.23,VWS V14.01,2013-12-21 17:46:00,
2013-12-21 12:47:00,36.3,35.0,29.80,NNE,23,2.0,5.0,95,0.01,,---,0.23,VWS V14.01,2013-12-21 17:47:00,
2013-12-21 12:48:00,36.3,35.0,29.80,NNE,28,3.0,5.0,95,0.02,,---,0.24,VWS V14.01,2013-12-21 17:48:00,
2013-12-21 12:49:00,36.2,34.9,29.80,NNE,18,3.0,5.0,95,0.02,,---,0.24,VWS V14.01,2013-12-21 17:49:00,
2013-12-21 12:50:00,36.2,34.9,29.80,NE,34,6.0,6.0,95,0.02,,---,0.24,VWS V14.01,2013-12-21 17:50:00,
2013-12-21 12:51:00,36.2,34.9,29.80,NE,34,3.0,7.0,95,0.02,,---,0.24,VWS V14.01,2013-12-21 17:51:00,
2013-12-21 12:52:00,36.2,34.9,29.80,NE,34,4.0,7.0,95,0.02,,---,0.24,VWS V14.01,2013-12-21 17:52:00,
2013-12-21 12:53:00,36.2,34.9,29.80,NE,35,5.0,7.0,95,0.02,,---,0.24,VWS V14.01,2013-12-21 17:53:00,
2013-12-21 12:54:00,36.2,34.9,29.80,NNE,29,2.0,7.0,95,0.02,,---,0.24,VWS V14.01,2013-12-21 17:54:00,
2013-12-21 12:55:00,36.2,34.9,29.80,NNE,27,3.0,7.0,95,0.02,,---,0.24,VWS V14.01,2013-12-21 17:55:00,
2013-12-21 12:56:00,36.2,34.9,29.80,NE,35,4.0,7.0,95,0.02,,---,0.24,VWS V14.01,2013-12-21 17:56:00,
2013-12-21 12:57:00,36.2,34.9,29.79,NNE,33,5.0,7.0,95,0.02,,---,0.24,VWS V14.01,2013-12-21 17:57:00,
2013-12-21 12:58:00,36.1,34.8,29.79,NNE,33,3.0,7.0,95,0.02,,---,0.24,VWS V14.01,2013-12-21 17:58:00,
2013-12-21 12:59:00,36.1,34.8,29.79,NE,36,6.0,7.0,95,0.02,,---,0.24,VWS V14.01,2013-12-21 17:59:00,
2013-12-21 13:00:00,36.1,34.8,29.79,NE,36,3.0,7.0,95,0.02,,---,0.24,VWS V14.01,2013-12-21 18:00:00,
2013-12-21 13:01:00,36.1,34.8,29.79,NE,37,3.0,4.0,95,0.02,,---,0.24,VWS V14.01,2013-12-21 18:01:00,
2013-12-21 13:02:00,36.1,34.8,29.79,NE,37,3.0,4.0,95,0.03,,---,0.25,VWS V14.01,2013-12-21 18:02:00,
2013-12-21 13:03:00,36.1,34.8,29.79,NE,44,4.0,4.0,95,0.03,,---,0.25,VWS V14.01,2013-12-21 18:03:00,
2013-12-21 13:04:00,36.1,34.8,29.79,NE,56,3.0,4.0,95,0.03,,---,0.25,VWS V14.01,2013-12-21 18:04:00,
2013-12-21 13:05:00,36.1,35.1,29.79,ENE,57,3.0,4.0,96,0.03,,---,0.25,VWS V14.01,2013-12-21 18:05:00,
2013-12-21 13:06:00,36.0,35.0,29.79,ENE,59,4.0,5.0,96,0.03,,---,0.25,VWS V14.01,2013-12-21 18:06:00,
2013-12-21 13:07:00,36.1,35.1,29.79,ENE,59,4.0,5.0,96,0.03,,---,0.25,VWS V14.01,2013-12-21 18:07:00,
2013-12-21 13:08:00,36.0,35.0,29.79,ENE,63,5.0,5.0,96,0.03,,---,0.25,VWS V14.01,2013-12-21 18:08:00,
2013-12-21 13:09:00,36.0,35.0,29.79,ENE,66,4.0,5.0,96,0.03,,---,0.25,VWS V14.01,2013-12-21 18:09:00,
2013-12-21 13:10:00,36.0,35.0,29.79,NE,50,4.0,5.0,96,0.04,,---,0.26,VWS V14.01,2013-12-21 18:10:00,
2013-12-21 13:11:00,36.0,35.0,29.79,NE,51,4.0,5.0,96,0.04,,---,0.26,VWS V14.01,2013-12-21 18:11:00,
2013-12-21 13:12:00,36.0,35.0,29.79,NE,52,3.0,5.0,96,0.04,,---,0.26,VWS V14.01,2013-12-21 18:12:00,
2013-12-21 13:13:00,36.0,35.0,29.79,NE,47,4.0,5.0,96,0.04,,---,0.26,VWS V14.01,2013-12-21 18:13:00,
2013-12-21 13:14:00,36.0,35.0,29.79,NE,45,2.0,5.0,96,0.04,,---,0.26,VWS V14.01,2013-12-21 18:14:00,
2013-12-21 13:15:00,36.0,35.0,29.80,NE,38,1.0,5.0,96,0.04,,---,0.26,VWS V14.01,2013-12-21 18:15:00,
2013-12-21 13:16:00,36.0,35.0,29.80,NE,38,2.0,5.0,96,0.04,,---,0.26,VWS V14.01,2013-12-21 18:16:00,
2013-12-21 13:17:00,36.0,35.0,29.80,NNE,19,1.0,5.0,96,0.04,,---,0.26,VWS V14.01,2013-12-21 18:17:00,
2013-12-21 13:18:00,36.0,35.0,29.80,NNE,20,1.0,5.0,96,0.05,,---,0.27,VWS V14.01,2013-12-21 18:18:00,
2013-12-21 13:19:00,36.0,35.0,29.80,NNE,21,3.0,5.0,96,0.05,,---,0.27,VWS V14.01,2013-12-21 18:19:00,
2013-12-21 13:20:00,36.0,35.0,29.80,NNE,21,3.0,5.0,96,0.05,,---,0.27,VWS V14.01,2013-12-21 18:20:00,
2013-12-21 13:21:00,36.1,35.1,29.80,North,4,5.0,5.0,96,0.05,,---,0.27,VWS V14.01,2013-12-21 18:21:00,
2013-12-21 13:22:00,36.1,35.1,29.80,North,10,2.0,5.0,96,0.05,,---,0.27,VWS V14.01,2013-12-21 18:22:00,
2013-12-21 13:23:00,36.1,35.1,29.80,NE,36,4.0,5.0,96,0.05,,---,0.27,VWS V14.01,2013-12-21 18:23:00,
2013-12-21 13:24:00,36.1,35.1,29.80,NE,40,4.0,5.0,96,0.05,,---,0.27,VWS V14.01,2013-12-21 18:24:00,
2013-12-21 13:25:00,36.0,35.0,29.80,NNE,29,3.0,5.0,96,0.06,,---,0.28,VWS V14.01,2013-12-21 18:25:00,
2013-12-21 13:26:00,36.0,35.0,29.80,NNE,32,4.0,5.0,96,0.06,,---,0.28,VWS V14.01,2013-12-21 18:26:00,
2013-12-21 13:27:00,36.0,35.0,29.80,NE,46,4.0,5.0,96,0.06,,---,0.28,VWS V14.01,2013-12-21 18:27:00,
2013-12-21 13:28:00,36.0,35.0,29.80,NNE,31,3.0,5.0,96,0.06,,---,0.28,VWS V14.01,2013-12-21 18:28:00,
2013-12-21 13:29:00,36.0,35.0,29.80,NNE,31,4.0,5.0,96,0.06,,---,0.28,VWS V14.01,2013-12-21 18:29:00,
2013-12-21 13:30:00,36.0,35.0,29.80,NNE,31,3.0,5.0,96,0.06,,---,0.28,VWS V14.01,2013-12-21 18:30:00,
2013-12-21 13:31:00,36.0,35.0,29.80,NNE,32,4.0,5.0,96,0.06,,---,0.28,VWS V14.01,2013-12-21 18:31:00,
2013-12-21 13:32:00,36.0,35.0,29.80,NNE,32,3.0,5.0,96,0.06,,---,0.28,VWS V14.01,2013-12-21 18:32:00,
2013-12-21 13:33:00,36.0,35.0,29.80,NNE,32,3.0,5.0,96,0.06,,---,0.28,VWS V14.01,2013-12-21 18:33:00,
2013-12-21 13:34:00,36.0,35.0,29.80,NNE,32,4.0,5.0,96,0.07,,---,0.29,VWS V14.01,2013-12-21 18:34:00,
2013-12-21 13:35:00,36.0,35.0,29.80,NNE,32,4.0,5.0,96,0.07,,---,0.29,VWS V14.01,2013-12-21 18:35:00,
2013-12-21 13:36:00,36.0,35.0,29.80,NNE,32,2.0,5.0,96,0.07,,---,0.29,VWS V14.01,2013-12-21 18:36:00,
2013-12-21 13:37:00,36.0,35.0,29.80,NNE,32,0.0,5.0,96,0.07,,---,0.29,VWS V14.01,2013-12-21 18:37:00,
2013-12-21 13:38:00,36.0,35.0,29.80,NNE,32,2.0,5.0,96,0.07,,---,0.29,VWS V14.01,2013-12-21 18:38:00,
2013-12-21 13:39:00,36.0,35.0,29.80,NE,41,4.0,5.0,96,0.07,,---,0.29,VWS V14.01,2013-12-21 18:39:00,
2013-12-21 13:40:00,36.0,35.0,29.79,NE,48,6.0,6.0,96,0.07,,---,0.29,VWS V14.01,2013-12-21 18:40:00,
2013-12-21 13:41:00,36.0,35.0,29.79,NE,48,4.0,6.0,96,0.07,,---,0.29,VWS V14.01,2013-12-21 18:41:00,
2013-12-21 13:42:00,36.0,35.0,29.79,NE,48,3.0,6.0,96,0.08,,---,0.30,VWS V14.01,2013-12-21 18:42:00,
2013-12-21 13:43:00,36.0,35.0,29.79,NE,48,4.0,6.0,96,0.08,,---,0.30,VWS V14.01,2013-12-21 18:43:00,
2013-12-21 13:44:00,36.0,35.0,29.79,NE,48,4.0,6.0,96,0.08,,---,0.30,VWS V14.01,2013-12-21 18:44:00,
2013-12-21 13:45:00,36.0,35.0,29.79,NE,48,4.0,6.0,96,0.08,,---,0.30,VWS V14.01,2013-12-21 18:45:00,
2013-12-21 13:46:00,36.0,35.0,29.79,NE,48,5.0,6.0,96,0.08,,---,0.30,VWS V14.01,2013-12-21 18:46:00,
2013-12-21 13:47:00,36.0,35.0,29.79,NE,39,6.0,6.0,96,0.08,,---,0.30,VWS V14.01,2013-12-21 18:47:00,
2013-12-21 13:48:00,35.9,34.6,29.78,NE,39,7.0,7.0,95,0.08,,---,0.30,VWS V14.01,2013-12-21 18:48:00,
2013-12-21 13:49:00,36.0,35.0,29.78,NE,45,6.0,7.0,96,0.08,,---,0.30,VWS V14.01,2013-12-21 18:49:00,
2013-12-21 13:50:00,35.9,34.6,29.78,NE,48,6.0,7.0,95,0.08,,---,0.30,VWS V14.01,2013-12-21 18:50:00,
2013-12-21 13:51:00,35.9,34.6,29.78,NE,52,6.0,8.0,95,0.08,,---,0.30,VWS V14.01,2013-12-21 18:51:00,
2013-12-21 13:52:00,35.9,34.6,29.78,NE,43,6.0,8.0,95,0.09,,---,0.31,VWS V14.01,2013-12-21 18:52:00,
2013-12-21 13:53:00,35.9,34.6,29.78,NE,50,6.0,8.0,95,0.09,,---,0.31,VWS V14.01,2013-12-21 18:53:00,
2013-12-21 13:54:00,35.9,34.6,29.78,NE,39,7.0,9.0,95,0.09,,---,0.31,VWS V14.01,2013-12-21 18:54:00,
2013-12-21 13:55:00,35.9,34.6,29.77,NE,47,7.0,9.0,95,0.09,,---,0.31,VWS V14.01,2013-12-21 18:55:00,
2013-12-21 13:56:00,35.9,34.6,29.77,NE,47,7.0,9.0,95,0.09,,---,0.31,VWS V14.01,2013-12-21 18:56:00,
2013-12-21 13:57:00,35.9,34.6,29.77,NE,48,7.0,9.0,95,0.09,,---,0.31,VWS V14.01,2013-12-21 18:57:00,
2013-12-21 13:58:00,35.9,34.6,29.77,ENE,57,9.0,9.0,95,0.09,,---,0.31,VWS V14.01,2013-12-21 18:58:00,
2013-12-21 13:59:00,35.9,34.6,29.77,NE,50,6.0,9.0,95,0.09,,---,0.31,VWS V14.01,2013-12-21 18:59:00,
2013-12-21 14:00:00,35.9,34.6,29.77,NE,51,7.0,9.0,95,0.09,,---,0.31,VWS V14.01,2013-12-21 19:00:00,
2013-12-21 14:01:00,35.9,34.6,29.77,NE,51,5.0,7.0,95,0.07,,---,0.31,VWS V14.01,2013-12-21 19:01:00,
2013-12-21 14:02:00,35.9,34.6,29.77,NE,47,7.0,8.0,95,0.07,,---,0.31,VWS V14.01,2013-12-21 19:02:00,
2013-12-21 14:03:00,35.9,34.9,29.77,NE,50,7.0,8.0,96,0.07,,---,0.31,VWS V14.01,2013-12-21 19:03:00,
2013-12-21 14:04:00,35.8,34.8,29.77,ENE,63,10.0,10.0,96,0.07,,---,0.31,VWS V14.01,2013-12-21 19:04:00,
2013-12-21 14:05:00,35.8,34.8,29.77,ENE,60,10.0,10.0,96,0.07,,---,0.31,VWS V14.01,2013-12-21 19:05:00,
2013-12-21 14:06:00,35.9,34.9,29.77,NE,43,7.0,10.0,96,0.07,,---,0.31,VWS V14.01,2013-12-21 19:06:00,
2013-12-21 14:07:00,35.9,34.9,29.77,ENE,63,8.0,10.0,96,0.07,,---,0.31,VWS V14.01,2013-12-21 19:07:00,
2013-12-21 14:08:00,35.9,34.9,29.77,ENE,60,7.0,10.0,96,0.07,,---,0.31,VWS V14.01,2013-12-21 19:08:00,
2013-12-21 14:09:00,35.9,34.9,29.77,ENE,65,7.0,10.0,96,0.08,,---,0.32,VWS V14.01,2013-12-21 19:09:00,
2013-12-21 14:10:00,35.9,34.9,29.77,ENE,70,8.0,10.0,96,0.08,,---,0.32,VWS V14.01,2013-12-21 19:10:00,
2013-12-21 14:11:00,35.9,34.9,29.77,ENE,65,7.0,10.0,96,0.08,,---,0.32,VWS V14.01,2013-12-21 19:11:00,
2013-12-21 14:12:00,35.8,34.8,29.77,ENE,67,7.0,10.0,96,0.08,,---,0.32,VWS V14.01,2013-12-21 19:12:00,
2013-12-21 14:13:00,35.8,34.8,29.77,ENE,62,7.0,10.0,96,0.08,,---,0.32,VWS V14.01,2013-12-21 19:13:00,
2013-12-21 14:14:00,35.8,34.8,29.77,ENE,69,7.0,10.0,96,0.08,,---,0.32,VWS V14.01,2013-12-21 19:14:00,
2013-12-21 14:15:00,35.8,34.8,29.77,ENE,73,7.0,10.0,96,0.08,,---,0.32,VWS V14.01,2013-12-21 19:15:00,
2013-12-21 14:16:00,35.8,34.8,29.77,ENE,75,5.0,10.0,96,0.08,,---,0.32,VWS V14.01,2013-12-21 19:16:00,
2013-12-21 14:17:00,35.8,34.8,29.77,ENE,73,5.0,10.0,96,0.08,,---,0.32,VWS V14.01,2013-12-21 19:17:00,
2013-12-21 14:18:00,35.9,34.9,29.77,ENE,70,5.0,10.0,96,0.08,,---,0.32,VWS V14.01,2013-12-21 19:18:00,
2013-12-21 14:19:00,35.9,34.9,29.77,East,83,6.0,10.0,96,0.08,,---,0.32,VWS V14.01,2013-12-21 19:19:00,
2013-12-21 14:20:00,35.9,34.9,29.77,NE,56,8.0,10.0,96,0.08,,---,0.32,VWS V14.01,2013-12-21 19:20:00,
2013-12-21 14:21:00,35.9,34.9,29.77,NE,54,8.0,11.0,96,0.08,,---,0.32,VWS V14.01,2013-12-21 19:21:00,
2013-12-21 14:22:00,35.9,34.9,29.77,ENE,73,8.0,11.0,96,0.08,,---,0.32,VWS V14.01,2013-12-21 19:22:00,
2013-12-21 14:23:00,35.9,34.9,29.77,ENE,68,9.0,11.0,96,0.08,,---,0.32,VWS V14.01,2013-12-21 19:23:00,
2013-12-21 14:24:00,35.9,34.9,29.77,ENE,77,9.0,11.0,96,0.08,,---,0.32,VWS V14.01,2013-12-21 19:24:00,
2013-12-21 14:25:00,35.9,34.9,29.77,ENE,64,8.0,11.0,96,0.08,,---,0.32,VWS V14.01,2013-12-21 19:25:00,
2013-12-21 14:26:00,35.9,34.9,29.77,ENE,68,8.0,11.0,96,0.09,,---,0.33,VWS V14.01,2013-12-21 19:26:00,
2013-12-21 14:27:00,35.9,34.9,29.77,NE,53,6.0,11.0,96,0.09,,---,0.33,VWS V14.01,2013-12-21 19:27:00,
2013-12-21 14:28:00,35.9,34.9,29.77,ENE,63,10.0,11.0,96,0.09,,---,0.33,VWS V14.01,2013-12-21 19:28:00,
2013-12-21 14:29:00,35.9,34.6,29.77,ENE,68,8.0,11.0,95,0.09,,---,0.33,VWS V14.01,2013-12-21 19:29:00,
2013-12-21 14:30:00,35.9,34.6,29.77,ENE,72,5.0,11.0,95,0.09,,---,0.33,VWS V14.01,2013-12-21 19:30:00,
2013-12-21 14:31:00,36.0,35.0,29.77,ENE,74,5.0,8.0,96,0.05,,---,0.33,VWS V14.01,2013-12-21 19:31:00,
2013-12-21 14:32:00,35.9,34.9,29.77,ENE,77,7.0,10.0,96,0.05,,---,0.33,VWS V14.01,2013-12-21 19:32:00,
2013-12-21 14:33:00,36.0,35.0,29.76,ENE,71,7.0,10.0,96,0.05,,---,0.33,VWS V14.01,2013-12-21 19:33:00,
2013-12-21 14:34:00,36.0,35.0,29.76,ENE,68,5.0,10.0,96,0.05,,---,0.33,VWS V14.01,2013-12-21 19:34:00,
2013-12-21 14:35:00,36.0,35.0,29.76,ENE,63,9.0,10.0,96,0.05,,---,0.33,VWS V14.01,2013-12-21 19:35:00,
2013-12-21 14:36:00,35.9,34.6,29.76,ENE,68,7.0,10.0,95,0.05,,---,0.33,VWS V14.01,2013-12-21 19:36:00,
2013-12-21 14:37:00,36.0,34.7,29.76,ENE,75,5.0,10.0,95,0.05,,---,0.33,VWS V14.01,2013-12-21 19:37:00,
2013-12-21 14:38:00,36.0,34.7,29.77,ENE,70,5.0,10.0,95,0.05,,---,0.33,VWS V14.01,2013-12-21 19:38:00,
2013-12-21 14:39:00,36.0,34.7,29.76,ENE,77,8.0,11.0,95,0.06,,---,0.34,VWS V14.01,2013-12-21 19:39:00,
2013-12-21 14:40:00,36.0,34.7,29.76,NE,56,8.0,11.0,95,0.06,,---,0.34,VWS V14.01,2013-12-21 19:40:00,
2013-12-21 14:41:00,36.0,34.7,29.76,NE,55,6.0,11.0,95,0.06,,---,0.34,VWS V14.01,2013-12-21 19:41:00,
2013-12-21 14:42:00,36.0,34.7,29.76,NE,56,7.0,11.0,95,0.06,,---,0.34,VWS V14.01,2013-12-21 19:42:00,
2013-12-21 14:43:00,36.0,34.7,29.76,NE,56,7.0,11.0,95,0.06,,---,0.34,VWS V14.01,2013-12-21 19:43:00,
2013-12-21 14:44:00,36.0,34.7,29.77,ENE,66,4.0,11.0,95,0.06,,---,0.34,VWS V14.01,2013-12-21 19:44:00,
2013-12-21 14:45:00,36.0,34.7,29.77,ENE,71,4.0,11.0,95,0.06,,---,0.34,VWS V14.01,2013-12-21 19:45:00,
2013-12-21 14:46:00,36.0,34.7,29.77,ENE,70,4.0,11.0,95,0.06,,---,0.34,VWS V14.01,2013-12-21 19:46:00,
2013-12-21 14:47:00,35.9,34.6,29.77,ENE,70,5.0,11.0,95,0.06,,---,0.34,VWS V14.01,2013-12-21 19:47:00,
2013-12-21 14:48:00,36.0,34.7,29.77,ENE,57,4.0,11.0,95,0.06,,---,0.34,VWS V14.01,2013-12-21 19:48:00,
2013-12-21 14:49:00,36.0,34.7,29.77,ENE,57,4.0,11.0,95,0.06,,---,0.34,VWS V14.01,2013-12-21 19:49:00,
2013-12-21 14:50:00,35.9,34.6,29.77,NE,50,8.0,11.0,95,0.06,,---,0.34,VWS V14.01,2013-12-21 19:50:00,
2013-12-21 14:51:00,35.9,34.6,29.77,ENE,66,8.0,11.0,95,0.06,,---,0.34,VWS V14.01,2013-12-21 19:51:00,
2013-12-21 14:52:00,35.9,34.6,29.77,NE,48,9.0,11.0,95,0.07,,---,0.35,VWS V14.01,2013-12-21 19:52:00,
2013-12-21 14:53:00,36.0,34.7,29.77,ENE,59,10.0,11.0,95,0.07,,---,0.35,VWS V14.01,2013-12-21 19:53:00,
2013-12-21 14:54:00,36.0,34.7,29.77,NE,56,8.0,11.0,95,0.07,,---,0.35,VWS V14.01,2013-12-21 19:54:00,
2013-12-21 14:55:00,36.0,34.7,29.77,ENE,62,9.0,11.0,95,0.07,,---,0.35,VWS V14.01,2013-12-21 19:55:00,
2013-12-21 14:56:00,36.0,34.7,29.77,ENE,60,8.0,11.0,95,0.07,,---,0.35,VWS V14.01,2013-12-21 19:56:00,
2013-12-21 14:57:00,35.9,34.6,29.77,ENE,62,7.0,11.0,95,0.07,,---,0.35,VWS V14.01,2013-12-21 19:57:00,
2013-12-21 14:58:00,35.9,34.6,29.77,ENE,60,8.0,11.0,95,0.07,,---,0.35,VWS V14.01,2013-12-21 19:58:00,
2013-12-21 14:59:00,35.9,34.6,29.77,NE,54,8.0,11.0,95,0.08,,---,0.36,VWS V14.01,2013-12-21 19:59:00,
2013-12-21 15:00:00,35.9,34.6,29.77,NE,56,8.0,11.0,95,0.08,,---,0.36,VWS V14.01,2013-12-21 20:00:00,
2013-12-21 15:01:00,35.9,34.6,29.77,ENE,60,7.0,8.0,95,0.05,,---,0.36,VWS V14.01,2013-12-21 20:01:00,
2013-12-21 15:02:00,35.9,34.6,29.77,ENE,68,7.0,9.0,95,0.05,,---,0.36,VWS V14.01,2013-12-21 20:02:00,
2013-12-21 15:03:00,35.9,34.6,29.77,ENE,64,5.0,9.0,95,0.05,,---,0.36,VWS V14.01,2013-12-21 20:03:00,
2013-12-21 15:04:00,35.9,34.6,29.77,NE,56,5.0,9.0,95,0.05,,---,0.36,VWS V14.01,2013-12-21 20:04:00,
2013-12-21 15:05:00,35.9,34.6,29.78,ENE,60,8.0,9.0,95,0.05,,---,0.36,VWS V14.01,2013-12-21 20:05:00,
2013-12-21 15:06:00,35.9,34.6,29.77,NNE,31,3.0,9.0,95,0.05,,---,0.36,VWS V14.01,2013-12-21 20:06:00,
2013-12-21 15:07:00,35.9,34.6,29.78,NE,34,3.0,9.0,95,0.06,,---,0.37,VWS V14.01,2013-12-21 20:07:00,
2013-12-21 15:08:00,35.9,34.6,29.78,NNE,31,5.0,9.0,95,0.06,,---,0.37,VWS V14.01,2013-12-21 20:08:00,
2013-12-21 15:09:00,35.9,34.6,29.78,NE,39,6.0,9.0,95,0.06,,---,0.37,VWS V14.01,2013-12-21 20:09:00,
2013-12-21 15:10:00,35.9,34.6,29.78,NNE,32,5.0,9.0,95,0.06,,---,0.37,VWS V14.01,2013-12-21 20:10:00,
2013-12-21 15:11:00,35.9,34.6,29.78,NE,35,6.0,9.0,95,0.06,,---,0.37,VWS V14.01,2013-12-21 20:11:00,
2013-12-21 15:12:00,35.9,34.6,29.78,NE,34,6.0,9.0,95,0.06,,---,0.37,VWS V14.01,2013-12-21 20:12:00,
2013-12-21 15:13:00,36.0,34.7,29.78,NE,40,4.0,9.0,95,0.06,,---,0.37,VWS V14.01,2013-12-21 20:13:00,
2013-12-21 15:14:00,36.0,34.7,29.78,NE,35,4.0,9.0,95,0.07,,---,0.38,VWS V14.01,2013-12-21 20:14:00,
2013-12-21 15:15:00,36.0,34.7,29.78,NE,48,4.0,9.0,95,0.07,,---,0.38,VWS V14.01,2013-12-21 20:15:00,
2013-12-21 15:16:00,35.9,34.6,29.78,NE,53,4.0,9.0,95,0.07,,---,0.38,VWS V14.01,2013-12-21 20:16:00,
2013-12-21 15:17:00,36.0,34.7,29.78,NE,52,5.0,9.0,95,0.07,,---,0.38,VWS V14.01,2013-12-21 20:17:00,
2013-12-21 15:18:00,35.9,34.6,29.78,NE,52,6.0,9.0,95,0.07,,---,0.38,VWS V14.01,2013-12-21 20:18:00,
2013-12-21 15:19:00,35.9,34.6,29.78,NE,48,6.0,9.0,95,0.07,,---,0.38,VWS V14.01,2013-12-21 20:19:00,
2013-12-21 15:20:00,36.0,34.7,29.78,NE,41,6.0,9.0,95,0.07,,---,0.38,VWS V14.01,2013-12-21 20:20:00,
2013-12-21 15:21:00,35.9,34.6,29.78,NE,37,6.0,9.0,95,0.07,,---,0.38,VWS V14.01,2013-12-21 20:21:00,
2013-12-21 15:22:00,35.9,34.6,29.78,NNE,32,4.0,9.0,95,0.08,,---,0.39,VWS V14.01,2013-12-21 20:22:00,
2013-12-21 15:23:00,35.9,34.6,29.78,NNE,25,5.0,9.0,95,0.08,,---,0.39,VWS V14.01,2013-12-21 20:23:00,
2013-12-21 15:24:00,35.9,34.6,29.78,NNE,28,3.0,9.0,95,0.08,,---,0.39,VWS V14.01,2013-12-21 20:24:00,
2013-12-21 15:25:00,36.0,34.7,29.78,NNE,30,3.0,9.0,95,0.08,,---,0.39,VWS V14.01,2013-12-21 20:25:00,
2013-12-21 15:26:00,35.9,34.6,29.78,NE,35,6.0,9.0,95,0.08,,---,0.39,VWS V14.01,2013-12-21 20:26:00,
2013-12-21 15:27:00,35.9,34.6,29.78,NE,38,5.0,9.0,95,0.08,,---,0.39,VWS V14.01,2013-12-21 20:27:00,
2013-12-21 15:28:00,35.9,34.6,29.77,NE,47,7.0,9.0,95,0.08,,---,0.39,VWS V14.01,2013-12-21 20:28:00,
2013-12-21 15:29:00,35.9,34.6,29.78,NNE,33,6.0,9.0,95,0.08,,---,0.39,VWS V14.01,2013-12-21 20:29:00,
2013-12-21 15:30:00,35.9,34.6,29.78,NE,45,6.0,9.0,95,0.08,,---,0.39,VWS V14.01,2013-12-21 20:30:00,
2013-12-21 15:31:00,35.9,34.6,29.78,NE,39,5.0,7.0,95,0.07,,---,0.40,VWS V14.01,2013-12-21 20:31:00,
2013-12-21 15:32:00,35.9,34.6,29.78,NE,39,5.0,7.0,95,0.07,,---,0.40,VWS V14.01,2013-12-21 20:32:00,
2013-12-21 15:33:00,35.8,34.5,29.78,NE,47,5.0,7.0,95,0.07,,---,0.40,VWS V14.01,2013-12-21 20:33:00,
2013-12-21 15:34:00,35.8,34.5,29.78,NNE,33,3.0,7.0,95,0.07,,---,0.40,VWS V14.01,2013-12-21 20:34:00,
2013-12-21 15:35:00,35.8,34.5,29.78,NNE,33,4.0,7.0,95,0.07,,---,0.40,VWS V14.01,2013-12-21 20:35:00,
2013-12-21 15:36:00,35.8,34.5,29.78,NE,35,3.0,7.0,95,0.07,,---,0.40,VWS V14.01,2013-12-21 20:36:00,
2013-12-21 15:37:00,35.8,34.5,29.78,NE,50,5.0,7.0,95,0.07,,---,0.40,VWS V14.01,2013-12-21 20:37:00,
2013-12-21 15:38:00,35.7,34.4,29.78,NE,56,5.0,7.0,95,0.07,,---,0.40,VWS V14.01,2013-12-21 20:38:00,
2013-12-21 15:39:00,35.7,34.4,29.78,ENE,57,5.0,7.0,95,0.07,,---,0.40,VWS V14.01,2013-12-21 20:39:00,
2013-12-21 15:40:00,35.7,34.4,29.78,ENE,58,4.0,7.0,95,0.07,,---,0.40,VWS V14.01,2013-12-21 20:40:00,
2013-12-21 15:41:00,35.7,34.4,29.78,ENE,70,5.0,7.0,95,0.07,,---,0.40,VWS V14.01,2013-12-21 20:41:00,
2013-12-21 15:42:00,35.7,34.4,29.78,ENE,65,5.0,7.0,95,0.08,,---,0.41,VWS V14.01,2013-12-21 20:42:00,
2013-12-21 15:43:00,35.7,34.4,29.78,ENE,63,4.0,7.0,95,0.08,,---,0.41,VWS V14.01,2013-12-21 20:43:00,
2013-12-21 15:44:00,35.7,34.4,29.78,ENE,66,7.0,7.0,95,0.08,,---,0.41,VWS V14.01,2013-12-21 20:44:00,
2013-12-21 15:45:00,35.7,34.4,29.78,ENE,66,5.0,7.0,95,0.08,,---,0.41,VWS V14.01,2013-12-21 20:45:00,
2013-12-21 15:46:00,35.7,34.4,29.78,ENE,60,5.0,8.0,95,0.08,,---,0.41,VWS V14.01,2013-12-21 20:46:00,
2013-12-21 15:47:00,35.7,34.4,29.77,ENE,62,5.0,8.0,95,0.08,,---,0.41,VWS V14.01,2013-12-21 20:47:00,
2013-12-21 15:48:00,35.7,34.4,29.77,ENE,68,9.0,9.0,95,0.08,,---,0.41,VWS V14.01,2013-12-21 20:48:00,
2013-12-21 15:49:00,35.7,34.4,29.77,ENE,70,10.0,10.0,95,0.09,,---,0.42,VWS V14.01,2013-12-21 20:49:00,
2013-12-21 15:50:00,35.7,34.4,29.77,ENE,61,8.0,10.0,95,0.09,,---,0.42,VWS V14.01,2013-12-21 20:50:00,
2013-12-21 15:51:00,35.7,34.4,29.77,ENE,61,10.0,10.0,95,0.09,,---,0.42,VWS V14.01,2013-12-21 20:51:00,
2013-12-21 15:52:00,35.7,34.4,29.77,ENE,57,9.0,10.0,95,0.09,,---,0.42,VWS V14.01,2013-12-21 20:52:00,
2013-12-21 15:53:00,35.7,34.4,29.77,ENE,73,9.0,10.0,95,0.09,,---,0.42,VWS V14.01,2013-12-21 20:53:00,
2013-12-21 15:54:00,35.7,34.4,29.76,ENE,76,8.0,10.0,95,0.09,,---,0.42,VWS V14.01,2013-12-21 20:54:00,
2013-12-21 15:55:00,35.7,34.4,29.76,ENE,73,8.0,10.0,95,0.09,,---,0.42,VWS V14.01,2013-12-21 20:55:00,
2013-12-21 15:56:00,35.7,34.4,29.76,East,81,6.0,10.0,95,0.09,,---,0.42,VWS V14.01,2013-12-21 20:56:00,
2013-12-21 15:57:00,35.7,34.4,29.76,East,88,8.0,10.0,95,0.09,,---,0.42,VWS V14.01,2013-12-21 20:57:00,
2013-12-21 15:58:00,35.7,34.4,29.76,ENE,68,9.0,10.0,95,0.09,,---,0.42,VWS V14.01,2013-12-21 20:58:00,
2013-12-21 15:59:00,35.7,34.4,29.76,ENE,72,9.0,10.0,95,0.09,,---,0.42,VWS V14.01,2013-12-21 20:59:00,
2013-12-21 16:00:00,35.7,34.4,29.76,ENE,58,10.0,11.0,95,0.09,,---,0.42,VWS V14.01,2013-12-21 21:00:00,
2013-12-21 16:01:00,35.7,34.4,29.76,ENE,60,11.0,12.0,95,0.07,,---,0.43,VWS V14.01,2013-12-21 21:01:00,
2013-12-21 16:02:00,35.7,34.4,29.76,ENE,66,9.0,12.0,95,0.07,,---,0.43,VWS V14.01,2013-12-21 21:02:00,
2013-12-21 16:03:00,35.8,34.5,29.76,ENE,73,11.0,12.0,95,0.07,,---,0.43,VWS V14.01,2013-12-21 21:03:00,
2013-12-21 16:04:00,35.7,34.4,29.76,ENE,70,10.0,12.0,95,0.07,,---,0.43,VWS V14.01,2013-12-21 21:04:00,
2013-12-21 16:05:00,35.8,34.5,29.76,ENE,73,8.0,12.0,95,0.07,,---,0.43,VWS V14.01,2013-12-21 21:05:00,
2013-12-21 16:06:00,35.8,34.5,29.76,ENE,72,8.0,12.0,95,0.07,,---,0.43,VWS V14.01,2013-12-21 21:06:00,
2013-12-21 16:07:00,35.7,34.4,29.76,ENE,77,8.0,12.0,95,0.07,,---,0.43,VWS V14.01,2013-12-21 21:07:00,
2013-12-21 16:08:00,35.7,34.4,29.75,East,81,7.0,12.0,95,0.07,,---,0.43,VWS V14.01,2013-12-21 21:08:00,
2013-12-21 16:09:00,35.7,34.4,29.75,East,85,8.0,12.0,95,0.07,,---,0.43,VWS V14.01,2013-12-21 21:09:00,
2013-12-21 16:10:00,35.7,34.4,29.75,East,84,9.0,12.0,95,0.07,,---,0.43,VWS V14.01,2013-12-21 21:10:00,
2013-12-21 16:11:00,35.7,34.4,29.75,East,86,9.0,12.0,95,0.07,,---,0.43,VWS V14.01,2013-12-21 21:11:00,
2013-12-21 16:12:00,35.7,34.4,29.75,East,82,10.0,12.0,95,0.08,,---,0.44,VWS V14.01,2013-12-21 21:12:00,
2013-12-21 16:13:00,35.6,34.3,29.75,ENE,68,10.0,12.0,95,0.08,,---,0.44,VWS V14.01,2013-12-21 21:13:00,
2013-12-21 16:14:00,35.6,34.3,29.75,ENE,75,9.0,13.0,95,0.08,,---,0.44,VWS V14.01,2013-12-21 21:14:00,
2013-12-21 16:15:00,35.7,34.4,29.75,East,86,7.0,13.0,95,0.08,,---,0.44,VWS V14.01,2013-12-21 21:15:00,
2013-12-21 16:16:00,35.6,34.3,29.75,ENE,69,11.0,13.0,95,0.08,,---,0.44,VWS V14.01,2013-12-21 21:16:00,
2013-12-21 16:17:00,35.6,34.3,29.75,ENE,67,10.0,13.0,95,0.08,,---,0.44,VWS V14.01,2013-12-21 21:17:00,
2013-12-21 16:18:00,35.7,34.4,29.75,East,79,8.0,13.0,95,0.08,,---,0.44,VWS V14.01,2013-12-21 21:18:00,
2013-12-21 16:19:00,35.7,34.4,29.75,East,85,9.0,13.0,95,0.08,,---,0.44,VWS V14.01,2013-12-21 21:19:00,
2013-12-21 16:20:00,35.7,34.4,29.75,East,86,9.0,13.0,95,0.08,,---,0.44,VWS V14.01,2013-12-21 21:20:00,
2013-12-21 16:21:00,35.7,34.4,29.75,ENE,62,8.0,13.0,95,0.08,,---,0.44,VWS V14.01,2013-12-21 21:21:00,
2013-12-21 16:22:00,35.7,34.4,29.75,East,80,6.0,13.0,95,0.08,,---,0.44,VWS V14.01,2013-12-21 21:22:00,
2013-12-21 16:23:00,35.7,34.4,29.75,East,98,8.0,13.0,95,0.08,,---,0.44,VWS V14.01,2013-12-21 21:23:00,
2013-12-21 16:24:00,35.7,34.7,29.75,East,89,9.0,13.0,96,0.08,,---,0.44,VWS V14.01,2013-12-21 21:24:00,
2013-12-21 16:25:00,35.7,34.4,29.75,East,81,9.0,13.0,95,0.08,,---,0.44,VWS V14.01,2013-12-21 21:25:00,
2013-12-21 16:26:00,35.7,34.4,29.75,East,83,8.0,13.0,95,0.08,,---,0.44,VWS V14.01,2013-12-21 21:26:00,
2013-12-21 16:27:00,35.7,34.4,29.74,East,85,8.0,13.0,95,0.08,,---,0.44,VWS V14.01,2013-12-21 21:27:00,
2013-12-21 16:28:00,35.7,34.4,29.75,East,83,8.0,13.0,95,0.08,,---,0.44,VWS V14.01,2013-12-21 21:28:00,
2013-12-21 16:29:00,35.7,34.4,29.74,East,93,7.0,13.0,95,0.08,,---,0.44,VWS V14.01,2013-12-21 21:29:00,
2013-12-21 16:30:00,35.7,34.4,29.74,East,89,11.0,13.0,95,0.08,,---,0.44,VWS V14.01,2013-12-21 21:30:00,
2013-12-21 16:31:00,35.7,34.4,29.74,ENE,77,10.0,13.0,95,0.05,,---,0.44,VWS V14.01,2013-12-21 21:31:00,
2013-12-21 16:32:00,35.6,34.3,29.74,ENE,76,13.0,14.0,95,0.06,,---,0.45,VWS V14.01,2013-12-21 21:32:00,
2013-12-21 16:33:00,35.7,34.4,29.73,ENE,73,13.0,15.0,95,0.06,,---,0.45,VWS V14.01,2013-12-21 21:33:00,
2013-12-21 16:34:00,35.7,34.4,29.73,ENE,73,12.0,15.0,95,0.06,,---,0.45,VWS V14.01,2013-12-21 21:34:00,
2013-12-21 16:35:00,35.6,34.3,29.73,East,87,13.0,15.0,95,0.06,,---,0.45,VWS V14.01,2013-12-21 21:35:00,
2013-12-21 16:36:00,35.6,34.3,29.73,ENE,77,11.0,15.0,95,0.06,,---,0.45,VWS V14.01,2013-12-21 21:36:00,
2013-12-21 16:37:00,35.6,34.3,29.73,East,85,7.0,15.0,95,0.06,,---,0.45,VWS V14.01,2013-12-21 21:37:00,
2013-12-21 16:38:00,35.6,34.3,29.73,ENE,70,10.0,15.0,95,0.06,,---,0.45,VWS V14.01,2013-12-21 21:38:00,
2013-12-21 16:39:00,35.6,34.6,29.74,East,91,7.0,15.0,96,0.06,,---,0.45,VWS V14.01,2013-12-21 21:39:00,
2013-12-21 16:40:00,35.6,34.3,29.74,East,89,8.0,15.0,95,0.06,,---,0.45,VWS V14.01,2013-12-21 21:40:00,
2013-12-21 16:41:00,35.6,34.3,29.74,East,84,7.0,15.0,95,0.06,,---,0.45,VWS V14.01,2013-12-21 21:41:00,
2013-12-21 16:42:00,35.6,34.3,29.74,East,93,7.0,15.0,95,0.06,,---,0.45,VWS V14.01,2013-12-21 21:42:00,
2013-12-21 16:43:00,35.6,34.6,29.74,East,97,5.0,15.0,96,0.06,,---,0.45,VWS V14.01,2013-12-21 21:43:00,
2013-12-21 16:44:00,35.7,34.4,29.74,East,100,8.0,15.0,95,0.06,,---,0.45,VWS V14.01,2013-12-21 21:44:00,
2013-12-21 16:45:00,35.6,34.3,29.74,ESE,110,7.0,15.0,95,0.06,,---,0.45,VWS V14.01,2013-12-21 21:45:00,
2013-12-21 16:46:00,35.7,34.4,29.74,ESE,103,4.0,15.0,95,0.06,,---,0.45,VWS V14.01,2013-12-21 21:46:00,
2013-12-21 16:47:00,35.6,34.3,29.74,East,95,5.0,15.0,95,0.06,,---,0.45,VWS V14.01,2013-12-21 21:47:00,
2013-12-21 16:48:00,35.7,34.4,29.74,East,91,8.0,15.0,95,0.06,,---,0.45,VWS V14.01,2013-12-21 21:48:00,
2013-12-21 16:49:00,35.7,34.4,29.74,East,86,6.0,15.0,95,0.06,,---,0.45,VWS V14.01,2013-12-21 21:49:00,
2013-12-21 16:50:00,35.7,34.4,29.74,East,85,6.0,15.0,95,0.06,,---,0.45,VWS V14.01,2013-12-21 21:50:00,
2013-12-21 16:51:00,35.7,34.4,29.74,East,98,6.0,15.0,95,0.06,,---,0.45,VWS V14.01,2013-12-21 21:51:00,
2013-12-21 16:52:00,35.7,34.4,29.74,East,89,9.0,15.0,95,0.07,,---,0.46,VWS V14.01,2013-12-21 21:52:00,
2013-12-21 16:53:00,35.7,34.7,29.74,East,85,10.0,15.0,96,0.07,,---,0.46,VWS V14.01,2013-12-21 21:53:00,
2013-12-21 16:54:00,35.7,34.4,29.74,ESE,102,7.0,15.0,95,0.07,,---,0.46,VWS V14.01,2013-12-21 21:54:00,
2013-12-21 16:55:00,35.8,34.8,29.74,ENE,76,5.0,15.0,96,0.07,,---,0.46,VWS V14.01,2013-12-21 21:55:00,
2013-12-21 16:56:00,35.8,34.8,29.74,East,89,7.0,15.0,96,0.07,,---,0.46,VWS V14.01,2013-12-21 21:56:00,
2013-12-21 16:57:00,35.7,34.7,29.74,East,83,7.0,15.0,96,0.07,,---,0.46,VWS V14.01,2013-12-21 21:57:00,
2013-12-21 16:58:00,35.8,34.5,29.73,East,83,7.0,15.0,95,0.07,,---,0.46,VWS V14.01,2013-12-21 21:58:00,
2013-12-21 16:59:00,35.8,34.5,29.74,East,88,7.0,15.0,95,0.07,,---,0.46,VWS V14.01,2013-12-21 21:59:00,
2013-12-21 17:00:00,35.8,34.5,29.74,East,88,9.0,15.0,95,0.07,,---,0.46,VWS V14.01,2013-12-21 22:00:00,
2013-12-21 17:01:00,35.8,34.5,29.74,East,99,9.0,11.0,95,0.04,,---,0.46,VWS V14.01,2013-12-21 22:01:00,
2013-12-21 17:02:00,35.8,34.5,29.74,ESE,103,8.0,11.0,95,0.04,,---,0.46,VWS V14.01,2013-12-21 22:02:00,
2013-12-21 17:03:00,35.8,34.5,29.73,ESE,103,7.0,11.0,95,0.04,,---,0.46,VWS V14.01,2013-12-21 22:03:00,
2013-12-21 17:04:00,35.8,34.5,29.73,East,93,8.0,11.0,95,0.04,,---,0.46,VWS V14.01,2013-12-21 22:04:00,
2013-12-21 17:05:00,35.8,34.8,29.73,East,100,8.0,11.0,96,0.04,,---,0.46,VWS V14.01,2013-12-21 22:05:00,
2013-12-21 17:06:00,35.9,34.9,29.73,East,95,8.0,11.0,96,0.04,,---,0.46,VWS V14.01,2013-12-21 22:06:00,
2013-12-21 17:07:00,35.8,34.8,29.74,East,89,7.0,11.0,96,0.04,,---,0.46,VWS V14.01,2013-12-21 22:07:00,
2013-12-21 17:08:00,35.8,34.5,29.74,East,79,7.0,11.0,95,0.04,,---,0.46,VWS V14.01,2013-12-21 22:08:00,
2013-12-21 17:09:00,35.9,34.6,29.73,ESE,103,7.0,11.0,95,0.04,,---,0.46,VWS V14.01,2013-12-21 22:09:00,
2013-12-21 17:10:00,35.9,34.6,29.73,East,88,7.0,11.0,95,0.04,,---,0.46,VWS V14.01,2013-12-21 22:10:00,
2013-12-21 17:11:00,35.9,34.6,29.73,ESE,112,8.0,11.0,95,0.04,,---,0.46,VWS V14.01,2013-12-21 22:11:00,
2013-12-21 17:12:00,35.9,34.6,29.74,East,97,7.0,11.0,95,0.04,,---,0.46,VWS V14.01,2013-12-21 22:12:00,
2013-12-21 17:13:00,35.9,34.6,29.74,East,89,8.0,11.0,95,0.05,,---,0.47,VWS V14.01,2013-12-21 22:13:00,
2013-12-21 17:14:00,35.9,34.6,29.74,ESE,103,4.0,11.0,95,0.05,,---,0.47,VWS V14.01,2013-12-21 22:14:00,
2013-12-21 17:15:00,35.9,34.6,29.74,ENE,73,4.0,11.0,95,0.05,,---,0.47,VWS V14.01,2013-12-21 22:15:00,
2013-12-21 17:16:00,35.9,34.6,29.75,ESE,112,7.0,11.0,95,0.05,,---,0.47,VWS V14.01,2013-12-21 22:16:00,
2013-12-21 17:17:00,35.9,34.6,29.75,ESE,102,8.0,11.0,95,0.05,,---,0.47,VWS V14.01,2013-12-21 22:17:00,
2013-12-21 17:18:00,36.0,34.7,29.74,East,95,9.0,11.0,95,0.05,,---,0.47,VWS V14.01,2013-12-21 22:18:00,
2013-12-21 17:19:00,35.9,34.6,29.74,East,84,7.0,11.0,95,0.05,,---,0.47,VWS V14.01,2013-12-21 22:19:00,
2013-12-21 17:20:00,36.0,35.0,29.74,ESE,108,4.0,11.0,96,0.05,,---,0.47,VWS V14.01,2013-12-21 22:20:00,
2013-12-21 17:21:00,36.0,35.0,29.74,East,82,6.0,11.0,96,0.05,,---,0.47,VWS V14.01,2013-12-21 22:21:00,
2013-12-21 17:22:00,35.9,34.9,29.74,East,94,6.0,11.0,96,0.05,,---,0.47,VWS V14.01,2013-12-21 22:22:00,
2013-12-21 17:23:00,35.9,34.9,29.74,East,101,9.0,11.0,96,0.05,,---,0.47,VWS V14.01,2013-12-21 22:23:00,
2013-12-21 17:24:00,35.9,34.6,29.74,East,93,10.0,15.0,95,0.05,,---,0.47,VWS V14.01,2013-12-21 22:24:00,
2013-12-21 17:25:00,35.9,34.6,29.74,East,81,9.0,15.0,95,0.06,,---,0.48,VWS V14.01,2013-12-21 22:25:00,
2013-12-21 17:26:00,36.0,34.7,29.74,East,97,8.0,15.0,95,0.06,,---,0.48,VWS V14.01,2013-12-21 22:26:00,
2013-12-21 17:27:00,36.0,34.7,29.74,East,87,8.0,15.0,95,0.06,,---,0.48,VWS V14.01,2013-12-21 22:27:00,
2013-12-21 17:28:00,36.0,34.7,29.74,ENE,76,10.0,15.0,95,0.06,,---,0.48,VWS V14.01,2013-12-21 22:28:00,
2013-12-21 17:29:00,36.0,34.7,29.74,East,96,6.0,15.0,95,0.06,,---,0.48,VWS V14.01,2013-12-21 22:29:00,
2013-12-21 17:30:00,36.0,34.7,29.74,ESE,108,7.0,15.0,95,0.06,,---,0.48,VWS V14.01,2013-12-21 22:30:00,
2013-12-21 17:31:00,36.0,34.7,29.74,ESE,107,8.0,11.0,95,0.04,,---,0.48,VWS V14.01,2013-12-21 22:31:00,
2013-12-21 17:32:00,36.0,34.7,29.74,East,93,8.0,11.0,95,0.04,,---,0.48,VWS V14.01,2013-12-21 22:32:00,
2013-12-21 17:33:00,36.0,34.7,29.74,East,99,8.0,11.0,95,0.04,,---,0.48,VWS V14.01,2013-12-21 22:33:00,
2013-12-21 17:34:00,36.0,34.7,29.74,East,95,7.0,13.0,95,0.04,,---,0.48,VWS V14.01,2013-12-21 22:34:00,
2013-12-21 17:35:00,35.9,34.6,29.74,East,99,9.0,13.0,95,0.04,,---,0.48,VWS V14.01,2013-12-21 22:35:00,
2013-12-21 17:36:00,36.0,34.7,29.74,East,87,5.0,13.0,95,0.05,,---,0.49,VWS V14.01,2013-12-21 22:36:00,
2013-12-21 17:37:00,36.0,34.7,29.75,East,81,3.0,13.0,95,0.05,,---,0.49,VWS V14.01,2013-12-21 22:37:00,
2013-12-21 17:38:00,35.9,34.6,29.75,ESE,107,5.0,13.0,95,0.05,,---,0.49,VWS V14.01,2013-12-21 22:38:00,
2013-12-21 17:39:00,35.9,34.6,29.75,ESE,118,5.0,13.0,95,0.05,,---,0.49,VWS V14.01,2013-12-21 22:39:00,
2013-12-21 17:40:00,35.9,34.6,29.75,East,100,11.0,13.0,95,0.05,,---,0.49,VWS V14.01,2013-12-21 22:40:00,
2013-12-21 17:41:00,36.0,34.7,29.74,East,97,6.0,13.0,95,0.05,,---,0.49,VWS V14.01,2013-12-21 22:41:00,
2013-12-21 17:42:00,36.0,34.7,29.74,ESE,104,8.0,13.0,95,0.05,,---,0.49,VWS V14.01,2013-12-21 22:42:00,
2013-12-21 17:43:00,35.9,34.6,29.74,ESE,112,11.0,13.0,95,0.05,,---,0.49,VWS V14.01,2013-12-21 22:43:00,
2013-12-21 17:44:00,35.9,34.6,29.74,ENE,76,8.0,14.0,95,0.05,,---,0.49,VWS V14.01,2013-12-21 22:44:00,
2013-12-21 17:45:00,35.9,34.6,29.74,ENE,68,5.0,14.0,95,0.05,,---,0.49,VWS V14.01,2013-12-21 22:45:00,
2013-12-21 17:46:00,35.9,34.6,29.74,East,81,9.0,14.0,95,0.06,,---,0.50,VWS V14.01,2013-12-21 22:46:00,
2013-12-21 17:47:00,35.9,34.6,29.75,East,93,8.0,14.0,95,0.06,,---,0.50,VWS V14.01,2013-12-21 22:47:00,
2013-12-21 17:48:00,35.9,34.6,29.75,ESE,104,7.0,14.0,95,0.06,,---,0.50,VWS V14.01,2013-12-21 22:48:00,
2013-12-21 17:49:00,35.9,34.6,29.75,ESE,116,8.0,14.0,95,0.06,,---,0.50,VWS V14.01,2013-12-21 22:49:00,
2013-12-21 17:50:00,35.9,34.6,29.75,ESE,119,8.0,14.0,95,0.06,,---,0.50,VWS V14.01,2013-12-21 22:50:00,
2013-12-21 17:51:00,35.9,34.6,29.74,ESE,102,12.0,14.0,95,0.06,,---,0.50,VWS V14.01,2013-12-21 22:51:00,
2013-12-21 17:52:00,35.9,34.6,29.74,East,87,10.0,14.0,95,0.06,,---,0.50,VWS V14.01,2013-12-21 22:52:00,
2013-12-21 17:53:00,35.9,34.6,29.75,ESE,105,9.0,15.0,95,0.06,,---,0.50,VWS V14.01,2013-12-21 22:53:00,
2013-12-21 17:54:00,35.9,34.6,29.75,ESE,112,11.0,15.0,95,0.06,,---,0.50,VWS V14.01,2013-12-21 22:54:00,
2013-12-21 17:55:00,35.9,34.6,29.75,ESE,104,5.0,15.0,95,0.07,,---,0.51,VWS V14.01,2013-12-21 22:55:00,
2013-12-21 17:56:00,35.9,34.6,29.75,ENE,68,9.0,15.0,95,0.07,,---,0.51,VWS V14.01,2013-12-21 22:56:00,
2013-12-21 17:57:00,35.8,34.5,29.74,East,85,11.0,15.0,95,0.07,,---,0.51,VWS V14.01,2013-12-21 22:57:00,
2013-12-21 17:58:00,35.8,34.5,29.74,East,82,13.0,15.0,95,0.07,,---,0.51,VWS V14.01,2013-12-21 22:58:00,
2013-12-21 17:59:00,35.8,34.5,29.74,ESE,108,11.0,15.0,95,0.07,,---,0.51,VWS V14.01,2013-12-21 22:59:00,
2013-12-21 18:00:00,35.8,34.5,29.74,East,100,10.0,15.0,95,0.07,,---,0.51,VWS V14.01,2013-12-21 23:00:00,
2013-12-21 18:01:00,35.8,34.5,29.74,East,97,10.0,14.0,95,0.05,,---,0.51,VWS V14.01,2013-12-21 23:01:00,
2013-12-21 18:02:00,35.7,34.4,29.74,East,87,10.0,14.0,95,0.05,,---,0.51,VWS V14.01,2013-12-21 23:02:00,
2013-12-21 18:03:00,35.7,34.4,29.74,East,95,13.0,14.0,95,0.06,,---,0.52,VWS V14.01,2013-12-21 23:03:00,
2013-12-21 18:04:00,35.7,34.4,29.74,ESE,111,8.0,15.0,95,0.06,,---,0.52,VWS V14.01,2013-12-21 23:04:00,
2013-12-21 18:05:00,35.7,34.4,29.75,East,87,6.0,15.0,95,0.06,,---,0.52,VWS V14.01,2013-12-21 23:05:00,
2013-12-21 18:06:00,35.7,34.4,29.75,East,97,6.0,15.0,95,0.06,,---,0.52,VWS V14.01,2013-12-21 23:06:00,
2013-12-21 18:07:00,35.7,34.4,29.75,East,86,5.0,15.0,95,0.06,,---,0.52,VWS V14.01,2013-12-21 23:07:00,
2013-12-21 18:08:00,35.7,34.4,29.75,ENE,78,9.0,15.0,95,0.06,,---,0.52,VWS V14.01,2013-12-21 23:08:00,
2013-12-21 18:09:00,35.7,34.4,29.75,East,94,7.0,15.0,95,0.06,,---,0.52,VWS V14.01,2013-12-21 23:09:00,
2013-12-21 18:10:00,35.7,34.4,29.75,ESE,112,5.0,15.0,95,0.07,,---,0.53,VWS V14.01,2013-12-21 23:10:00,
2013-12-21 18:11:00,35.7,34.4,29.75,East,91,10.0,15.0,95,0.07,,---,0.53,VWS V14.01,2013-12-21 23:11:00,
2013-12-21 18:12:00,35.7,34.4,29.75,East,97,9.0,15.0,95,0.07,,---,0.53,VWS V14.01,2013-12-21 23:12:00,
2013-12-21 18:13:00,35.7,34.4,29.75,East,93,11.0,15.0,95,0.07,,---,0.53,VWS V14.01,2013-12-21 23:13:00,
2013-12-21 18:14:00,35.6,34.3,29.75,East,91,9.0,15.0,95,0.08,,---,0.54,VWS V14.01,2013-12-21 23:14:00,
2013-12-21 18:15:00,35.6,34.3,29.75,East,90,8.0,15.0,95,0.08,,---,0.54,VWS V14.01,2013-12-21 23:15:00,
2013-12-21 18:16:00,35.6,34.3,29.75,East,83,7.0,15.0,95,0.08,,---,0.54,VWS V14.01,2013-12-21 23:16:00,
2013-12-21 18:17:00,35.6,34.3,29.75,East,90,6.0,15.0,95,0.08,,---,0.54,VWS V14.01,2013-12-21 23:17:00,
2013-12-21 18:18:00,35.6,34.3,29.75,East,85,8.0,15.0,95,0.09,,---,0.55,VWS V14.01,2013-12-21 23:18:00,
2013-12-21 18:19:00,35.6,34.3,29.75,East,87,10.0,15.0,95,0.09,,---,0.55,VWS V14.01,2013-12-21 23:19:00,
2013-12-21 18:20:00,35.6,34.3,29.75,East,85,10.0,15.0,95,0.09,,---,0.55,VWS V14.01,2013-12-21 23:20:00,
2013-12-21 18:21:00,35.6,34.3,29.75,East,87,7.0,15.0,95,0.09,,---,0.55,VWS V14.01,2013-12-21 23:21:00,
2013-12-21 18:22:00,35.6,34.3,29.75,East,92,8.0,15.0,95,0.10,,---,0.56,VWS V14.01,2013-12-21 23:22:00,
2013-12-21 18:23:00,35.5,34.2,29.75,East,93,10.0,15.0,95,0.10,,---,0.56,VWS V14.01,2013-12-21 23:23:00,
2013-12-21 18:24:00,35.6,34.3,29.75,East,94,9.0,15.0,95,0.10,,---,0.56,VWS V14.01,2013-12-21 23:24:00,
2013-12-21 18:25:00,35.5,34.2,29.75,East,84,10.0,15.0,95,0.10,,---,0.56,VWS V14.01,2013-12-21 23:25:00,
2013-12-21 18:26:00,35.5,34.2,29.75,ENE,75,8.0,15.0,95,0.10,,---,0.56,VWS V14.01,2013-12-21 23:26:00,
2013-12-21 18:27:00,35.5,34.2,29.75,ENE,78,10.0,15.0,95,0.10,,---,0.56,VWS V14.01,2013-12-21 23:27:00,
2013-12-21 18:28:00,35.5,34.2,29.75,East,87,8.0,15.0,95,0.10,,---,0.56,VWS V14.01,2013-12-21 23:28:00,
2013-12-21 18:29:00,35.5,34.2,29.75,East,89,8.0,15.0,95,0.11,,---,0.57,VWS V14.01,2013-12-21 23:29:00,
2013-12-21 18:30:00,35.5,34.2,29.75,East,85,10.0,15.0,95,0.11,,---,0.57,VWS V14.01,2013-12-21 23:30:00,
2013-12-21 18:31:00,35.5,34.2,29.75,East,91,10.0,10.0,95,0.09,,---,0.57,VWS V14.01,2013-12-21 23:31:00,
2013-12-21 18:32:00,35.5,34.2,29.75,East,84,10.0,10.0,95,0.09,,---,0.57,VWS V14.01,2013-12-21 23:32:00,
2013-12-21 18:33:00,35.5,34.2,29.75,ENE,73,10.0,11.0,95,0.09,,---,0.57,VWS V14.01,2013-12-21 23:33:00,
2013-12-21 18:34:00,35.5,34.2,29.75,ENE,77,7.0,11.0,95,0.09,,---,0.57,VWS V14.01,2013-12-21 23:34:00,
2013-12-21 18:35:00,35.4,34.1,29.75,East,83,11.0,14.0,95,0.10,,---,0.58,VWS V14.01,2013-12-21 23:35:00,
2013-12-21 18:36:00,35.5,34.2,29.75,East,83,9.0,14.0,95,0.10,,---,0.58,VWS V14.01,2013-12-21 23:36:00,
2013-12-21 18:37:00,35.5,34.2,29.75,ENE,75,10.0,14.0,95,0.10,,---,0.58,VWS V14.01,2013-12-21 23:37:00,
2013-12-21 18:38:00,35.4,34.1,29.74,ENE,69,11.0,14.0,95,0.10,,---,0.58,VWS V14.01,2013-12-21 23:38:00,
2013-12-21 18:39:00,35.4,34.1,29.74,East,84,13.0,15.0,95,0.10,,---,0.58,VWS V14.01,2013-12-21 23:39:00,
2013-12-21 18:40:00,35.4,34.1,29.75,East,79,11.0,15.0,95,0.10,,---,0.58,VWS V14.01,2013-12-21 23:40:00,
2013-12-21 18:41:00,35.4,34.1,29.74,ENE,75,10.0,15.0,95,0.11,,---,0.59,VWS V14.01,2013-12-21 23:41:00,
2013-12-21 18:42:00,35.4,34.1,29.75,East,83,9.0,15.0,95,0.11,,---,0.59,VWS V14.01,2013-12-21 23:42:00,
2013-12-21 18:43:00,35.3,34.0,29.75,ENE,71,10.0,15.0,95,0.11,,---,0.59,VWS V14.01,2013-12-21 23:43:00,
2013-12-21 18:44:00,35.3,34.0,29.75,East,79,9.0,15.0,95,0.11,,---,0.59,VWS V14.01,2013-12-21 23:44:00,
2013-12-21 18:45:00,35.3,34.0,29.75,ENE,77,9.0,15.0,95,0.11,,---,0.59,VWS V14.01,2013-12-21 23:45:00,
2013-12-21 18:46:00,35.3,34.0,29.74,ENE,68,12.0,15.0,95,0.12,,---,0.60,VWS V14.01,2013-12-21 23:46:00,
2013-12-21 18:47:00,35.3,34.0,29.74,ENE,73,11.0,15.0,95,0.12,,---,0.60,VWS V14.01,2013-12-21 23:47:00,
2013-12-21 18:48:00,35.3,34.0,29.74,ENE,58,11.0,15.0,95,0.12,,---,0.60,VWS V14.01,2013-12-21 23:48:00,
2013-12-21 18:49:00,35.3,34.0,29.74,ENE,76,10.0,15.0,95,0.12,,---,0.60,VWS V14.01,2013-12-21 23:49:00,
2013-12-21 18:50:00,35.3,34.0,29.74,ENE,73,8.0,15.0,95,0.12,,---,0.60,VWS V14.01,2013-12-21 23:50:00,
2013-12-21 18:51:00,35.2,33.9,29.74,ENE,77,13.0,15.0,95,0.13,,---,0.61,VWS V14.01,2013-12-21 23:51:00,
2013-12-21 18:52:00,35.2,33.9,29.74,East,87,11.0,15.0,95,0.13,,---,0.61,VWS V14.01,2013-12-21 23:52:00,
2013-12-21 18:53:00,35.2,33.9,29.74,East,79,11.0,15.0,95,0.13,,---,0.61,VWS V14.01,2013-12-21 23:53:00,
2013-12-21 18:54:00,35.2,33.9,29.75,East,86,9.0,15.0,95,0.14,,---,0.62,VWS V14.01,2013-12-21 23:54:00,
2013-12-21 18:55:00,35.2,33.9,29.75,East,89,11.0,16.0,95,0.14,,---,0.62,VWS V14.01,2013-12-21 23:55:00,
2013-12-21 18:56:00,35.2,33.9,29.74,East,91,15.0,16.0,95,0.14,,---,0.62,VWS V14.01,2013-12-21 23:56:00,
2013-12-21 18:57:00,35.2,33.9,29.74,East,79,13.0,17.0,95,0.14,,---,0.62,VWS V14.01,2013-12-21 23:57:00,
2013-12-21 18:58:00,35.2,33.9,29.74,ENE,77,9.0,17.0,95,0.15,,---,0.63,VWS V14.01,2013-12-21 23:58:00,
2013-12-21 18:59:00,35.2,33.9,29.74,ENE,74,9.0,17.0,95,0.15,,---,0.63,VWS V14.01,2013-12-21 23:59:00,
2013-12-21 19:00:00,35.2,33.9,29.74,East,93,13.0,17.0,95,0.15,,---,0.63,VWS V14.01,2013-12-22 00:00:00,
2013-12-21 19:01:00,35.2,33.9,29.74,East,85,13.0,14.0,95,0.13,,---,0.64,VWS V14.01,2013-12-22 00:01:00,
2013-12-21 19:02:00,35.2,33.9,29.74,ENE,64,13.0,14.0,95,0.13,,---,0.64,VWS V14.01,2013-12-22 00:02:00,
2013-12-21 19:03:00,35.2,33.9,29.74,ENE,70,14.0,18.0,95,0.13,,---,0.64,VWS V14.01,2013-12-22 00:03:00,
2013-12-21 19:04:00,35.2,33.9,29.73,NE,54,14.0,18.0,95,0.13,,---,0.64,VWS V14.01,2013-12-22 00:04:00,
2013-12-21 19:05:00,35.2,33.9,29.73,NE,54,14.0,18.0,95,0.13,,---,0.64,VWS V14.01,2013-12-22 00:05:00,
2013-12-21 19:06:00,35.2,33.9,29.73,ENE,58,15.0,18.0,95,0.13,,---,0.64,VWS V14.01,2013-12-22 00:06:00,
2013-12-21 19:07:00,35.1,33.8,29.73,ENE,58,13.0,18.0,95,0.14,,---,0.65,VWS V14.01,2013-12-22 00:07:00,
2013-12-21 19:08:00,35.1,33.8,29.73,ENE,58,12.0,18.0,95,0.14,,---,0.65,VWS V14.01,2013-12-22 00:08:00,
2013-12-21 19:09:00,35.1,33.8,29.73,ENE,60,13.0,18.0,95,0.14,,---,0.65,VWS V14.01,2013-12-22 00:09:00,
2013-12-21 19:10:00,35.1,33.8,29.73,East,79,13.0,18.0,95,0.14,,---,0.65,VWS V14.01,2013-12-22 00:10:00,
2013-12-21 19:11:00,35.1,33.8,29.73,East,81,10.0,18.0,95,0.14,,---,0.65,VWS V14.01,2013-12-22 00:11:00,
2013-12-21 19:12:00,35.1,33.8,29.74,East,94,10.0,18.0,95,0.15,,---,0.66,VWS V14.01,2013-12-22 00:12:00,
2013-12-21 19:13:00,35.1,33.8,29.74,East,89,14.0,18.0,95,0.15,,---,0.66,VWS V14.01,2013-12-22 00:13:00,
2013-12-21 19:14:00,35.1,33.8,29.74,East,95,9.0,18.0,95,0.15,,---,0.66,VWS V14.01,2013-12-22 00:14:00,
2013-12-21 19:15:00,35.1,33.8,29.74,East,88,9.0,18.0,95,0.15,,---,0.66,VWS V14.01,2013-12-22 00:15:00,
2013-12-21 19:16:00,35.1,33.8,29.75,East,79,13.0,18.0,95,0.15,,---,0.66,VWS V14.01,2013-12-22 00:16:00,
2013-12-21 19:17:00,35.1,33.8,29.75,East,95,9.0,18.0,95,0.16,,---,0.67,VWS V14.01,2013-12-22 00:17:00,
2013-12-21 19:18:00,35.1,33.8,29.75,East,98,7.0,18.0,95,0.16,,---,0.67,VWS V14.01,2013-12-22 00:18:00,
2013-12-21 19:19:00,35.1,33.8,29.75,East,83,9.0,18.0,95,0.16,,---,0.67,VWS V14.01,2013-12-22 00:19:00,
2013-12-21 19:20:00,35.2,33.9,29.75,ESE,104,9.0,18.0,95,0.16,,---,0.67,VWS V14.01,2013-12-22 00:20:00,
2013-12-21 19:21:00,35.1,33.8,29.75,East,83,10.0,18.0,95,0.17,,---,0.68,VWS V14.01,2013-12-22 00:21:00,
2013-12-21 19:22:00,35.1,33.8,29.75,ENE,72,11.0,18.0,95,0.17,,---,0.68,VWS V14.01,2013-12-22 00:22:00,
2013-12-21 19:23:00,35.1,33.8,29.75,ENE,59,9.0,18.0,95,0.17,,---,0.68,VWS V14.01,2013-12-22 00:23:00,
2013-12-21 19:24:00,35.1,33.8,29.75,ENE,67,10.0,18.0,95,0.18,,---,0.69,VWS V14.01,2013-12-22 00:24:00,
2013-12-21 19:25:00,35.1,33.8,29.75,ENE,71,12.0,18.0,95,0.18,,---,0.69,VWS V14.01,2013-12-22 00:25:00,
2013-12-21 19:26:00,35.1,33.8,29.75,ENE,70,11.0,18.0,95,0.18,,---,0.69,VWS V14.01,2013-12-22 00:26:00,
2013-12-21 19:27:00,35.1,33.8,29.75,ENE,77,10.0,18.0,95,0.19,,---,0.70,VWS V14.01,2013-12-22 00:27:00,
2013-12-21 19:28:00,35.1,33.8,29.75,East,79,10.0,18.0,95,0.19,,---,0.70,VWS V14.01,2013-12-22 00:28:00,
2013-12-21 19:29:00,35.1,33.8,29.75,ENE,76,10.0,18.0,95,0.19,,---,0.70,VWS V14.01,2013-12-22 00:29:00,
2013-12-21 19:30:00,35.1,33.8,29.74,ENE,77,10.0,18.0,95,0.19,,---,0.70,VWS V14.01,2013-12-22 00:30:00,
2013-12-21 19:31:00,35.1,33.8,29.74,East,79,14.0,14.0,95,0.13,,---,0.70,VWS V14.01,2013-12-22 00:31:00,
2013-12-21 19:32:00,35.0,33.7,29.73,ENE,70,11.0,16.0,95,0.14,,---,0.71,VWS V14.01,2013-12-22 00:32:00,
2013-12-21 19:33:00,35.0,33.7,29.74,ENE,77,13.0,16.0,95,0.14,,---,0.71,VWS V14.01,2013-12-22 00:33:00,
2013-12-21 19:34:00,35.0,33.7,29.73,NE,56,15.0,19.0,95,0.14,,---,0.71,VWS V14.01,2013-12-22 00:34:00,
2013-12-21 19:35:00,35.0,33.7,29.73,ENE,62,17.0,19.0,95,0.14,,---,0.71,VWS V14.01,2013-12-22 00:35:00,
2013-12-21 19:36:00,35.0,33.7,29.73,ENE,68,13.0,19.0,95,0.14,,---,0.71,VWS V14.01,2013-12-22 00:36:00,
2013-12-21 19:37:00,35.0,33.7,29.73,ENE,58,13.0,19.0,95,0.15,,---,0.72,VWS V14.01,2013-12-22 00:37:00,
2013-12-21 19:38:00,35.0,33.7,29.73,NE,47,15.0,19.0,95,0.15,,---,0.72,VWS V14.01,2013-12-22 00:38:00,
2013-12-21 19:39:00,35.0,33.7,29.74,NE,37,11.0,19.0,95,0.15,,---,0.72,VWS V14.01,2013-12-22 00:39:00,
2013-12-21 19:40:00,35.0,33.7,29.74,NE,44,12.0,19.0,95,0.15,,---,0.72,VWS V14.01,2013-12-22 00:40:00,
2013-12-21 19:41:00,35.0,33.7,29.74,NE,43,12.0,19.0,95,0.15,,---,0.72,VWS V14.01,2013-12-22 00:41:00,
2013-12-21 19:42:00,35.0,33.7,29.74,NE,39,11.0,19.0,95,0.15,,---,0.72,VWS V14.01,2013-12-22 00:42:00,
2013-12-21 19:43:00,35.0,33.7,29.74,NE,42,12.0,19.0,95,0.15,,---,0.72,VWS V14.01,2013-12-22 00:43:00,
2013-12-21 19:44:00,35.0,33.7,29.74,ENE,60,15.0,19.0,95,0.15,,---,0.72,VWS V14.01,2013-12-22 00:44:00,
2013-12-21 19:45:00,35.0,33.7,29.73,ENE,71,15.0,19.0,95,0.15,,---,0.72,VWS V14.01,2013-12-22 00:45:00,
2013-12-21 19:46:00,35.0,33.7,29.73,ENE,73,18.0,19.0,95,0.15,,---,0.72,VWS V14.01,2013-12-22 00:46:00,
2013-12-21 19:47:00,35.0,33.7,29.73,ENE,75,12.0,19.0,95,0.16,,---,0.73,VWS V14.01,2013-12-22 00:47:00,
2013-12-21 19:48:00,35.0,33.7,29.73,East,87,10.0,19.0,95,0.16,,---,0.73,VWS V14.01,2013-12-22 00:48:00,
2013-12-21 19:49:00,34.9,33.6,29.73,East,84,14.0,19.0,95,0.16,,---,0.73,VWS V14.01,2013-12-22 00:49:00,
2013-12-21 19:50:00,34.9,33.6,29.73,East,79,15.0,19.0,95,0.17,,---,0.74,VWS V14.01,2013-12-22 00:50:00,
2013-12-21 19:51:00,34.9,33.6,29.73,ENE,75,11.0,19.0,95,0.17,,---,0.74,VWS V14.01,2013-12-22 00:51:00,
2013-12-21 19:52:00,35.0,33.7,29.73,East,81,13.0,19.0,95,0.17,,---,0.74,VWS V14.01,2013-12-22 00:52:00,
2013-12-21 19:53:00,34.9,33.6,29.73,ENE,77,10.0,19.0,95,0.17,,---,0.74,VWS V14.01,2013-12-22 00:53:00,
2013-12-21 19:54:00,34.9,33.6,29.73,ENE,62,10.0,19.0,95,0.18,,---,0.75,VWS V14.01,2013-12-22 00:54:00,
2013-12-21 19:55:00,34.9,33.6,29.73,ENE,68,13.0,19.0,95,0.18,,---,0.75,VWS V14.01,2013-12-22 00:55:00,
2013-12-21 19:56:00,34.9,33.6,29.73,East,85,14.0,19.0,95,0.18,,---,0.75,VWS V14.01,2013-12-22 00:56:00,
2013-12-21 19:57:00,34.9,33.6,29.73,East,84,10.0,19.0,95,0.19,,---,0.76,VWS V14.01,2013-12-22 00:57:00,
2013-12-21 19:58:00,34.9,33.6,29.73,ENE,70,9.0,19.0,95,0.19,,---,0.76,VWS V14.01,2013-12-22 00:58:00,
2013-12-21 19:59:00,34.9,33.6,29.72,East,79,15.0,19.0,95,0.19,,---,0.76,VWS V14.01,2013-12-22 00:59:00,
2013-12-21 20:00:00,34.8,33.5,29.72,ENE,78,13.0,19.0,95,0.19,,---,0.76,VWS V14.01,2013-12-22 01:00:00,
2013-12-21 20:01:00,34.8,33.5,29.72,ENE,68,14.0,17.0,95,0.14,,---,0.77,VWS V14.01,2013-12-22 01:01:00,
2013-12-21 20:02:00,34.8,33.5,29.72,ENE,64,14.0,17.0,95,0.14,,---,0.77,VWS V14.01,2013-12-22 01:02:00,
2013-12-21 20:03:00,34.8,33.5,29.73,ENE,59,12.0,17.0,95,0.14,,---,0.77,VWS V14.01,2013-12-22 01:03:00,
2013-12-21 20:04:00,34.8,33.5,29.73,NE,42,10.0,17.0,95,0.14,,---,0.77,VWS V14.01,2013-12-22 01:04:00,
2013-12-21 20:05:00,34.8,33.5,29.73,ENE,66,16.0,18.0,95,0.14,,---,0.77,VWS V14.01,2013-12-22 01:05:00,
2013-12-21 20:06:00,34.8,33.5,29.72,ENE,66,12.0,18.0,95,0.15,,---,0.78,VWS V14.01,2013-12-22 01:06:00,
2013-12-21 20:07:00,34.8,33.5,29.73,ENE,61,10.0,18.0,95,0.15,,---,0.78,VWS V14.01,2013-12-22 01:07:00,
2013-12-21 20:08:00,34.8,33.5,29.73,ENE,74,12.0,18.0,95,0.15,,---,0.78,VWS V14.01,2013-12-22 01:08:00,
2013-12-21 20:09:00,34.8,33.5,29.73,ENE,58,13.0,18.0,95,0.15,,---,0.78,VWS V14.01,2013-12-22 01:09:00,
2013-12-21 20:10:00,34.8,33.5,29.73,NE,52,12.0,18.0,95,0.16,,---,0.79,VWS V14.01,2013-12-22 01:10:00,
2013-12-21 20:11:00,34.8,33.5,29.72,ENE,67,17.0,18.0,95,0.16,,---,0.79,VWS V14.01,2013-12-22 01:11:00,
2013-12-21 20:12:00,34.8,33.5,29.71,ENE,77,18.0,19.0,95,0.16,,---,0.79,VWS V14.01,2013-12-22 01:12:00,
2013-12-21 20:13:00,34.8,33.5,29.70,East,89,19.0,21.0,95,0.17,,---,0.80,VWS V14.01,2013-12-22 01:13:00,
2013-12-21 20:14:00,34.7,33.4,29.69,East,80,20.0,24.0,95,0.17,,---,0.80,VWS V14.01,2013-12-22 01:14:00,
2013-12-21 20:15:00,34.7,33.4,29.69,East,88,15.0,24.0,95,0.17,,---,0.80,VWS V14.01,2013-12-22 01:15:00,
2013-12-21 20:16:00,34.7,33.4,29.69,East,96,18.0,24.0,95,0.18,,---,0.81,VWS V14.01,2013-12-22 01:16:00,
2013-12-21 20:17:00,34.7,33.4,29.69,ENE,72,14.0,24.0,95,0.18,,---,0.81,VWS V14.01,2013-12-22 01:17:00,
2013-12-21 20:18:00,34.7,33.4,29.69,East,79,15.0,24.0,95,0.18,,---,0.81,VWS V14.01,2013-12-22 01:18:00,
2013-12-21 20:19:00,34.7,33.4,29.70,East,80,17.0,24.0,95,0.18,,---,0.81,VWS V14.01,2013-12-22 01:19:00,
2013-12-21 20:20:00,34.7,33.4,29.70,ENE,72,18.0,24.0,95,0.18,,---,0.81,VWS V14.01,2013-12-22 01:20:00,
2013-12-21 20:21:00,34.7,33.4,29.70,East,82,15.0,24.0,95,0.19,,---,0.82,VWS V14.01,2013-12-22 01:21:00,
2013-12-21 20:22:00,34.7,33.4,29.69,East,89,13.0,24.0,95,0.19,,---,0.82,VWS V14.01,2013-12-22 01:22:00,
2013-12-21 20:23:00,34.7,33.4,29.69,ENE,77,15.0,24.0,95,0.19,,---,0.82,VWS V14.01,2013-12-22 01:23:00,
2013-12-21 20:24:00,34.7,33.4,29.69,East,86,14.0,24.0,95,0.19,,---,0.82,VWS V14.01,2013-12-22 01:24:00,
2013-12-21 20:25:00,34.7,33.4,29.70,East,83,14.0,24.0,95,0.19,,---,0.82,VWS V14.01,2013-12-22 01:25:00,
2013-12-21 20:26:00,34.6,33.3,29.69,East,97,16.0,24.0,95,0.19,,---,0.82,VWS V14.01,2013-12-22 01:26:00,
2013-12-21 20:27:00,34.6,33.3,29.69,ENE,71,18.0,24.0,95,0.19,,---,0.82,VWS V14.01,2013-12-22 01:27:00,
2013-12-21 20:28:00,34.7,33.4,29.68,East,87,16.0,24.0,95,0.20,,---,0.83,VWS V14.01,2013-12-22 01:28:00,
2013-12-21 20:29:00,34.7,33.4,29.68,ENE,77,16.0,24.0,95,0.20,,---,0.83,VWS V14.01,2013-12-22 01:29:00,
2013-12-21 20:30:00,34.7,33.4,29.68,ENE,75,12.0,24.0,95,0.20,,---,0.83,VWS V14.01,2013-12-22 01:30:00,
2013-12-21 20:31:00,34.6,33.3,29.68,ENE,77,18.0,19.0,95,0.13,,---,0.83,VWS V14.01,2013-12-22 01:31:00,
2013-12-21 20:32:00,34.6,33.3,29.68,East,82,22.0,22.0,95,0.13,,---,0.83,VWS V14.01,2013-12-22 01:32:00,
2013-12-21 20:33:00,34.7,33.4,29.68,East,88,21.0,22.0,95,0.13,,---,0.83,VWS V14.01,2013-12-22 01:33:00,
2013-12-21 20:34:00,34.7,33.4,29.68,East,94,11.0,22.0,95,0.13,,---,0.83,VWS V14.01,2013-12-22 01:34:00,
2013-12-21 20:35:00,34.7,33.4,29.68,SE,134,17.0,22.0,95,0.14,,---,0.84,VWS V14.01,2013-12-22 01:35:00,
2013-12-21 20:36:00,34.7,33.4,29.67,ENE,74,11.0,22.0,95,0.14,,---,0.84,VWS V14.01,2013-12-22 01:36:00,
2013-12-21 20:37:00,34.7,33.4,29.67,East,83,19.0,22.0,95,0.14,,---,0.84,VWS V14.01,2013-12-22 01:37:00,
2013-12-21 20:38:00,34.7,33.4,29.67,East,80,20.0,22.0,95,0.14,,---,0.84,VWS V14.01,2013-12-22 01:38:00,
2013-12-21 20:39:00,34.7,33.4,29.67,East,84,16.0,24.0,95,0.14,,---,0.84,VWS V14.01,2013-12-22 01:39:00,
2013-12-21 20:40:00,34.7,33.4,29.67,East,90,15.0,24.0,95,0.14,,---,0.84,VWS V14.01,2013-12-22 01:40:00,
2013-12-21 20:41:00,34.7,33.4,29.67,ESE,112,15.0,24.0,95,0.14,,---,0.84,VWS V14.01,2013-12-22 01:41:00,
2013-12-21 20:42:00,34.7,33.4,29.67,East,82,13.0,24.0,95,0.14,,---,0.84,VWS V14.01,2013-12-22 01:42:00,
2013-12-21 20:43:00,34.7,33.4,29.67,ENE,77,10.0,24.0,95,0.14,,---,0.84,VWS V14.01,2013-12-22 01:43:00,
2013-12-21 20:44:00,34.7,33.4,29.67,East,93,22.0,24.0,95,0.15,,---,0.85,VWS V14.01,2013-12-22 01:44:00,
2013-12-21 20:45:00,34.7,33.4,29.67,East,97,10.0,24.0,95,0.15,,---,0.85,VWS V14.01,2013-12-22 01:45:00,
2013-12-21 20:46:00,34.7,33.4,29.67,ESE,102,16.0,24.0,95,0.15,,---,0.85,VWS V14.01,2013-12-22 01:46:00,
2013-12-21 20:47:00,34.7,33.4,29.67,East,95,17.0,24.0,95,0.15,,---,0.85,VWS V14.01,2013-12-22 01:47:00,
2013-12-21 20:48:00,34.7,33.4,29.67,East,81,13.0,24.0,95,0.15,,---,0.85,VWS V14.01,2013-12-22 01:48:00,
2013-12-21 20:49:00,34.7,33.4,29.67,East,97,11.0,24.0,95,0.16,,---,0.86,VWS V14.01,2013-12-22 01:49:00,
2013-12-21 20:50:00,34.7,33.4,29.67,East,82,14.0,24.0,95,0.16,,---,0.86,VWS V14.01,2013-12-22 01:50:00,
2013-12-21 20:51:00,34.7,33.4,29.67,East,97,14.0,24.0,95,0.16,,---,0.86,VWS V14.01,2013-12-22 01:51:00,
2013-12-21 20:52:00,34.7,33.4,29.67,East,84,16.0,24.0,95,0.16,,---,0.86,VWS V14.01,2013-12-22 01:52:00,
2013-12-21 20:53:00,34.7,33.4,29.67,East,83,13.0,24.0,95,0.16,,---,0.86,VWS V14.01,2013-12-22 01:53:00,
2013-12-21 20:54:00,34.8,33.5,29.67,East,81,15.0,24.0,95,0.16,,---,0.86,VWS V14.01,2013-12-22 01:54:00,
2013-12-21 20:55:00,34.7,33.4,29.66,East,85,17.0,24.0,95,0.17,,---,0.87,VWS V14.01,2013-12-22 01:55:00,
2013-12-21 20:56:00,34.7,33.4,29.66,ENE,76,15.0,24.0,95,0.17,,---,0.87,VWS V14.01,2013-12-22 01:56:00,
2013-12-21 20:57:00,34.7,33.4,29.66,ENE,75,13.0,24.0,95,0.17,,---,0.87,VWS V14.01,2013-12-22 01:57:00,
2013-12-21 20:58:00,34.7,33.4,29.66,East,83,11.0,24.0,95,0.17,,---,0.87,VWS V14.01,2013-12-22 01:58:00,
2013-12-21 20:59:00,34.7,33.4,29.65,East,79,13.0,24.0,95,0.17,,---,0.87,VWS V14.01,2013-12-22 01:59:00,
2013-12-21 21:00:00,34.7,33.4,29.65,East,96,19.0,30.0,95,0.17,,---,0.87,VWS V14.01,2013-12-22 02:00:00,
2013-12-21 21:01:00,34.7,33.4,29.65,ENE,77,23.0,28.0,95,0.12,,---,0.88,VWS V14.01,2013-12-22 02:01:00,
2013-12-21 21:02:00,34.8,33.5,29.65,East,83,18.0,28.0,95,0.12,,---,0.88,VWS V14.01,2013-12-22 02:02:00,
2013-12-21 21:03:00,34.8,33.5,29.65,East,100,17.0,28.0,95,0.12,,---,0.88,VWS V14.01,2013-12-22 02:03:00,
2013-12-21 21:04:00,34.8,33.5,29.64,East,81,17.0,28.0,95,0.12,,---,0.88,VWS V14.01,2013-12-22 02:04:00,
2013-12-21 21:05:00,34.8,33.5,29.65,East,87,19.0,28.0,95,0.12,,---,0.88,VWS V14.01,2013-12-22 02:05:00,
2013-12-21 21:06:00,34.8,33.5,29.64,East,85,23.0,28.0,95,0.12,,---,0.88,VWS V14.01,2013-12-22 02:06:00,
2013-12-21 21:07:00,34.8,33.5,29.64,East,81,15.0,28.0,95,0.12,,---,0.88,VWS V14.01,2013-12-22 02:07:00,
2013-12-21 21:08:00,34.8,33.2,29.64,East,93,17.0,28.0,94,0.12,,---,0.88,VWS V14.01,2013-12-22 02:08:00,
2013-12-21 21:09:00,34.8,33.2,29.63,East,87,16.0,28.0,94,0.12,,---,0.88,VWS V14.01,2013-12-22 02:09:00,
2013-12-21 21:10:00,34.8,33.2,29.63,ENE,70,13.0,28.0,94,0.12,,---,0.88,VWS V14.01,2013-12-22 02:10:00,
2013-12-21 21:11:00,34.8,33.2,29.64,East,89,14.0,28.0,94,0.13,,---,0.89,VWS V14.01,2013-12-22 02:11:00,
2013-12-21 21:12:00,34.8,33.2,29.63,East,80,10.0,28.0,94,0.13,,---,0.89,VWS V14.01,2013-12-22 02:12:00,
2013-12-21 21:13:00,34.8,33.2,29.64,NE,56,10.0,28.0,94,0.13,,---,0.89,VWS V14.01,2013-12-22 02:13:00,
2013-12-21 21:14:00,34.8,33.2,29.64,ENE,68,7.0,28.0,94,0.13,,---,0.89,VWS V14.01,2013-12-22 02:14:00,
2013-12-21 21:15:00,34.8,33.2,29.64,ENE,68,11.0,28.0,94,0.13,,---,0.89,VWS V14.01,2013-12-22 02:15:00,
2013-12-21 21:16:00,34.8,33.2,29.64,NE,50,11.0,28.0,94,0.13,,---,0.89,VWS V14.01,2013-12-22 02:16:00,
2013-12-21 21:17:00,34.8,33.2,29.65,NE,45,11.0,28.0,94,0.13,,---,0.89,VWS V14.01,2013-12-22 02:17:00,
2013-12-21 21:18:00,34.8,33.2,29.65,NE,46,14.0,28.0,94,0.14,,---,0.90,VWS V14.01,2013-12-22 02:18:00,
2013-12-21 21:19:00,34.8,33.2,29.64,NE,55,17.0,28.0,94,0.14,,---,0.90,VWS V14.01,2013-12-22 02:19:00,
2013-12-21 21:20:00,34.8,33.2,29.63,ENE,73,29.0,29.0,94,0.14,,---,0.90,VWS V14.01,2013-12-22 02:20:00,
2013-12-21 21:21:00,34.8,33.2,29.63,ENE,72,23.0,29.0,94,0.14,,---,0.90,VWS V14.01,2013-12-22 02:21:00,
2013-12-21 21:22:00,34.8,33.2,29.62,East,83,29.0,34.0,94,0.14,,---,0.90,VWS V14.01,2013-12-22 02:22:00,
2013-12-21 21:23:00,34.8,33.2,29.61,ENE,69,26.0,34.0,94,0.14,,---,0.90,VWS V14.01,2013-12-22 02:23:00,
2013-12-21 21:24:00,34.8,33.2,29.60,East,79,23.0,34.0,94,0.15,,---,0.91,VWS V14.01,2013-12-22 02:24:00,
2013-12-21 21:25:00,34.8,33.2,29.61,ENE,66,29.0,34.0,94,0.15,,---,0.91,VWS V14.01,2013-12-22 02:25:00,
2013-12-21 21:26:00,34.8,33.2,29.61,ENE,69,19.0,34.0,94,0.15,,---,0.91,VWS V14.01,2013-12-22 02:26:00,
2013-12-21 21:27:00,34.8,33.2,29.61,ENE,76,17.0,34.0,94,0.15,,---,0.91,VWS V14.01,2013-12-22 02:27:00,
2013-12-21 21:28:00,34.8,33.2,29.62,ENE,63,23.0,34.0,94,0.16,,---,0.92,VWS V14.01,2013-12-22 02:28:00,
2013-12-21 21:29:00,34.8,33.2,29.62,East,79,20.0,34.0,94,0.16,,---,0.92,VWS V14.01,2013-12-22 02:29:00,
2013-12-21 21:30:00,34.8,33.2,29.63,East,87,18.0,34.0,94,0.16,,---,0.92,VWS V14.01,2013-12-22 02:30:00,
2013-12-21 21:31:00,34.9,33.3,29.63,ENE,70,13.0,17.0,94,0.09,,---,0.92,VWS V14.01,2013-12-22 02:31:00,
2013-12-21 21:32:00,34.9,33.3,29.64,East,101,13.0,17.0,94,0.09,,---,0.92,VWS V14.01,2013-12-22 02:32:00,
2013-12-21 21:33:00,34.9,33.3,29.64,East,97,20.0,21.0,94,0.09,,---,0.92,VWS V14.01,2013-12-22 02:33:00,
2013-12-21 21:34:00,35.0,33.5,29.64,East,89,16.0,21.0,94,0.09,,---,0.92,VWS V14.01,2013-12-22 02:34:00,
2013-12-21 21:35:00,34.9,33.3,29.63,ESE,110,13.0,21.0,94,0.09,,---,0.92,VWS V14.01,2013-12-22 02:35:00,
2013-12-21 21:36:00,34.9,33.3,29.63,East,89,10.0,21.0,94,0.09,,---,0.92,VWS V14.01,2013-12-22 02:36:00,
2013-12-21 21:37:00,34.9,33.3,29.63,ENE,76,16.0,21.0,94,0.09,,---,0.92,VWS V14.01,2013-12-22 02:37:00,
2013-12-21 21:38:00,34.9,33.3,29.63,ENE,64,16.0,21.0,94,0.09,,---,0.92,VWS V14.01,2013-12-22 02:38:00,
2013-12-21 21:39:00,34.9,33.3,29.63,ENE,74,17.0,21.0,94,0.10,,---,0.93,VWS V14.01,2013-12-22 02:39:00,
2013-12-21 21:40:00,34.9,33.3,29.63,ENE,78,15.0,21.0,94,0.10,,---,0.93,VWS V14.01,2013-12-22 02:40:00,
2013-12-21 21:41:00,34.9,33.3,29.63,East,81,15.0,21.0,94,0.10,,---,0.93,VWS V14.01,2013-12-22 02:41:00,
2013-12-21 21:42:00,34.8,33.2,29.63,East,87,23.0,23.0,94,0.10,,---,0.93,VWS V14.01,2013-12-22 02:42:00,
2013-12-21 21:43:00,34.8,33.2,29.63,East,91,15.0,25.0,94,0.11,,---,0.94,VWS V14.01,2013-12-22 02:43:00,
2013-12-21 21:44:00,34.9,33.3,29.64,ENE,71,15.0,25.0,94,0.11,,---,0.94,VWS V14.01,2013-12-22 02:44:00,
2013-12-21 21:45:00,34.9,33.3,29.64,ENE,66,15.0,25.0,94,0.11,,---,0.94,VWS V14.01,2013-12-22 02:45:00,
2013-12-21 21:46:00,34.9,33.3,29.64,ENE,74,21.0,25.0,94,0.11,,---,0.94,VWS V14.01,2013-12-22 02:46:00,
2013-12-21 21:47:00,34.9,33.3,29.64,East,87,16.0,25.0,94,0.11,,---,0.94,VWS V14.01,2013-12-22 02:47:00,
2013-12-21 21:48:00,34.9,33.3,29.64,ENE,66,18.0,25.0,94,0.11,,---,0.94,VWS V14.01,2013-12-22 02:48:00,
2013-12-21 21:49:00,34.9,33.3,29.64,ENE,73,17.0,25.0,94,0.12,,---,0.95,VWS V14.01,2013-12-22 02:49:00,
2013-12-21 21:50:00,34.9,33.3,29.64,ENE,70,17.0,25.0,94,0.12,,---,0.95,VWS V14.01,2013-12-22 02:50:00,
2013-12-21 21:51:00,34.9,33.3,29.64,ENE,69,15.0,25.0,94,0.12,,---,0.95,VWS V14.01,2013-12-22 02:51:00,
2013-12-21 21:52:00,34.9,33.3,29.64,East,85,15.0,25.0,94,0.12,,---,0.95,VWS V14.01,2013-12-22 02:52:00,
2013-12-21 21:53:00,34.9,33.3,29.64,ENE,74,18.0,25.0,94,0.12,,---,0.95,VWS V14.01,2013-12-22 02:53:00,
2013-12-21 21:54:00,34.9,33.3,29.64,East,89,15.0,25.0,94,0.12,,---,0.95,VWS V14.01,2013-12-22 02:54:00,
2013-12-21 21:55:00,34.9,33.3,29.64,ENE,71,9.0,25.0,94,0.13,,---,0.96,VWS V14.01,2013-12-22 02:55:00,
2013-12-21 21:56:00,34.9,33.3,29.64,East,82,13.0,25.0,94,0.13,,---,0.96,VWS V14.01,2013-12-22 02:56:00,
2013-12-21 21:57:00,34.8,33.2,29.63,East,85,14.0,25.0,94,0.13,,---,0.96,VWS V14.01,2013-12-22 02:57:00,
2013-12-21 21:58:00,34.8,33.2,29.63,East,79,14.0,25.0,94,0.13,,---,0.96,VWS V14.01,2013-12-22 02:58:00,
2013-12-21 21:59:00,34.8,33.2,29.62,ENE,70,16.0,25.0,94,0.13,,---,0.96,VWS V14.01,2013-12-22 02:59:00,
2013-12-21 22:00:00,34.8,33.2,29.62,East,81,17.0,25.0,94,0.13,,---,0.96,VWS V14.01,2013-12-22 03:00:00,
2013-12-21 22:01:00,34.8,33.2,29.61,East,83,17.0,24.0,94,0.09,,---,0.96,VWS V14.01,2013-12-22 03:01:00,
2013-12-21 22:02:00,34.8,33.2,29.61,ENE,70,18.0,24.0,94,0.09,,---,0.96,VWS V14.01,2013-12-22 03:02:00,
2013-12-21 22:03:00,34.8,33.2,29.62,ENE,69,13.0,24.0,94,0.10,,---,0.97,VWS V14.01,2013-12-22 03:03:00,
2013-12-21 22:04:00,34.8,33.2,29.62,ESE,109,12.0,24.0,94,0.10,,---,0.97,VWS V14.01,2013-12-22 03:04:00,
2013-12-21 22:05:00,34.8,33.2,29.62,East,97,15.0,24.0,94,0.10,,---,0.97,VWS V14.01,2013-12-22 03:05:00,
2013-12-21 22:06:00,34.8,33.2,29.62,East,97,17.0,24.0,94,0.10,,---,0.97,VWS V14.01,2013-12-22 03:06:00,
2013-12-21 22:07:00,34.8,33.2,29.62,ENE,68,11.0,24.0,94,0.11,,---,0.98,VWS V14.01,2013-12-22 03:07:00,
2013-12-21 22:08:00,34.8,33.2,29.62,ENE,72,14.0,24.0,94,0.11,,---,0.98,VWS V14.01,2013-12-22 03:08:00,
2013-12-21 22:09:00,34.8,33.2,29.62,East,86,13.0,24.0,94,0.11,,---,0.98,VWS V14.01,2013-12-22 03:09:00,
2013-12-21 22:10:00,34.7,33.2,29.63,ENE,74,13.0,24.0,94,0.11,,---,0.98,VWS V14.01,2013-12-22 03:10:00,
2013-12-21 22:11:00,34.7,33.2,29.63,East,85,14.0,24.0,94,0.11,,---,0.98,VWS V14.01,2013-12-22 03:11:00,
2013-12-21 22:12:00,34.7,33.2,29.62,ENE,74,13.0,24.0,94,0.11,,---,0.98,VWS V14.01,2013-12-22 03:12:00,
2013-12-21 22:13:00,34.8,33.2,29.62,East,81,13.0,24.0,94,0.11,,---,0.98,VWS V14.01,2013-12-22 03:13:00,
2013-12-21 22:14:00,34.8,33.2,29.62,ENE,73,17.0,24.0,94,0.11,,---,0.98,VWS V14.01,2013-12-22 03:14:00,
2013-12-21 22:15:00,34.8,33.2,29.62,NE,52,22.0,24.0,94,0.11,,---,0.98,VWS V14.01,2013-12-22 03:15:00,
2013-12-21 22:16:00,34.8,33.2,29.62,ENE,70,14.0,24.0,94,0.11,,---,0.98,VWS V14.01,2013-12-22 03:16:00,
2013-12-21 22:17:00,34.8,33.2,29.62,East,83,17.0,24.0,94,0.11,,---,0.98,VWS V14.01,2013-12-22 03:17:00,
2013-12-21 22:18:00,34.7,33.2,29.62,ENE,70,16.0,24.0,94,0.11,,---,0.98,VWS V14.01,2013-12-22 03:18:00,
2013-12-21 22:19:00,34.8,33.2,29.62,ENE,76,14.0,24.0,94,0.11,,---,0.98,VWS V14.01,2013-12-22 03:19:00,
2013-12-21 22:20:00,34.7,33.2,29.62,ENE,68,11.0,24.0,94,0.11,,---,0.98,VWS V14.01,2013-12-22 03:20:00,
2013-12-21 22:21:00,34.7,33.2,29.62,ENE,78,16.0,24.0,94,0.11,,---,0.98,VWS V14.01,2013-12-22 03:21:00,
2013-12-21 22:22:00,34.7,33.2,29.61,ENE,72,18.0,24.0,94,0.12,,---,0.99,VWS V14.01,2013-12-22 03:22:00,
2013-12-21 22:23:00,34.7,33.2,29.61,ENE,59,18.0,24.0,94,0.12,,---,0.99,VWS V14.01,2013-12-22 03:23:00,
2013-12-21 22:24:00,34.7,33.2,29.61,ENE,65,14.0,24.0,94,0.12,,---,0.99,VWS V14.01,2013-12-22 03:24:00,
2013-12-21 22:25:00,34.7,33.2,29.61,ENE,64,15.0,24.0,94,0.12,,---,0.99,VWS V14.01,2013-12-22 03:25:00,
2013-12-21 22:26:00,34.6,33.0,29.61,ENE,64,13.0,24.0,94,0.12,,---,0.99,VWS V14.01,2013-12-22 03:26:00,
2013-12-21 22:27:00,34.6,33.0,29.61,ENE,60,13.0,24.0,94,0.12,,---,0.99,VWS V14.01,2013-12-22 03:27:00,
2013-12-21 22:28:00,34.6,33.0,29.61,ENE,62,12.0,24.0,94,0.12,,---,0.99,VWS V14.01,2013-12-22 03:28:00,
2013-12-21 22:29:00,34.6,33.0,29.62,ENE,57,12.0,24.0,94,0.12,,---,0.99,VWS V14.01,2013-12-22 03:29:00,
2013-12-21 22:30:00,34.6,33.0,29.62,ENE,61,14.0,24.0,94,0.12,,---,0.99,VWS V14.01,2013-12-22 03:30:00,
2013-12-21 22:31:00,34.6,33.0,29.62,ENE,72,19.0,23.0,94,0.07,,---,0.99,VWS V14.01,2013-12-22 03:31:00,
2013-12-21 22:32:00,34.6,33.0,29.62,ENE,67,18.0,23.0,94,0.07,,---,0.99,VWS V14.01,2013-12-22 03:32:00,
2013-12-21 22:33:00,34.6,33.0,29.62,NE,49,17.0,23.0,94,0.07,,---,0.99,VWS V14.01,2013-12-22 03:33:00,
2013-12-21 22:34:00,34.7,33.2,29.63,NE,50,13.0,23.0,94,0.07,,---,0.99,VWS V14.01,2013-12-22 03:34:00,
2013-12-21 22:35:00,34.7,33.2,29.63,NE,34,11.0,23.0,94,0.07,,---,0.99,VWS V14.01,2013-12-22 03:35:00,
2013-12-21 22:36:00,34.7,33.2,29.63,NNE,28,14.0,23.0,94,0.07,,---,0.99,VWS V14.01,2013-12-22 03:36:00,
2013-12-21 22:37:00,34.7,33.2,29.63,NE,45,11.0,23.0,94,0.07,,---,0.99,VWS V14.01,2013-12-22 03:37:00,
2013-12-21 22:38:00,34.7,33.2,29.64,NE,43,10.0,23.0,94,0.07,,---,0.99,VWS V14.01,2013-12-22 03:38:00,
2013-12-21 22:39:00,34.7,33.2,29.64,NNE,30,9.0,23.0,94,0.07,,---,0.99,VWS V14.01,2013-12-22 03:39:00,
2013-12-21 22:40:00,34.7,33.2,29.64,NNE,24,11.0,23.0,94,0.07,,---,0.99,VWS V14.01,2013-12-22 03:40:00,
2013-12-21 22:41:00,34.7,33.2,29.64,NNE,30,16.0,23.0,94,0.07,,---,0.99,VWS V14.01,2013-12-22 03:41:00,
2013-12-21 22:42:00,34.7,33.2,29.64,NE,37,12.0,23.0,94,0.07,,---,0.99,VWS V14.01,2013-12-22 03:42:00,
2013-12-21 22:43:00,34.7,33.2,29.64,NNE,24,6.0,23.0,94,0.07,,---,0.99,VWS V14.01,2013-12-22 03:43:00,
2013-12-21 22:44:00,34.7,33.2,29.64,NNE,33,8.0,23.0,94,0.07,,---,0.99,VWS V14.01,2013-12-22 03:44:00,
2013-12-21 22:45:00,34.7,33.2,29.64,NNE,33,9.0,23.0,94,0.08,,---,1.00,VWS V14.01,2013-12-22 03:45:00,
2013-12-21 22:46:00,34.6,33.0,29.64,ENE,59,13.0,23.0,94,0.08,,---,1.00,VWS V14.01,2013-12-22 03:46:00,
2013-12-21 22:47:00,34.6,33.0,29.63,ENE,70,15.0,23.0,94,0.08,,---,1.00,VWS V14.01,2013-12-22 03:47:00,
2013-12-21 22:48:00,34.6,33.0,29.61,ENE,75,18.0,23.0,94,0.08,,---,1.00,VWS V14.01,2013-12-22 03:48:00,
2013-12-21 22:49:00,34.5,33.0,29.59,East,87,22.0,23.0,94,0.08,,---,1.00,VWS V14.01,2013-12-22 03:49:00,
2013-12-21 22:50:00,34.5,33.0,29.58,ENE,75,13.0,23.0,94,0.08,,---,1.00,VWS V14.01,2013-12-22 03:50:00,
2013-12-21 22:51:00,34.4,32.9,29.59,NE,52,12.0,23.0,94,0.09,,---,1.01,VWS V14.01,2013-12-22 03:51:00,
2013-12-21 22:52:00,34.4,32.9,29.60,NE,47,17.0,23.0,94,0.09,,---,1.01,VWS V14.01,2013-12-22 03:52:00,
2013-12-21 22:53:00,34.4,32.9,29.60,ENE,65,13.0,23.0,94,0.09,,---,1.01,VWS V14.01,2013-12-22 03:53:00,
2013-12-21 22:54:00,34.4,32.9,29.60,ENE,65,16.0,23.0,94,0.09,,---,1.01,VWS V14.01,2013-12-22 03:54:00,
2013-12-21 22:55:00,34.4,32.9,29.60,ENE,73,18.0,23.0,94,0.09,,---,1.01,VWS V14.01,2013-12-22 03:55:00,
2013-12-21 22:56:00,34.4,32.9,29.59,ENE,64,16.0,23.0,94,0.10,,---,1.02,VWS V14.01,2013-12-22 03:56:00,
2013-12-21 22:57:00,34.4,32.9,29.60,ENE,67,18.0,23.0,94,0.10,,---,1.02,VWS V14.01,2013-12-22 03:57:00,
2013-12-21 22:58:00,34.4,33.1,29.60,ENE,64,15.0,23.0,95,0.10,,---,1.02,VWS V14.01,2013-12-22 03:58:00,
2013-12-21 22:59:00,34.4,33.1,29.61,NE,54,10.0,23.0,95,0.10,,---,1.02,VWS V14.01,2013-12-22 03:59:00,
2013-12-21 23:00:00,34.3,33.0,29.62,NE,48,13.0,23.0,95,0.10,,---,1.02,VWS V14.01,2013-12-22 04:00:00,
2013-12-21 23:01:00,34.4,33.1,29.62,NE,39,14.0,15.0,95,0.06,,---,1.02,VWS V14.01,2013-12-22 04:01:00,
2013-12-21 23:02:00,34.3,33.0,29.62,NE,47,14.0,17.0,95,0.06,,---,1.02,VWS V14.01,2013-12-22 04:02:00,
2013-12-21 23:03:00,34.4,33.1,29.62,NE,50,16.0,17.0,95,0.06,,---,1.02,VWS V14.01,2013-12-22 04:03:00,
2013-12-21 23:04:00,34.4,33.1,29.61,NE,44,14.0,17.0,95,0.06,,---,1.02,VWS V14.01,2013-12-22 04:04:00,
2013-12-21 23:05:00,34.4,33.1,29.61,NE,43,17.0,19.0,95,0.06,,---,1.02,VWS V14.01,2013-12-22 04:05:00,
2013-12-21 23:06:00,34.4,32.9,29.61,NE,54,13.0,19.0,94,0.06,,---,1.02,VWS V14.01,2013-12-22 04:06:00,
2013-12-21 23:07:00,34.4,32.9,29.60,NE,50,20.0,22.0,94,0.06,,---,1.02,VWS V14.01,2013-12-22 04:07:00,
2013-12-21 23:08:00,34.4,32.9,29.60,ENE,63,16.0,22.0,94,0.06,,---,1.02,VWS V14.01,2013-12-22 04:08:00,
2013-12-21 23:09:00,34.3,32.8,29.58,ENE,73,20.0,23.0,94,0.06,,---,1.02,VWS V14.01,2013-12-22 04:09:00,
2013-12-21 23:10:00,34.3,32.8,29.57,ENE,74,20.0,24.0,94,0.06,,---,1.02,VWS V14.01,2013-12-22 04:10:00,
2013-12-21 23:11:00,34.3,32.8,29.55,ENE,73,22.0,24.0,94,0.06,,---,1.02,VWS V14.01,2013-12-22 04:11:00,
2013-12-21 23:12:00,34.3,32.8,29.55,East,82,16.0,24.0,94,0.06,,---,1.02,VWS V14.01,2013-12-22 04:12:00,
2013-12-21 23:13:00,34.2,32.7,29.55,ENE,78,23.0,26.0,94,0.06,,---,1.02,VWS V14.01,2013-12-22 04:13:00,
2013-12-21 23:14:00,34.2,32.7,29.55,East,89,22.0,26.0,94,0.06,,---,1.02,VWS V14.01,2013-12-22 04:14:00,
2013-12-21 23:15:00,34.2,32.7,29.56,ENE,57,22.0,26.0,94,0.06,,---,1.02,VWS V14.01,2013-12-22 04:15:00,
2013-12-21 23:16:00,34.2,32.7,29.56,East,84,21.0,26.0,94,0.06,,---,1.02,VWS V14.01,2013-12-22 04:16:00,
2013-12-21 23:17:00,34.2,32.7,29.57,ENE,66,15.0,26.0,94,0.06,,---,1.02,VWS V14.01,2013-12-22 04:17:00,
2013-12-21 23:18:00,34.2,32.7,29.58,ENE,72,14.0,26.0,94,0.06,,---,1.02,VWS V14.01,2013-12-22 04:18:00,
2013-12-21 23:19:00,34.2,32.7,29.59,East,79,13.0,26.0,94,0.06,,---,1.02,VWS V14.01,2013-12-22 04:19:00,
2013-12-21 23:20:00,34.3,33.0,29.60,NE,35,15.0,26.0,95,0.06,,---,1.02,VWS V14.01,2013-12-22 04:20:00,
2013-12-21 23:21:00,34.3,33.0,29.61,NE,46,14.0,26.0,95,0.06,,---,1.02,VWS V14.01,2013-12-22 04:21:00,
2013-12-21 23:22:00,34.3,33.0,29.62,ENE,58,21.0,26.0,95,0.06,,---,1.02,VWS V14.01,2013-12-22 04:22:00,
2013-12-21 23:23:00,34.3,33.0,29.62,ENE,60,15.0,26.0,95,0.06,,---,1.02,VWS V14.01,2013-12-22 04:23:00,
2013-12-21 23:24:00,34.3,33.0,29.62,ENE,60,13.0,26.0,95,0.06,,---,1.02,VWS V14.01,2013-12-22 04:24:00,
2013-12-21 23:25:00,34.3,32.8,29.63,NE,45,11.0,26.0,94,0.06,,---,1.02,VWS V14.01,2013-12-22 04:25:00,
2013-12-21 23:26:00,34.3,32.8,29.63,NE,36,7.0,26.0,94,0.06,,---,1.02,VWS V14.01,2013-12-22 04:26:00,
2013-12-21 23:27:00,34.4,32.9,29.63,NE,49,11.0,26.0,94,0.06,,---,1.02,VWS V14.01,2013-12-22 04:27:00,
2013-12-21 23:28:00,34.4,32.9,29.64,ENE,58,11.0,26.0,94,0.06,,---,1.02,VWS V14.01,2013-12-22 04:28:00,
2013-12-21 23:29:00,34.3,32.8,29.64,NE,46,9.0,26.0,94,0.06,,---,1.02,VWS V14.01,2013-12-22 04:29:00,
2013-12-21 23:30:00,34.4,32.9,29.64,NE,43,13.0,26.0,94,0.06,,---,1.02,VWS V14.01,2013-12-22 04:30:00,
2013-12-21 23:31:00,34.4,32.9,29.65,NE,43,11.0,15.0,94,0.03,,---,1.02,VWS V14.01,2013-12-22 04:31:00,
2013-12-21 23:32:00,34.4,32.9,29.64,NE,39,11.0,15.0,94,0.03,,---,1.02,VWS V14.01,2013-12-22 04:32:00,
2013-12-21 23:33:00,34.4,32.9,29.64,ENE,68,11.0,15.0,94,0.03,,---,1.02,VWS V14.01,2013-12-22 04:33:00,
2013-12-21 23:34:00,34.4,32.9,29.64,NE,37,11.0,15.0,94,0.03,,---,1.02,VWS V14.01,2013-12-22 04:34:00,
2013-12-21 23:35:00,34.4,32.9,29.64,NE,54,12.0,15.0,94,0.03,,---,1.02,VWS V14.01,2013-12-22 04:35:00,
2013-12-21 23:36:00,34.4,32.9,29.64,NE,52,12.0,16.0,94,0.03,,---,1.02,VWS V14.01,2013-12-22 04:36:00,
2013-12-21 23:37:00,34.4,32.9,29.64,NE,52,12.0,16.0,94,0.03,,---,1.02,VWS V14.01,2013-12-22 04:37:00,
2013-12-21 23:38:00,34.4,32.9,29.64,NE,49,12.0,16.0,94,0.03,,---,1.02,VWS V14.01,2013-12-22 04:38:00,
2013-12-21 23:39:00,34.4,32.9,29.64,NE,36,10.0,16.0,94,0.03,,---,1.02,VWS V14.01,2013-12-22 04:39:00,
2013-12-21 23:40:00,34.4,32.9,29.64,NE,56,13.0,16.0,94,0.04,,---,1.03,VWS V14.01,2013-12-22 04:40:00,
2013-12-21 23:41:00,34.4,32.9,29.63,ENE,70,12.0,16.0,94,0.04,,---,1.03,VWS V14.01,2013-12-22 04:41:00,
2013-12-21 23:42:00,34.4,32.9,29.63,ENE,78,13.0,16.0,94,0.04,,---,1.03,VWS V14.01,2013-12-22 04:42:00,
2013-12-21 23:43:00,34.3,32.8,29.62,East,89,16.0,18.0,94,0.04,,---,1.03,VWS V14.01,2013-12-22 04:43:00,
2013-12-21 23:44:00,34.3,32.8,29.61,East,95,16.0,18.0,94,0.04,,---,1.03,VWS V14.01,2013-12-22 04:44:00,
2013-12-21 23:45:00,34.2,32.7,29.60,East,85,16.0,18.0,94,0.05,,---,1.04,VWS V14.01,2013-12-22 04:45:00,
2013-12-21 23:46:00,34.2,32.7,29.59,East,93,13.0,20.0,94,0.05,,---,1.04,VWS V14.01,2013-12-22 04:46:00,
2013-12-21 23:47:00,34.2,32.7,29.59,ENE,77,20.0,20.0,94,0.05,,---,1.04,VWS V14.01,2013-12-22 04:47:00,
2013-12-21 23:48:00,34.1,32.8,29.58,East,83,15.0,21.0,95,0.05,,---,1.04,VWS V14.01,2013-12-22 04:48:00,
2013-12-21 23:49:00,34.1,32.8,29.57,East,92,19.0,21.0,95,0.05,,---,1.04,VWS V14.01,2013-12-22 04:49:00,
2013-12-21 23:50:00,34.1,32.6,29.55,East,85,23.0,24.0,94,0.05,,---,1.04,VWS V14.01,2013-12-22 04:50:00,
2013-12-21 23:51:00,34.0,32.7,29.55,East,85,21.0,25.0,95,0.05,,---,1.04,VWS V14.01,2013-12-22 04:51:00,
2013-12-21 23:52:00,34.0,32.7,29.54,East,85,24.0,25.0,95,0.05,,---,1.04,VWS V14.01,2013-12-22 04:52:00,
2013-12-21 23:53:00,34.0,32.7,29.53,ENE,76,18.0,27.0,95,0.05,,---,1.04,VWS V14.01,2013-12-22 04:53:00,
2013-12-21 23:54:00,33.9,32.6,29.52,East,89,19.0,27.0,95,0.05,,---,1.04,VWS V14.01,2013-12-22 04:54:00,
2013-12-21 23:55:00,33.9,32.6,29.52,ENE,73,24.0,27.0,95,0.05,,---,1.04,VWS V14.01,2013-12-22 04:55:00,
2013-12-21 23:56:00,33.9,32.6,29.51,ENE,67,25.0,27.0,95,0.05,,---,1.04,VWS V14.01,2013-12-22 04:56:00,
2013-12-21 23:57:00,33.9,32.6,29.51,East,83,19.0,27.0,95,0.05,,---,1.04,VWS V14.01,2013-12-22 04:57:00,
2013-12-21 23:58:00,33.9,32.6,29.51,ESE,107,22.0,28.0,95,0.05,,---,1.04,VWS V14.01,2013-12-22 04:58:00,
2013-12-21 23:59:00,33.9,32.6,29.51,ENE,75,25.0,28.0,95,0.05,,---,1.04,VWS V14.01,2013-12-22 04:59:00,